Provisional Data: West Branch Susquehanna River near Milton, PA


Please select a monitoring station.
Please select start date.
Please select start date.

Toggle Unit: C/F Toggle Unit: C/F
Sample Time Temperature (C) Temperature (F) Specific Conductivity (mS/cm) pH   Turbidity (NTU+) DO (mg/L)
10/22/2021 12:00:00 AM 14.74 58.532 0.192 7.8 10.18 11.1
10/22/2021 12:15:00 AM 14.72 58.496 0.192 7.79 10.24 11.06
10/22/2021 12:30:00 AM 14.7 58.46 0.192 7.77 10.29 11.04
10/22/2021 12:45:00 AM 14.68 58.424 0.192 7.76 10.23 11.02
10/22/2021 1:00:00 AM 14.66 58.388 0.191 7.76 10.25 11.01
10/22/2021 1:15:00 AM 14.64 58.352 0.192 7.74 10.17 10.99
10/22/2021 1:30:00 AM 14.63 58.334 0.193 7.75 10.18 10.98
10/22/2021 1:45:00 AM 14.62 58.316 0.193 7.73 10.29 10.97
10/22/2021 2:00:00 AM 14.61 58.298 0.192 7.73 10.23 10.95
10/22/2021 2:15:00 AM 14.6 58.28 0.192 7.72 10.37 10.95
10/22/2021 2:30:00 AM 14.59 58.262 0.191 7.73 10.31 10.94
10/22/2021 2:45:00 AM 14.58 58.244 0.191 7.72 10.44 10.93
10/22/2021 3:00:00 AM 14.57 58.226 0.191 7.71 10.52 10.92
10/22/2021 3:15:00 AM 14.57 58.226 0.191 7.71 10.35 10.92
10/22/2021 3:30:00 AM 14.56 58.208 0.19 7.72 10.34 10.93
10/22/2021 3:45:00 AM 14.57 58.226 0.191 7.73 10.21 10.91
10/22/2021 4:00:00 AM 14.57 58.226 0.192 7.71 10.23 10.89
10/22/2021 4:15:00 AM 14.57 58.226 0.192 7.7 10.26 10.88
10/22/2021 4:30:00 AM 14.57 58.226 0.191 7.69 10.26 10.88
10/22/2021 4:45:00 AM 14.83 58.694 0.198 7.65 12.16 10.84
10/22/2021 5:00:00 AM 14.77 58.586 0.197 7.6 10.92 10.74
10/22/2021 5:15:00 AM 14.59 58.262 0.191 7.68 9.72 10.82
10/22/2021 5:30:00 AM 14.59 58.262 0.191 7.7 10.12 10.82
10/22/2021 5:45:00 AM 14.59 58.262 0.191 7.69 11.01 10.8
10/22/2021 6:00:00 AM 14.59 58.262 0.19 7.67 11.09 10.78
10/22/2021 6:15:00 AM 14.58 58.244 0.191 7.66 10.55 10.74
10/22/2021 6:30:00 AM 14.58 58.244 0.192 7.68 10.42 10.72
10/22/2021 6:45:00 AM 14.58 58.244 0.192 7.66 10.52 10.69
10/22/2021 7:00:00 AM 14.57 58.226 0.192 7.65 10.71 10.66
10/22/2021 7:15:00 AM 14.56 58.208 0.191 7.66 10.48 10.65
10/22/2021 7:30:00 AM 14.55 58.19 0.191 7.65 10.88 10.65
10/22/2021 7:45:00 AM 14.54 58.172 0.191 7.65 10.6 10.65
10/22/2021 8:00:00 AM 14.53 58.154 0.191 7.65 10.71 10.62
10/22/2021 8:15:00 AM 14.52 58.136 0.191 7.63 10.43 10.62
10/22/2021 8:30:00 AM 14.52 58.136 0.191 7.64 10.48 10.62
10/22/2021 8:45:00 AM 14.51 58.118 0.192 7.65 10.53 10.63
10/22/2021 9:00:00 AM 14.52 58.136 0.192 7.64 10.43 10.64
10/22/2021 9:15:00 AM 14.53 58.154 0.192 7.64 10.39 10.64
10/22/2021 9:30:00 AM 14.7 58.46 0.197 7.67 10.68 10.72
10/22/2021 9:45:00 AM 14.69 58.442 0.198 7.64 10.35 10.73
10/22/2021 10:00:00 AM 14.6 58.28 0.193 7.63 10.23 10.7
10/22/2021 10:15:00 AM 14.56 58.208 0.191 7.68 9.94 10.82
10/22/2021 10:30:00 AM 14.56 58.208 0.191 7.7 10.05 10.87
10/22/2021 10:45:00 AM 14.59 58.262 0.191 7.71 10.02 10.95
10/22/2021 11:00:00 AM 14.61 58.298 0.191 7.72 10.21 10.98
10/22/2021 11:15:00 AM 14.63 58.334 0.191 7.74 9.95 11.02
10/22/2021 11:30:00 AM 14.64 58.352 0.191 7.75 10.17 11.07
10/22/2021 11:45:00 AM 14.67 58.406 0.191 7.77 9.98 11.12
10/22/2021 12:00:00 PM 14.73 58.514 0.192 7.78 10.02 11.18
10/22/2021 12:15:00 PM 14.79 58.622 0.192 7.83 10.13 11.28
10/22/2021 12:30:00 PM 14.83 58.694 0.191 7.86 9.92 11.4
10/22/2021 12:45:00 PM 14.85 58.73 0.191 7.9 10 11.47
10/22/2021 1:00:00 PM 14.88 58.784 0.191 7.91 10 11.54
10/22/2021 1:15:00 PM 14.89 58.802 0.19 7.93 9.95 11.57
10/22/2021 1:30:00 PM 14.9 58.82 0.19 7.95 9.94 11.59
10/22/2021 1:45:00 PM 14.9 58.82 0.19 7.96 10.11 11.59
10/22/2021 2:00:00 PM 14.9 58.82 0.19 7.96 10.05 11.64
10/22/2021 2:15:00 PM 14.91 58.838 0.191 7.97 9.97 11.68
10/22/2021 2:30:00 PM 14.93 58.874 0.191 8.03 9.98 11.8
10/22/2021 2:45:00 PM 14.94 58.892 0.191 8.11 9.9 11.97
10/22/2021 3:00:00 PM 14.94 58.892 0.19 8.14 10.12 12.04
10/22/2021 3:15:00 PM 14.93 58.874 0.189 8.19 9.94 12.13
10/22/2021 3:30:00 PM 14.94 58.892 0.189 8.25 10.02 12.19
10/22/2021 3:45:00 PM 14.94 58.892 0.189 8.27 9.94 12.23
10/22/2021 4:00:00 PM 14.94 58.892 0.189 8.31 9.86 12.26
10/22/2021 4:15:00 PM 14.95 58.91 0.189 8.28 9.98 12.25
10/22/2021 4:30:00 PM 14.95 58.91 0.189 8.32 9.99 12.29
10/22/2021 4:45:00 PM 14.93 58.874 0.19 8.33 9.98 12.29
10/22/2021 5:00:00 PM 14.91 58.838 0.19 8.34 10.33 12.31
10/22/2021 5:15:00 PM 14.9 58.82 0.19 8.35 10.08 12.3
10/22/2021 5:30:00 PM 14.88 58.784 0.19 8.38 9.84 12.32
10/22/2021 5:45:00 PM 14.85 58.73 0.189 8.35 9.91 12.29
10/22/2021 6:00:00 PM 14.82 58.676 0.189 8.36 9.86 12.24
10/22/2021 6:15:00 PM 14.78 58.604 0.189 8.33 9.81 12.2
10/22/2021 6:30:00 PM 14.76 58.568 0.189 8.32 9.84 12.15
10/22/2021 6:45:00 PM 14.73 58.514 0.189 8.3 10.01 12.11
10/22/2021 7:00:00 PM 14.72 58.496 0.19 8.27 9.93 12.05
10/22/2021 7:15:00 PM 14.7 58.46 0.19 8.25 10.02 12
10/22/2021 7:30:00 PM 14.67 58.406 0.19 8.23 10 11.97
10/22/2021 7:45:00 PM 14.65 58.37 0.191 8.22 9.94 11.92
10/22/2021 8:00:00 PM 14.63 58.334 0.191 8.18 10.12 11.89
10/22/2021 8:15:00 PM 14.61 58.298 0.19 8.17 9.96 11.86
10/22/2021 8:30:00 PM 14.59 58.262 0.19 8.15 10.04 11.82
10/22/2021 8:45:00 PM 14.56 58.208 0.19 8.13 10.08 11.78
10/22/2021 9:00:00 PM 14.53 58.154 0.19 8.1 10.18 11.74
10/22/2021 9:15:00 PM 14.51 58.118 0.19 8.08 9.95 11.69
10/22/2021 9:30:00 PM 14.49 58.082 0.19 8.06 10.17 11.63
10/22/2021 9:45:00 PM 14.47 58.046 0.191 8.02 10 11.56
10/22/2021 10:00:00 PM 14.45 58.01 0.191 8 10 11.5
10/22/2021 10:15:00 PM 14.43 57.974 0.192 7.98 10.11 11.44
10/22/2021 10:30:00 PM 14.4 57.92 0.191 7.92 10.24 11.39
10/22/2021 10:45:00 PM 14.38 57.884 0.191 7.91 10.04 11.32
10/22/2021 11:00:00 PM 14.37 57.866 0.191 7.9 10.03 11.26
10/22/2021 11:15:00 PM 14.35 57.83 0.191 7.87 10.12 11.21
10/22/2021 11:30:00 PM 14.34 57.812 0.191 7.84 10.2 11.15
10/22/2021 11:45:00 PM 14.33 57.794 0.191 7.83 9.97 11.12
10/23/2021 12:00:00 AM 14.33 57.794 0.192 7.8 9.99 11.08
10/23/2021 12:15:00 AM 14.31 57.758 0.192 7.78 10.09 11.05
10/23/2021 12:30:00 AM 14.3 57.74 0.192 7.78 10.12 11.02
10/23/2021 12:45:00 AM 14.28 57.704 0.192 7.76 10.13 11.02
10/23/2021 1:00:00 AM 14.26 57.668 0.191 7.75 10.2 11
10/23/2021 1:15:00 AM 14.24 57.632 0.191 7.75 10.17 11
10/23/2021 1:30:00 AM 14.22 57.596 0.191 7.74 10.15 11
10/23/2021 1:45:00 AM 14.21 57.578 0.191 7.74 10.11 10.99
10/23/2021 2:00:00 AM 14.19 57.542 0.19 7.74 10.36 11
10/23/2021 2:15:00 AM 14.18 57.524 0.191 7.74 10.06 10.99
10/23/2021 2:30:00 AM 14.18 57.524 0.191 7.73 10.09 10.99
10/23/2021 2:45:00 AM 14.18 57.524 0.191 7.74 10.5 10.99
10/23/2021 3:00:00 AM 14.17 57.506 0.191 7.73 10.15 11
10/23/2021 3:15:00 AM 14.16 57.488 0.191 7.73 10.09 11
10/23/2021 3:30:00 AM 14.16 57.488 0.19 7.74 9.96 11.01
10/23/2021 3:45:00 AM 14.15 57.47 0.19 7.73 10.19 11.01
10/23/2021 4:00:00 AM 14.14 57.452 0.19 7.72 10.13 11
10/23/2021 4:15:00 AM 14.13 57.434 0.19 7.73 9.93 10.98
10/23/2021 4:30:00 AM 14.13 57.434 0.19 7.73 9.89 10.97
10/23/2021 4:45:00 AM 14.12 57.416 0.19 7.72 9.99 10.97
10/23/2021 5:00:00 AM 14.12 57.416 0.191 7.71 9.95 10.94
10/23/2021 5:15:00 AM 14.11 57.398 0.191 7.71 9.93 10.9
10/23/2021 5:30:00 AM 14.1 57.38 0.191 7.7 10.75 10.88
10/23/2021 5:45:00 AM 14.1 57.38 0.191 7.7 9.93 10.83
10/23/2021 6:00:00 AM 14.09 57.362 0.19 7.7 9.89 10.82
10/23/2021 6:15:00 AM 14.08 57.344 0.19 7.68 9.94 10.78
10/23/2021 6:30:00 AM 14.07 57.326 0.189 7.68 9.98 10.76
10/23/2021 6:45:00 AM 14.07 57.326 0.189 7.67 9.92 10.74
10/23/2021 7:00:00 AM 14.06 57.308 0.189 7.67 10.07 10.69
10/23/2021 7:15:00 AM 14.05 57.29 0.189 7.65 9.91 10.67
10/23/2021 7:30:00 AM 14.04 57.272 0.19 7.64 9.81 10.65
10/23/2021 7:45:00 AM 14.04 57.272 0.19 7.65 9.96 10.63
10/23/2021 8:00:00 AM 14.03 57.254 0.19 7.64 9.79 10.61
10/23/2021 8:15:00 AM 14.03 57.254 0.189 7.64 9.77 10.63
10/23/2021 8:30:00 AM 14.03 57.254 0.189 7.64 9.83 10.64
10/23/2021 8:45:00 AM 14.03 57.254 0.188 7.65 9.93 10.68
10/23/2021 9:00:00 AM 14.02 57.236 0.188 7.65 9.85 10.67
10/23/2021 9:15:00 AM 14.02 57.236 0.188 7.64 10.06 10.67
10/23/2021 9:30:00 AM 14.01 57.218 0.188 7.64 9.88 10.66
10/23/2021 9:45:00 AM 14 57.2 0.188 7.63 9.97 10.65
10/23/2021 10:00:00 AM 14 57.2 0.188 7.66 9.94 10.66
10/23/2021 10:15:00 AM 14 57.2 0.188 7.65 10.01 10.68
10/23/2021 10:30:00 AM 13.99 57.182 0.188 7.64 9.83 10.7
10/23/2021 10:45:00 AM 13.99 57.182 0.188 7.65 10.01 10.72
10/23/2021 11:00:00 AM 13.97 57.146 0.187 7.66 9.71 10.78
10/23/2021 11:15:00 AM 14.4 57.92 0.198 7.66 10.62 10.83
10/23/2021 11:30:00 AM 14.21 57.578 0.193 7.58 9.77 10.73
10/23/2021 11:45:00 AM 13.99 57.182 0.187 7.64 9.99 10.81
10/23/2021 12:00:00 PM 13.94 57.092 0.187 7.67 9.99 10.86
10/23/2021 12:15:00 PM 13.92 57.056 0.187 7.68 9.79 10.88
10/23/2021 12:30:00 PM 13.92 57.056 0.187 7.7 9.86 10.93
10/23/2021 12:45:00 PM 13.91 57.038 0.187 7.71 10 10.96
10/23/2021 1:00:00 PM 13.91 57.038 0.187 7.72 9.83 11.05
10/23/2021 1:15:00 PM 13.91 57.038 0.187 7.74 9.97 11.12
10/23/2021 1:30:00 PM 13.91 57.038 0.186 7.76 9.89 11.18
10/23/2021 1:45:00 PM 13.91 57.038 0.186 7.79 9.86 11.27
10/23/2021 2:00:00 PM 13.91 57.038 0.186 7.81 9.88 11.31
10/23/2021 2:15:00 PM 13.91 57.038 0.186 7.81 9.8 11.34
10/23/2021 2:30:00 PM 13.9 57.02 0.185 7.82 9.78 11.38
10/23/2021 2:45:00 PM 13.9 57.02 0.185 7.87 9.77 11.4
10/23/2021 3:00:00 PM 13.89 57.002 0.186 7.85 9.7 11.43
10/23/2021 3:15:00 PM 13.89 57.002 0.186 7.87 9.72 11.47
10/23/2021 3:30:00 PM 13.9 57.02 0.187 7.87 9.86 11.47
10/23/2021 3:45:00 PM 13.9 57.02 0.187 7.89 9.68 11.53
10/23/2021 4:00:00 PM 13.9 57.02 0.186 7.91 9.72 11.63
10/23/2021 4:15:00 PM 13.91 57.038 0.186 7.94 9.79 11.66
10/23/2021 4:30:00 PM 13.91 57.038 0.186 7.98 9.75 11.7
10/23/2021 4:45:00 PM 13.9 57.02 0.186 7.96 9.73 11.7
10/23/2021 5:00:00 PM 13.9 57.02 0.186 7.96 9.73 11.67
10/23/2021 5:15:00 PM 13.89 57.002 0.186 7.98 9.82 11.71
10/23/2021 5:30:00 PM 13.88 56.984 0.187 7.97 9.87 11.69
10/23/2021 5:45:00 PM 14.13 57.434 0.196 7.85 10.21 11.32
10/23/2021 6:00:00 PM 14.04 57.272 0.193 7.76 9.54 11.27
10/23/2021 6:15:00 PM 13.85 56.93 0.188 7.9 9.76 11.55
10/23/2021 6:30:00 PM 13.81 56.858 0.188 7.94 9.97 11.59
10/23/2021 6:45:00 PM 13.78 56.804 0.187 7.94 9.95 11.56
10/23/2021 7:00:00 PM 13.76 56.768 0.187 7.92 9.93 11.52
10/23/2021 7:15:00 PM 13.75 56.75 0.187 7.9 9.93 11.49
10/23/2021 7:30:00 PM 13.73 56.714 0.187 7.9 9.89 11.48
10/23/2021 7:45:00 PM 13.71 56.678 0.187 7.89 9.87 11.45
10/23/2021 8:00:00 PM 13.7 56.66 0.188 7.88 9.68 11.41
10/23/2021 8:15:00 PM 13.69 56.642 0.188 7.89 9.8 11.38
10/23/2021 8:30:00 PM 13.68 56.624 0.189 7.86 9.7 11.38
10/23/2021 8:45:00 PM 13.68 56.624 0.189 7.85 9.7 11.35
10/23/2021 9:00:00 PM 13.67 56.606 0.189 7.83 9.76 11.35
10/23/2021 9:15:00 PM 13.66 56.588 0.189 7.85 9.85 11.31
10/23/2021 9:30:00 PM 13.64 56.552 0.189 7.82 9.88 11.26
10/23/2021 9:45:00 PM 13.62 56.516 0.189 7.81 9.81 11.25
10/23/2021 10:00:00 PM 13.6 56.48 0.189 7.8 9.74 11.22
10/23/2021 10:15:00 PM 13.57 56.426 0.189 7.79 9.66 11.22
10/23/2021 10:30:00 PM 13.55 56.39 0.189 7.79 9.74 11.17
10/23/2021 10:45:00 PM 13.52 56.336 0.19 7.76 9.77 11.14
10/23/2021 11:00:00 PM 13.5 56.3 0.19 7.75 9.74 11.11
10/23/2021 11:15:00 PM 13.48 56.264 0.19 7.74 9.88 11.09
10/23/2021 11:30:00 PM 13.46 56.228 0.191 7.74 9.83 11.05
10/23/2021 11:45:00 PM 13.44 56.192 0.191 7.73 9.89 11.03
10/24/2021 12:00:00 AM 13.42 56.156 0.191 7.72 9.86 11.02
10/24/2021 12:15:00 AM 13.41 56.138 0.191 7.71 9.95 11.01
10/24/2021 12:30:00 AM 13.39 56.102 0.191 7.71 9.64 10.98
10/24/2021 12:45:00 AM 13.37 56.066 0.191 7.7 9.9 10.99
10/24/2021 1:00:00 AM 13.35 56.03 0.191 7.7 9.61 10.98
10/24/2021 1:15:00 AM 13.33 55.994 0.191 7.7 9.63 10.97
10/24/2021 1:30:00 AM 13.31 55.958 0.191 7.71 9.79 10.97
10/24/2021 1:45:00 AM 13.29 55.922 0.191 7.69 9.67 10.96
10/24/2021 2:00:00 AM 13.27 55.886 0.191 7.68 9.69 10.95
10/24/2021 2:15:00 AM 13.26 55.868 0.191 7.67 9.6 10.92
10/24/2021 2:30:00 AM 13.24 55.832 0.192 7.67 9.73 10.91
10/24/2021 2:45:00 AM 13.23 55.814 0.192 7.66 9.77 10.91
10/24/2021 3:00:00 AM 13.21 55.778 0.192 7.66 9.77 10.9
10/24/2021 3:15:00 AM 13.19 55.742 0.191 7.67 9.69 10.89
10/24/2021 3:30:00 AM 13.17 55.706 0.191 7.69 9.63 10.9
10/24/2021 3:45:00 AM 13.15 55.67 0.191 7.66 9.55 10.89
10/24/2021 4:00:00 AM 13.13 55.634 0.191 7.65 9.82 10.88
10/24/2021 4:15:00 AM 13.12 55.616 0.191 7.64 9.62 10.87
10/24/2021 4:30:00 AM 13.11 55.598 0.191 7.65 9.9 10.86
10/24/2021 4:45:00 AM 13.09 55.562 0.191 7.65 9.6 10.85
10/24/2021 5:00:00 AM 13.07 55.526 0.192 7.65 9.65 10.83
10/24/2021 5:15:00 AM 13.07 55.526 0.192 7.64 9.67 10.81
10/24/2021 5:30:00 AM 13.07 55.526 0.192 7.62 9.56 10.78
10/24/2021 5:45:00 AM 13.06 55.508 0.192 7.63 9.64 10.77
10/24/2021 6:00:00 AM 13.05 55.49 0.192 7.62 9.79 10.75
10/24/2021 6:15:00 AM 13.05 55.49 0.192 7.62 9.63 10.73
10/24/2021 6:30:00 AM 13.06 55.508 0.192 7.6 9.72 10.71
10/24/2021 6:45:00 AM 13.06 55.508 0.192 7.62 9.75 10.69
10/24/2021 7:00:00 AM 13.05 55.49 0.192 7.63 9.6 10.67
10/24/2021 7:15:00 AM 13.05 55.49 0.192 7.6 9.67 10.65
10/24/2021 7:30:00 AM 13.04 55.472 0.192 7.6 9.56 10.63
10/24/2021 7:45:00 AM 13.03 55.454 0.192 7.6 9.67 10.63
10/24/2021 8:00:00 AM 13.03 55.454 0.192 7.59 9.52 10.62
10/24/2021 8:15:00 AM 13.03 55.454 0.193 7.59 9.61 10.61
10/24/2021 8:30:00 AM 13.03 55.454 0.193 7.59 9.71 10.63
10/24/2021 8:45:00 AM 13.03 55.454 0.192 7.59 9.62 10.64
10/24/2021 9:00:00 AM 13.03 55.454 0.192 7.6 9.62 10.66
10/24/2021 9:15:00 AM 13.02 55.436 0.192 7.59 9.73 10.68
10/24/2021 9:30:00 AM 13.02 55.436 0.192 7.59 9.58 10.66
10/24/2021 9:45:00 AM 13.02 55.436 0.192 7.6 9.64 10.68
10/24/2021 10:00:00 AM 13.02 55.436 0.192 7.59 9.55 10.7
10/24/2021 10:15:00 AM 13.02 55.436 0.192 7.61 9.64 10.73
10/24/2021 10:30:00 AM 13.02 55.436 0.192 7.62 9.59 10.79
10/24/2021 10:45:00 AM 13.03 55.454 0.193 7.61 9.54 10.82
10/24/2021 11:00:00 AM 13.04 55.472 0.193 7.64 9.63 10.86
10/24/2021 11:15:00 AM 13.04 55.472 0.193 7.64 9.64 10.9
10/24/2021 11:30:00 AM 13.05 55.49 0.193 7.65 9.68 10.96
10/24/2021 11:45:00 AM 13.06 55.508 0.193 7.66 9.72 11
10/24/2021 12:00:00 PM 13.06 55.508 0.193 7.67 9.7 11.01
10/24/2021 12:15:00 PM 13.06 55.508 0.193 7.68 9.8 11.06
10/24/2021 12:30:00 PM 13.07 55.526 0.193 7.69 9.6 11.13
10/24/2021 12:45:00 PM 13.07 55.526 0.193 7.71 9.61 11.19
10/24/2021 1:00:00 PM 13.08 55.544 0.193 7.73 9.55 11.23
10/24/2021 1:15:00 PM 13.09 55.562 0.193 7.74 9.64 11.33
10/24/2021 1:30:00 PM 13.1 55.58 0.193 7.78 9.61 11.41
10/24/2021 1:45:00 PM 13.11 55.598 0.194 7.79 9.55 11.51
10/24/2021 2:00:00 PM 13.13 55.634 0.193 7.83 9.57 11.57
10/24/2021 2:15:00 PM 13.14 55.652 0.193 7.84 9.69 11.68
10/24/2021 2:30:00 PM 13.14 55.652 0.193 7.87 9.63 11.72
10/24/2021 2:45:00 PM 13.15 55.67 0.193 7.91 9.66 11.78
10/24/2021 3:00:00 PM 13.15 55.67 0.192 7.93 9.54 11.82
10/24/2021 3:15:00 PM 13.16 55.688 0.192 7.91 9.58 11.88
10/24/2021 3:30:00 PM 13.16 55.688 0.192 7.97 9.55 11.93
10/24/2021 3:45:00 PM 13.17 55.706 0.192 8 9.52 11.99
10/24/2021 4:00:00 PM 13.18 55.724 0.192 8.03 9.65 12.05
10/24/2021 4:15:00 PM 13.19 55.742 0.191 8.06 9.64 12.09
10/24/2021 4:30:00 PM 13.19 55.742 0.191 8.07 9.56 12.1
10/24/2021 4:45:00 PM 13.18 55.724 0.191 8.07 9.64 12.07
10/24/2021 5:00:00 PM 13.17 55.706 0.19 8.08 9.64 12.08
10/24/2021 5:15:00 PM 13.37 56.066 0.196 7.94 11.9 11.71
10/24/2021 5:30:00 PM 13.31 55.958 0.194 7.82 9.76 11.58
10/24/2021 5:45:00 PM 13.15 55.67 0.189 7.96 10.36 11.88
10/24/2021 6:00:00 PM 13.11 55.598 0.188 8.02 10.23 11.92
10/24/2021 6:15:00 PM 13.1 55.58 0.188 8 9.87 11.88
10/24/2021 6:30:00 PM 13.09 55.562 0.188 7.99 9.79 11.84
10/24/2021 6:45:00 PM 13.08 55.544 0.188 7.96 9.87 11.78
10/24/2021 7:00:00 PM 13.07 55.526 0.187 7.93 9.71 11.72
10/24/2021 7:15:00 PM 13.06 55.508 0.186 7.92 9.72 11.67
10/24/2021 7:30:00 PM 13.04 55.472 0.186 7.9 10.15 11.63
10/24/2021 7:45:00 PM 13.04 55.472 0.186 7.87 9.8 11.56
10/24/2021 8:00:00 PM 13.03 55.454 0.185 7.85 10.13 11.51
10/24/2021 8:15:00 PM 13.02 55.436 0.185 7.85 10.02 11.47
10/24/2021 8:30:00 PM 13.02 55.436 0.185 7.82 10.02 11.43
10/24/2021 8:45:00 PM 13.01 55.418 0.185 7.81 9.89 11.38
10/24/2021 9:00:00 PM 13.01 55.418 0.185 7.79 9.93 11.34
10/24/2021 9:15:00 PM 13.01 55.418 0.184 7.77 9.85 11.3
10/24/2021 9:30:00 PM 13.01 55.418 0.184 7.76 9.63 11.26
10/24/2021 9:45:00 PM 13 55.4 0.183 7.75 9.72 11.22
10/24/2021 10:00:00 PM 13 55.4 0.183 7.74 9.57 11.19
10/24/2021 10:15:00 PM 13 55.4 0.183 7.73 9.7 11.16
10/24/2021 10:30:00 PM 12.99 55.382 0.182 7.72 9.97 11.13
10/24/2021 10:45:00 PM 12.98 55.364 0.182 7.7 9.65 11.1
10/24/2021 11:00:00 PM 12.98 55.364 0.182 7.69 9.79 11.08
10/24/2021 11:15:00 PM 12.97 55.346 0.182 7.68 9.66 11.05
10/24/2021 11:30:00 PM 12.97 55.346 0.182 7.67 9.81 11.01
10/24/2021 11:45:00 PM 12.96 55.328 0.182 7.67 9.71 11
10/25/2021 12:00:00 AM 12.95 55.31 0.181 7.66 9.75 11
10/25/2021 12:15:00 AM 12.94 55.292 0.181 7.66 9.64 10.98
10/25/2021 12:30:00 AM 12.93 55.274 0.18 7.65 9.7 10.98
10/25/2021 12:45:00 AM 13.27 55.886 0.194 7.64 11.41 11.13
10/25/2021 1:00:00 AM 13.19 55.742 0.191 7.59 9.74 11.12
10/25/2021 1:15:00 AM 12.96 55.328 0.181 7.62 9.84 10.98
10/25/2021 1:30:00 AM 12.92 55.256 0.181 7.63 9.82 10.97
10/25/2021 1:45:00 AM 12.91 55.238 0.181 7.63 9.74 10.96
10/25/2021 2:00:00 AM 12.91 55.238 0.181 7.63 9.66 10.96
10/25/2021 2:15:00 AM 12.9 55.22 0.181 7.63 9.58 10.95
10/25/2021 2:30:00 AM 12.9 55.22 0.18 7.63 9.69 10.95
10/25/2021 2:45:00 AM 12.88 55.184 0.18 7.62 9.69 10.95
10/25/2021 3:00:00 AM 12.85 55.13 0.18 7.62 9.86 10.95
10/25/2021 3:15:00 AM 12.85 55.13 0.18 7.62 9.6 10.94
10/25/2021 3:30:00 AM 12.84 55.112 0.18 7.62 9.61 10.93
10/25/2021 3:45:00 AM 12.84 55.112 0.18 7.62 9.75 10.91
10/25/2021 4:00:00 AM 12.83 55.094 0.181 7.61 9.46 10.89
10/25/2021 4:15:00 AM 12.82 55.076 0.181 7.61 9.37 10.88
10/25/2021 4:30:00 AM 12.81 55.058 0.181 7.61 9.47 10.86
10/25/2021 4:45:00 AM 12.8 55.04 0.181 7.6 9.42 10.84
10/25/2021 5:00:00 AM 12.78 55.004 0.18 7.6 9.64 10.86
10/25/2021 5:15:00 AM 12.77 54.986 0.18 7.6 9.6 10.85
10/25/2021 5:30:00 AM 12.76 54.968 0.181 7.6 9.67 10.84
10/25/2021 5:45:00 AM 12.75 54.95 0.181 7.58 9.71 10.83
10/25/2021 6:00:00 AM 12.74 54.932 0.181 7.59 9.71 10.81
10/25/2021 6:15:00 AM 12.73 54.914 0.181 7.57 10.05 10.8
10/25/2021 6:30:00 AM 12.72 54.896 0.182 7.58 9.97 10.78
10/25/2021 6:45:00 AM 12.71 54.878 0.182 7.58 10.22 10.76
10/25/2021 7:00:00 AM 12.69 54.842 0.182 7.57 10.24 10.75
10/25/2021 7:15:00 AM 12.68 54.824 0.181 7.57 10.01 10.72
10/25/2021 7:30:00 AM 12.68 54.824 0.181 7.56 10.04 10.72
10/25/2021 7:45:00 AM 12.67 54.806 0.182 7.57 9.94 10.7
10/25/2021 8:00:00 AM 12.66 54.788 0.182 7.56 10.14 10.71
10/25/2021 8:15:00 AM 12.65 54.77 0.182 7.56 9.97 10.71
10/25/2021 8:30:00 AM 12.64 54.752 0.182 7.57 9.9 10.74
10/25/2021 8:45:00 AM 12.65 54.77 0.182 7.57 9.9 10.77
10/25/2021 9:00:00 AM 12.66 54.788 0.182 7.57 9.92 10.82
10/25/2021 9:15:00 AM 12.67 54.806 0.182 7.58 10.3 10.88
10/25/2021 9:30:00 AM 12.69 54.842 0.182 7.6 9.93 10.91
10/25/2021 9:45:00 AM 12.71 54.878 0.182 7.62 9.98 10.98
10/25/2021 10:00:00 AM 12.73 54.914 0.182 7.64 10.12 11.07
10/25/2021 10:15:00 AM 12.78 55.004 0.182 7.65 10.05 11.12
10/25/2021 10:30:00 AM 12.82 55.076 0.182 7.67 9.95 11.24
10/25/2021 10:45:00 AM 12.86 55.148 0.182 7.68 9.87 11.25
10/25/2021 11:00:00 AM 12.9 55.22 0.182 7.67 9.74 11.3
10/25/2021 11:15:00 AM 12.97 55.346 0.182 7.72 9.86 11.39
10/25/2021 11:30:00 AM 13.03 55.454 0.182 7.76 9.89 11.52
10/25/2021 11:45:00 AM 13.09 55.562 0.182 7.78 9.86 11.55
10/25/2021 12:00:00 PM 13.15 55.67 0.182 7.83 9.85 11.68
10/25/2021 12:15:00 PM 13.22 55.796 0.182 7.85 9.83 11.78
10/25/2021 12:30:00 PM 13.28 55.904 0.182 7.88 9.92 11.88
10/25/2021 12:45:00 PM 13.35 56.03 0.182 7.94 9.78 12
10/25/2021 1:00:00 PM 13.43 56.174 0.182 7.99 9.75 12.09
10/25/2021 1:15:00 PM 13.5 56.3 0.182 8.02 9.75 12.17
10/25/2021 1:30:00 PM 13.56 56.408 0.182 8.1 9.78 12.35
10/25/2021 1:45:00 PM 13.6 56.48 0.182 8.17 9.77 12.46
10/25/2021 2:00:00 PM 13.64 56.552 0.182 8.22 9.79 12.55
10/25/2021 2:15:00 PM 13.67 56.606 0.182 8.26 9.75 12.63
10/25/2021 2:30:00 PM 13.73 56.714 0.181 8.33 9.75 12.71
10/25/2021 2:45:00 PM 13.78 56.804 0.181 8.38 9.74 12.81
10/25/2021 3:00:00 PM 13.82 56.876 0.181 8.42 9.83 12.9
10/25/2021 3:15:00 PM 13.84 56.912 0.181 8.46 9.85 12.96
10/25/2021 3:30:00 PM 13.88 56.984 0.181 8.5 9.74 13.02
10/25/2021 3:45:00 PM 13.91 57.038 0.181 8.53 9.75 13.06
10/25/2021 4:00:00 PM 13.93 57.074 0.181 8.54 9.91 13.07
10/25/2021 4:15:00 PM 13.95 57.11 0.181 8.56 9.93 13.09
10/25/2021 4:30:00 PM 13.96 57.128 0.182 8.57 10.01 13.07
10/25/2021 4:45:00 PM 13.97 57.146 0.182 8.58 9.68 13.06
10/25/2021 5:00:00 PM 13.97 57.146 0.182 8.58 9.76 13.05
10/25/2021 5:15:00 PM 13.96 57.128 0.182 8.57 9.94 13.01
10/25/2021 5:30:00 PM 13.95 57.11 0.182 8.56 9.79 12.97
10/25/2021 5:45:00 PM 13.94 57.092 0.182 8.54 9.69 12.91
10/25/2021 6:00:00 PM 13.93 57.074 0.182 8.53 9.8 12.86
10/25/2021 6:15:00 PM 13.9 57.02 0.182 8.5 9.68 12.8
10/25/2021 6:30:00 PM 13.88 56.984 0.182 8.48 9.78 12.73
10/25/2021 6:45:00 PM 13.84 56.912 0.182 8.44 9.83 12.65
10/25/2021 7:00:00 PM 13.82 56.876 0.182 8.41 9.97 12.59
10/25/2021 7:15:00 PM 13.79 56.822 0.182 8.37 9.73 12.53
10/25/2021 7:30:00 PM 13.76 56.768 0.183 8.34 9.76 12.46
10/25/2021 7:45:00 PM 13.73 56.714 0.182 8.31 9.91 12.38
10/25/2021 8:00:00 PM 13.7 56.66 0.182 8.27 9.8 12.32
10/25/2021 8:15:00 PM 13.68 56.624 0.182 8.23 9.87 12.25
10/25/2021 8:30:00 PM 13.65 56.57 0.182 8.19 9.75 12.19
10/25/2021 8:45:00 PM 13.63 56.534 0.182 8.15 9.65 12.12
10/25/2021 9:00:00 PM 13.61 56.498 0.183 8.13 9.58 12.04
10/25/2021 9:15:00 PM 13.59 56.462 0.182 8.08 9.66 11.97
10/25/2021 9:30:00 PM 13.57 56.426 0.182 8.03 9.53 11.88
10/25/2021 9:45:00 PM 13.56 56.408 0.182 8 9.68 11.79
10/25/2021 10:00:00 PM 13.54 56.372 0.182 7.97 9.65 11.73
10/25/2021 10:15:00 PM 13.53 56.354 0.182 7.95 10.09 11.66
10/25/2021 10:30:00 PM 13.51 56.318 0.181 7.91 10.18 11.6
10/25/2021 10:45:00 PM 13.5 56.3 0.181 7.89 9.82 11.56
10/25/2021 11:00:00 PM 13.49 56.282 0.181 7.87 9.68 11.53
10/25/2021 11:15:00 PM 13.49 56.282 0.181 7.85 9.95 11.5
10/25/2021 11:30:00 PM 13.49 56.282 0.181 7.83 9.64 11.48
10/25/2021 11:45:00 PM 13.5 56.3 0.181 7.83 9.68 11.46
10/26/2021 12:00:00 AM 13.51 56.318 0.181 7.81 9.76 11.45
10/26/2021 12:15:00 AM 13.52 56.336 0.181 7.81 9.82 11.42
10/26/2021 12:30:00 AM 13.54 56.372 0.181 7.79 9.87 11.42
10/26/2021 12:45:00 AM 13.55 56.39 0.181 7.8 9.84 11.39
10/26/2021 1:00:00 AM 13.57 56.426 0.181 7.79 9.51 11.38
10/26/2021 1:15:00 AM 13.58 56.444 0.181 7.79 10.19 11.38
10/26/2021 1:30:00 AM 13.6 56.48 0.18 7.78 9.57 11.33
10/26/2021 1:45:00 AM 13.61 56.498 0.181 7.77 9.64 11.31
10/26/2021 2:00:00 AM 13.77 56.786 0.189 7.75 10.11 11.19
10/26/2021 2:15:00 AM 13.73 56.714 0.186 7.7 9.86 11.16
10/26/2021 2:30:00 AM 13.66 56.588 0.181 7.73 9.96 11.26
10/26/2021 2:45:00 AM 13.67 56.606 0.18 7.75 10.27 11.28
10/26/2021 3:00:00 AM 13.68 56.624 0.18 7.74 9.9 11.24
10/26/2021 3:15:00 AM 13.69 56.642 0.18 7.75 9.96 11.22
10/26/2021 3:30:00 AM 13.7 56.66 0.18 7.74 10.02 11.22
10/26/2021 3:45:00 AM 13.7 56.66 0.18 7.74 9.79 11.2
10/26/2021 4:00:00 AM 13.73 56.714 0.18 7.73 11.39 11.2
10/26/2021 4:15:00 AM 13.71 56.678 0.18 7.73 9.94 11.18
10/26/2021 4:30:00 AM 13.72 56.696 0.18 7.72 9.92 11.16
10/26/2021 4:45:00 AM 13.71 56.678 0.18 7.7 9.98 11.14
10/26/2021 5:00:00 AM 13.72 56.696 0.18 7.69 9.84 11.11
10/26/2021 5:15:00 AM 13.71 56.678 0.18 7.7 10.02 11.08
10/26/2021 5:30:00 AM 13.71 56.678 0.18 7.69 9.81 11.03
10/26/2021 5:45:00 AM 13.71 56.678 0.18 7.68 9.77 11
10/26/2021 6:00:00 AM 13.71 56.678 0.18 7.67 9.77 10.97
10/26/2021 6:15:00 AM 13.7 56.66 0.179 7.65 9.89 10.92
10/26/2021 6:30:00 AM 13.7 56.66 0.18 7.63 9.8 10.89
10/26/2021 6:45:00 AM 13.69 56.642 0.179 7.64 9.84 10.85
10/26/2021 7:00:00 AM 13.69 56.642 0.179 7.62 9.8 10.82
10/26/2021 7:15:00 AM 13.67 56.606 0.179 7.61 9.83 10.77
10/26/2021 7:30:00 AM 13.66 56.588 0.179 7.6 9.57 10.74
10/26/2021 7:45:00 AM 13.66 56.588 0.179 7.6 9.8 10.69
10/26/2021 8:00:00 AM 13.65 56.57 0.179 7.59 9.9 10.68
10/26/2021 8:15:00 AM 13.64 56.552 0.179 7.58 9.71 10.65
10/26/2021 8:30:00 AM 13.63 56.534 0.178 7.57 9.69 10.63
10/26/2021 8:45:00 AM 13.78 56.804 0.189 7.61 9.45 10.8
10/26/2021 9:00:00 AM 13.65 56.57 0.179 7.56 9.93 10.65
10/26/2021 9:15:00 AM 13.63 56.534 0.178 7.57 9.86 10.65
10/26/2021 9:30:00 AM 13.63 56.534 0.178 7.57 10.06 10.64
10/26/2021 9:45:00 AM 13.78 56.804 0.187 7.6 9.55 10.83
10/26/2021 10:00:00 AM 13.7 56.66 0.182 7.57 9.62 10.72
10/26/2021 10:15:00 AM 13.63 56.534 0.178 7.58 10.1 10.7
10/26/2021 10:30:00 AM 13.61 56.498 0.177 7.58 10.17 10.72
10/26/2021 10:45:00 AM 13.6 56.48 0.177 7.58 9.95 10.74
10/26/2021 11:00:00 AM 13.59 56.462 0.177 7.59 9.9 10.76
10/26/2021 11:15:00 AM 13.58 56.444 0.177 7.58 10.09 10.78
10/26/2021 11:30:00 AM 13.57 56.426 0.177 7.59 9.95 10.82
10/26/2021 11:45:00 AM 13.56 56.408 0.177 7.6 9.84 10.83
10/26/2021 12:00:00 PM 13.55 56.39 0.176 7.61 9.86 10.86
10/26/2021 12:15:00 PM 13.54 56.372 0.176 7.62 10.07 10.9
10/26/2021 12:30:00 PM 13.52 56.336 0.176 7.63 9.98 10.94
10/26/2021 12:45:00 PM 13.51 56.318 0.176 7.65 10 10.98
10/26/2021 1:00:00 PM 13.49 56.282 0.176 7.66 9.74 11.02
10/26/2021 1:15:00 PM 13.47 56.246 0.176 7.67 9.87 11.05
10/26/2021 1:30:00 PM 13.44 56.192 0.175 7.66 9.79 11.06
10/26/2021 1:45:00 PM 13.42 56.156 0.175 7.67 9.75 11.07
10/26/2021 2:00:00 PM 13.4 56.12 0.175 7.68 9.89 11.12
10/26/2021 2:15:00 PM 13.38 56.084 0.175 7.71 9.93 11.18
10/26/2021 2:30:00 PM 13.36 56.048 0.175 7.71 9.85 11.21
10/26/2021 2:45:00 PM 13.34 56.012 0.175 7.72 9.91 11.25
10/26/2021 3:00:00 PM 13.32 55.976 0.175 7.75 9.97 11.27
10/26/2021 3:15:00 PM 13.29 55.922 0.174 7.75 9.9 11.31
10/26/2021 3:30:00 PM 13.26 55.868 0.174 7.77 9.9 11.31
10/26/2021 3:45:00 PM 13.23 55.814 0.174 7.76 9.79 11.31
10/26/2021 4:00:00 PM 13.2 55.76 0.174 7.77 9.7 11.31
10/26/2021 4:15:00 PM 13.16 55.688 0.173 7.77 10.13 11.34
10/26/2021 4:30:00 PM 13.14 55.652 0.173 7.78 10.16 11.34
10/26/2021 4:45:00 PM 13.11 55.598 0.172 7.78 9.96 11.34
10/26/2021 5:00:00 PM 13.08 55.544 0.172 7.78 9.93 11.34
10/26/2021 5:15:00 PM 13.05 55.49 0.172 7.78 9.98 11.33
10/26/2021 5:30:00 PM 13.03 55.454 0.172 7.77 10.08 11.32
10/26/2021 5:45:00 PM 13.01 55.418 0.172 7.77 10.03 11.33
10/26/2021 6:00:00 PM 12.98 55.364 0.172 7.77 9.96 11.33
10/26/2021 6:15:00 PM 13.21 55.778 0.18 7.71 9.7 11.14
10/26/2021 6:30:00 PM 13.09 55.562 0.176 7.69 9.8 11.16
10/26/2021 6:45:00 PM 12.91 55.238 0.172 7.75 10.19 11.28
10/26/2021 7:00:00 PM 12.87 55.166 0.172 7.75 10.11 11.27
10/26/2021 7:15:00 PM 12.84 55.112 0.172 7.74 10.24 11.23
10/26/2021 7:30:00 PM 12.81 55.058 0.172 7.73 10.15 11.21
10/26/2021 7:45:00 PM 12.78 55.004 0.172 7.72 10.3 11.15
10/26/2021 8:00:00 PM 12.76 54.968 0.172 7.7 10.07 11.11
10/26/2021 8:15:00 PM 12.74 54.932 0.171 7.69 10.19 11.07
10/26/2021 8:30:00 PM 12.72 54.896 0.172 7.68 9.98 11.04
10/26/2021 8:45:00 PM 12.71 54.878 0.171 7.66 10.18 11.01
10/26/2021 9:00:00 PM 12.69 54.842 0.171 7.65 9.98 10.98
10/26/2021 9:15:00 PM 12.68 54.824 0.171 7.64 10.09 10.95
10/26/2021 9:30:00 PM 12.67 54.806 0.171 7.63 10.08 10.93
10/26/2021 9:45:00 PM 12.66 54.788 0.171 7.62 10.05 10.9
10/26/2021 10:00:00 PM 12.65 54.77 0.171 7.62 10.03 10.89
10/26/2021 10:15:00 PM 12.64 54.752 0.171 7.62 10.19 10.88
10/26/2021 10:30:00 PM 12.64 54.752 0.171 7.61 10.1 10.87
10/26/2021 10:45:00 PM 12.63 54.734 0.171 7.62 10.06 10.88
10/26/2021 11:00:00 PM 12.62 54.716 0.171 7.61 10.16 10.88
10/26/2021 11:15:00 PM 12.6 54.68 0.17 7.61 10 10.87
10/26/2021 11:30:00 PM 12.59 54.662 0.17 7.62 9.94 10.88
10/26/2021 11:45:00 PM 12.58 54.644 0.17 7.61 10.01 10.88
10/27/2021 12:00:00 AM 12.56 54.608 0.169 7.61 10.13 10.89
10/27/2021 12:15:00 AM 12.55 54.59 0.169 7.62 10.09 10.89
10/27/2021 12:30:00 AM 12.53 54.554 0.169 7.61 10.02 10.88
10/27/2021 12:45:00 AM 12.51 54.518 0.169 7.61 10.05 10.89
10/27/2021 1:00:00 AM 12.49 54.482 0.169 7.61 10.15 10.88
10/27/2021 1:15:00 AM 12.47 54.446 0.169 7.61 10.33 10.87
10/27/2021 1:30:00 AM 12.46 54.428 0.169 7.62 10.34 10.87
10/27/2021 1:45:00 AM 12.45 54.41 0.169 7.61 10.41 10.88
10/27/2021 2:00:00 AM 12.44 54.392 0.169 7.6 10.41 10.87
10/27/2021 2:15:00 AM 12.44 54.392 0.169 7.61 10.6 10.87
10/27/2021 2:30:00 AM 12.43 54.374 0.169 7.61 10.42 10.87
10/27/2021 2:45:00 AM 12.43 54.374 0.169 7.6 10.53 10.87
10/27/2021 3:00:00 AM 12.44 54.392 0.169 7.61 10.55 10.86
10/27/2021 3:15:00 AM 12.44 54.392 0.169 7.59 10.68 10.86
10/27/2021 3:30:00 AM 12.44 54.392 0.168 7.61 10.6 10.85
10/27/2021 3:45:00 AM 12.44 54.392 0.169 7.6 10.4 10.83
10/27/2021 4:00:00 AM 12.44 54.392 0.168 7.6 10.59 10.82
10/27/2021 4:15:00 AM 12.44 54.392 0.168 7.59 10.6 10.81
10/27/2021 4:30:00 AM 12.44 54.392 0.168 7.58 10.49 10.8
10/27/2021 4:45:00 AM 12.44 54.392 0.168 7.58 10.73 10.78
10/27/2021 5:00:00 AM 12.45 54.41 0.168 7.57 10.47 10.76
10/27/2021 5:15:00 AM 12.45 54.41 0.168 7.58 10.16 10.73
10/27/2021 5:30:00 AM 12.46 54.428 0.168 7.58 10.1 10.7
10/27/2021 5:45:00 AM 12.45 54.41 0.167 7.57 10.11 10.67
10/27/2021 6:00:00 AM 12.45 54.41 0.167 7.56 9.99 10.65
10/27/2021 6:15:00 AM 12.44 54.392 0.167 7.56 10.17 10.64
10/27/2021 6:30:00 AM 12.43 54.374 0.167 7.57 10.16 10.63
10/27/2021 6:45:00 AM 12.42 54.356 0.167 7.55 10.11 10.63
10/27/2021 7:00:00 AM 12.41 54.338 0.166 7.54 10.36 10.61
10/27/2021 7:15:00 AM 12.41 54.338 0.166 7.54 10.35 10.6
10/27/2021 7:30:00 AM 12.4 54.32 0.166 7.54 10.28 10.61
10/27/2021 7:45:00 AM 12.4 54.32 0.166 7.54 10.23 10.6
10/27/2021 8:00:00 AM 12.4 54.32 0.166 7.54 10.56 10.6
10/27/2021 8:15:00 AM 12.39 54.302 0.165 7.55 10.7 10.63
10/27/2021 8:30:00 AM 12.4 54.32 0.165 7.54 10.13 10.64
10/27/2021 8:45:00 AM 12.41 54.338 0.165 7.55 10.2 10.67
10/27/2021 9:00:00 AM 12.43 54.374 0.165 7.56 10.12 10.75
10/27/2021 9:15:00 AM 12.45 54.41 0.164 7.57 10.2 10.8
10/27/2021 9:30:00 AM 12.47 54.446 0.164 7.58 10.09 10.82
10/27/2021 9:45:00 AM 12.48 54.464 0.164 7.58 9.86 10.86
10/27/2021 10:00:00 AM 12.51 54.518 0.163 7.58 10.33 10.87
10/27/2021 10:15:00 AM 12.54 54.572 0.163 7.6 10.75 10.94
10/27/2021 10:30:00 AM 12.57 54.626 0.163 7.61 10.33 10.97
10/27/2021 10:45:00 AM 12.6 54.68 0.163 7.63 10.41 11
10/27/2021 11:00:00 AM 12.63 54.734 0.162 7.63 10.57 11.05
10/27/2021 11:15:00 AM 12.66 54.788 0.162 7.65 10.61 11.12
10/27/2021 11:30:00 AM 12.7 54.86 0.162 7.67 10.39 11.17
10/27/2021 11:45:00 AM 12.74 54.932 0.161 7.68 10.3 11.24
10/27/2021 12:00:00 PM 12.79 55.022 0.161 7.68 10.28 11.33
10/27/2021 12:15:00 PM 12.86 55.148 0.16 7.73 10.36 11.41
10/27/2021 12:30:00 PM 12.92 55.256 0.16 7.75 10.53 11.49
10/27/2021 12:45:00 PM 12.98 55.364 0.159 7.81 10.69 11.6
10/27/2021 1:00:00 PM 13.05 55.49 0.159 7.85 10.75 11.71
10/27/2021 1:15:00 PM 13.12 55.616 0.158 7.89 10.52 11.8
10/27/2021 1:30:00 PM 13.16 55.688 0.157 7.92 10.71 11.84
10/27/2021 1:45:00 PM 13.22 55.796 0.156 7.95 10.46 11.91
10/27/2021 2:00:00 PM 13.26 55.868 0.156 8 10.99 11.97
10/27/2021 2:15:00 PM 13.31 55.958 0.155 8.02 10.71 11.97
10/27/2021 2:30:00 PM 13.34 56.012 0.156 8 10.87 11.93
10/27/2021 2:45:00 PM 13.4 56.12 0.154 8.03 11.15 11.98
10/27/2021 3:00:00 PM 13.44 56.192 0.153 8.08 12.14 12.08
10/27/2021 3:15:00 PM 13.46 56.228 0.152 8.08 11.01 12.07
10/27/2021 3:30:00 PM 13.49 56.282 0.151 8.12 10.95 12.12
10/27/2021 3:45:00 PM 13.5 56.3 0.151 8.12 11.05 12.09
10/27/2021 4:00:00 PM 13.5 56.3 0.149 8.12 11.38 12.06
10/27/2021 4:15:00 PM 13.51 56.318 0.15 8.09 11.56 11.99
10/27/2021 4:30:00 PM 13.51 56.318 0.148 8.04 11.56 11.94
10/27/2021 4:45:00 PM 13.5 56.3 0.146 8.05 12.1 11.94
10/27/2021 5:00:00 PM 13.48 56.264 0.145 8.04 13.44 11.89
10/27/2021 5:15:00 PM 13.46 56.228 0.144 8 12.65 11.81
10/27/2021 5:30:00 PM 13.44 56.192 0.144 7.96 12.44 11.74
10/27/2021 5:45:00 PM 13.39 56.102 0.142 7.93 13.15 11.68
10/27/2021 6:00:00 PM 13.36 56.048 0.141 7.9 13.18 11.62
10/27/2021 6:15:00 PM 13.34 56.012 0.14 7.87 12.88 11.56
10/27/2021 6:30:00 PM 13.31 55.958 0.14 7.83 14 11.52
10/27/2021 6:45:00 PM 13.29 55.922 0.139 7.82 13.21 11.47
10/27/2021 7:00:00 PM 13.27 55.886 0.138 7.8 13.25 11.42
10/27/2021 7:15:00 PM 13.69 56.642 0.173 7.67 10.72 11.15
10/27/2021 7:30:00 PM 13.38 56.084 0.159 7.63 10.48 11.18
10/27/2021 7:45:00 PM 13.19 55.742 0.138 7.72 15.08 11.29
10/27/2021 8:00:00 PM 13.15 55.67 0.137 7.72 13.36 11.28
10/27/2021 8:15:00 PM 13.11 55.598 0.136 7.71 15 11.26
10/27/2021 8:30:00 PM 13.11 55.598 0.137 7.69 13.72 11.22
10/27/2021 8:45:00 PM 13.08 55.544 0.136 7.68 13.31 11.21
10/27/2021 9:00:00 PM 13.07 55.526 0.135 7.68 14.44 11.2
10/27/2021 9:15:00 PM 13.05 55.49 0.135 7.66 14.41 11.19
10/27/2021 9:30:00 PM 13.05 55.49 0.134 7.65 13.64 11.18
10/27/2021 9:45:00 PM 13.04 55.472 0.134 7.66 14.97 11.17
10/27/2021 10:00:00 PM 13.03 55.454 0.134 7.64 14.95 11.16
10/27/2021 10:15:00 PM 13.03 55.454 0.135 7.63 14 11.12
10/27/2021 10:30:00 PM 13.03 55.454 0.135 7.63 15.59 11.13
10/27/2021 10:45:00 PM 13.02 55.436 0.135 7.63 13.66 11.13
10/27/2021 11:00:00 PM 13.02 55.436 0.135 7.63 13.62 11.11
10/27/2021 11:15:00 PM 13.02 55.436 0.135 7.62 14.35 11.09
10/27/2021 11:30:00 PM 13.02 55.436 0.135 7.62 13.38 11.08
10/27/2021 11:45:00 PM 13.01 55.418 0.135 7.6 14.84 11.06
10/28/2021 12:00:00 AM 13.01 55.418 0.135 7.6 15 11.03
10/28/2021 12:15:00 AM 13 55.4 0.135 7.59 14.66 11.01
10/28/2021 12:30:00 AM 13.02 55.436 0.136 7.59 14.91 10.99
10/28/2021 12:45:00 AM 12.99 55.382 0.136 7.58 14.2 10.95
10/28/2021 1:00:00 AM 12.99 55.382 0.136 7.56 15.88 10.92
10/28/2021 1:15:00 AM 12.98 55.364 0.136 7.56 15.17 10.9
10/28/2021 1:30:00 AM 12.96 55.328 0.136 7.55 17.27 10.89
10/28/2021 1:45:00 AM 12.95 55.31 0.137 7.54 16.3 10.86
10/28/2021 2:00:00 AM 12.93 55.274 0.137 7.54 15.59 10.82
10/28/2021 2:15:00 AM 12.91 55.238 0.137 7.53 15.31 10.8
10/28/2021 2:30:00 AM 12.89 55.202 0.138 7.52 15.9 10.76
10/28/2021 2:45:00 AM 12.88 55.184 0.138 7.51 15.24 10.74
10/28/2021 3:00:00 AM 12.86 55.148 0.139 7.5 15.82 10.71
10/28/2021 3:15:00 AM 12.84 55.112 0.139 7.5 14.68 10.68
10/28/2021 3:30:00 AM 12.82 55.076 0.139 7.49 15.51 10.67
10/28/2021 3:45:00 AM 12.79 55.022 0.14 7.49 14.17 10.63
10/28/2021 4:00:00 AM 12.77 54.986 0.14 7.48 16.09 10.64
10/28/2021 4:15:00 AM 12.75 54.95 0.141 7.47 14.92 10.6
10/28/2021 4:30:00 AM 12.72 54.896 0.141 7.47 16.17 10.59
10/28/2021 4:45:00 AM 12.71 54.878 0.142 7.47 15.01 10.57
10/28/2021 5:00:00 AM 12.69 54.842 0.142 7.47 15.62 10.56
10/28/2021 5:15:00 AM 12.67 54.806 0.142 7.46 15.86 10.56
10/28/2021 5:30:00 AM 12.64 54.752 0.143 7.46 15.01 10.54
10/28/2021 5:45:00 AM 12.62 54.716 0.143 7.46 14.77 10.53
10/28/2021 6:00:00 AM 12.6 54.68 0.143 7.45 15.17 10.51
10/28/2021 6:15:00 AM 12.58 54.644 0.144 7.45 14.74 10.51
10/28/2021 6:30:00 AM 12.55 54.59 0.144 7.45 14.62 10.51
10/28/2021 6:45:00 AM 12.53 54.554 0.144 7.44 15.26 10.51
10/28/2021 7:00:00 AM 12.51 54.518 0.145 7.44 14.91 10.5
10/28/2021 7:15:00 AM 12.5 54.5 0.145 7.44 14.94 10.48
10/28/2021 7:30:00 AM 12.47 54.446 0.145 7.44 14.9 10.49
10/28/2021 7:45:00 AM 12.46 54.428 0.145 7.44 13.92 10.49
10/28/2021 8:00:00 AM 12.44 54.392 0.145 7.44 14.67 10.48
10/28/2021 8:15:00 AM 12.43 54.374 0.145 7.43 13.96 10.5
10/28/2021 8:30:00 AM 12.47 54.446 0.146 7.43 13.99 10.48
10/28/2021 8:45:00 AM 12.61 54.698 0.153 7.48 13.91 10.63
10/28/2021 9:00:00 AM 12.47 54.446 0.147 7.44 13.6 10.52
10/28/2021 9:15:00 AM 12.56 54.608 0.152 7.46 14.58 10.62
10/28/2021 9:30:00 AM 12.73 54.914 0.156 7.5 12.31 10.74
10/28/2021 9:45:00 AM 12.66 54.788 0.152 7.49 12.7 10.69
10/28/2021 10:00:00 AM 12.5 54.5 0.147 7.45 14.06 10.6
10/28/2021 10:15:00 AM 12.49 54.482 0.147 7.45 13.94 10.58
10/28/2021 10:30:00 AM 12.51 54.518 0.147 7.45 14.4 10.63
10/28/2021 10:45:00 AM 12.54 54.572 0.147 7.46 13.66 10.66
10/28/2021 11:00:00 AM 12.57 54.626 0.147 7.47 14.77 10.69
10/28/2021 11:15:00 AM 12.61 54.698 0.147 7.48 14.32 10.72
10/28/2021 11:30:00 AM 12.64 54.752 0.147 7.49 14.43 10.78
10/28/2021 11:45:00 AM 12.67 54.806 0.147 7.49 14.17 10.81
10/28/2021 12:00:00 PM 12.7 54.86 0.147 7.5 13.57 10.83
10/28/2021 12:15:00 PM 12.74 54.932 0.146 7.5 13.36 10.86
10/28/2021 12:30:00 PM 12.78 55.004 0.146 7.52 13.51 10.9
10/28/2021 12:45:00 PM 12.83 55.094 0.146 7.54 16.74 10.98
10/28/2021 1:00:00 PM 12.87 55.166 0.146 7.54 14.96 11.03
10/28/2021 1:15:00 PM 12.91 55.238 0.145 7.56 13.69 11.07
10/28/2021 1:30:00 PM 12.95 55.31 0.145 7.56 14 11.11
10/28/2021 1:45:00 PM 12.98 55.364 0.145 7.58 14.87 11.15
10/28/2021 2:00:00 PM 13 55.4 0.145 7.59 14.72 11.18
10/28/2021 2:15:00 PM 13.01 55.418 0.145 7.59 13.92 11.21
10/28/2021 2:30:00 PM 13.02 55.436 0.144 7.6 15.09 11.24
10/28/2021 2:45:00 PM 13.03 55.454 0.144 7.61 13.87 11.25
10/28/2021 3:00:00 PM 13.03 55.454 0.144 7.61 13.57 11.27
10/28/2021 3:15:00 PM 13.03 55.454 0.144 7.62 14.52 11.29
10/28/2021 3:30:00 PM 13.04 55.472 0.143 7.61 13.88 11.29
10/28/2021 3:45:00 PM 13.04 55.472 0.143 7.63 13.85 11.32
10/28/2021 4:00:00 PM 13.04 55.472 0.143 7.64 14.01 11.31
10/28/2021 4:15:00 PM 13.04 55.472 0.143 7.62 13.54 11.29
10/28/2021 4:30:00 PM 13.03 55.454 0.142 7.63 13.36 11.28
10/28/2021 4:45:00 PM 13.02 55.436 0.142 7.63 12.96 11.29
10/28/2021 5:00:00 PM 13.01 55.418 0.142 7.62 13.79 11.26
10/28/2021 5:15:00 PM 13.01 55.418 0.141 7.63 13.79 11.29
10/28/2021 5:30:00 PM 12.99 55.382 0.141 7.6 13.73 11.26
10/28/2021 5:45:00 PM 12.98 55.364 0.141 7.63 14.04 11.27
10/28/2021 6:00:00 PM 12.96 55.328 0.141 7.61 13.72 11.21
10/28/2021 6:15:00 PM 13.2 55.76 0.156 7.6 12.69 11.1
10/28/2021 6:30:00 PM 13.06 55.508 0.148 7.54 12.54 11.14
10/28/2021 6:45:00 PM 12.92 55.256 0.141 7.58 14.85 11.21
10/28/2021 7:00:00 PM 12.91 55.238 0.141 7.58 14.27 11.2
10/28/2021 7:15:00 PM 12.9 55.22 0.14 7.58 14.44 11.19
10/28/2021 7:30:00 PM 12.89 55.202 0.14 7.59 14.53 11.18
10/28/2021 7:45:00 PM 12.89 55.202 0.14 7.59 15.69 11.17
10/28/2021 8:00:00 PM 12.89 55.202 0.14 7.58 15.14 11.16
10/28/2021 8:15:00 PM 12.89 55.202 0.14 7.58 15.23 11.16
10/28/2021 8:30:00 PM 12.88 55.184 0.14 7.58 15.37 11.17
10/28/2021 8:45:00 PM 12.87 55.166 0.14 7.57 15.16 11.16
10/28/2021 9:00:00 PM 12.86 55.148 0.14 7.57 15.55 11.16
10/28/2021 9:15:00 PM 12.86 55.148 0.14 7.56 16.01 11.15
10/28/2021 9:30:00 PM 12.87 55.166 0.14 7.57 15.84 11.16
10/28/2021 9:45:00 PM 12.87 55.166 0.14 7.57 15.78 11.15
10/28/2021 10:00:00 PM 12.88 55.184 0.14 7.56 15.86 11.16
10/28/2021 10:15:00 PM 12.88 55.184 0.14 7.56 15.77 11.14
10/28/2021 10:30:00 PM 12.88 55.184 0.14 7.57 15.31 11.14
10/28/2021 10:45:00 PM 12.88 55.184 0.14 7.56 15.27 11.13
10/28/2021 11:00:00 PM 12.88 55.184 0.14 7.56 15.91 11.12
10/28/2021 11:15:00 PM 12.89 55.202 0.14 7.56 16.41 11.12
10/28/2021 11:30:00 PM 12.89 55.202 0.14 7.56 15.9 11.12
10/28/2021 11:45:00 PM 12.91 55.238 0.14 7.55 14.73 11.07
10/29/2021 12:00:00 AM 12.9 55.22 0.14 7.55 15.23 11.07
10/29/2021 12:15:00 AM 12.9 55.22 0.14 7.54 13.91 11.03
10/29/2021 12:30:00 AM 12.89 55.202 0.14 7.53 15.08 11.01
10/29/2021 12:45:00 AM 12.89 55.202 0.14 7.53 14.63 11
10/29/2021 1:00:00 AM 12.88 55.184 0.141 7.52 15.58 11
10/29/2021 1:15:00 AM 12.88 55.184 0.14 7.51 14.54 10.98
10/29/2021 1:30:00 AM 12.87 55.166 0.14 7.52 17.36 10.94
10/29/2021 1:45:00 AM 13.03 55.454 0.151 7.54 13.6 11.03
10/29/2021 2:00:00 AM 12.96 55.328 0.148 7.48 12.57 10.99
10/29/2021 2:15:00 AM 12.84 55.112 0.141 7.49 15.36 10.91
10/29/2021 2:30:00 AM 12.82 55.076 0.141 7.5 15.3 10.87
10/29/2021 2:45:00 AM 12.8 55.04 0.14 7.49 15.38 10.87
10/29/2021 3:00:00 AM 12.79 55.022 0.14 7.49 16.1 10.85
10/29/2021 3:15:00 AM 12.77 54.986 0.141 7.47 16.41 10.82
10/29/2021 3:30:00 AM 12.75 54.95 0.14 7.46 16.24 10.8
10/29/2021 3:45:00 AM 12.75 54.95 0.14 7.47 15.85 10.79
10/29/2021 4:00:00 AM 12.72 54.896 0.14 7.47 15 10.78
10/29/2021 4:15:00 AM 12.7 54.86 0.14 7.46 15.06 10.76
10/29/2021 4:30:00 AM 12.68 54.824 0.14 7.45 15.95 10.74
10/29/2021 4:45:00 AM 12.66 54.788 0.14 7.44 15.18 10.72
10/29/2021 5:00:00 AM 12.64 54.752 0.14 7.43 15.55 10.72
10/29/2021 5:15:00 AM 12.63 54.734 0.14 7.43 15.56 10.7
10/29/2021 5:30:00 AM 12.61 54.698 0.139 7.43 15.61 10.7
10/29/2021 5:45:00 AM 12.59 54.662 0.139 7.43 14.82 10.7
10/29/2021 6:00:00 AM 12.58 54.644 0.139 7.43 15.61 10.69
10/29/2021 6:15:00 AM 12.56 54.608 0.139 7.42 16.06 10.67
10/29/2021 6:30:00 AM 12.55 54.59 0.138 7.42 14.3 10.67
10/29/2021 6:45:00 AM 12.54 54.572 0.138 7.41 14.11 10.66
10/29/2021 7:00:00 AM 12.53 54.554 0.138 7.41 14.47 10.66
10/29/2021 7:15:00 AM 12.52 54.536 0.138 7.41 14.84 10.65
10/29/2021 7:30:00 AM 12.51 54.518 0.138 7.41 15.14 10.64
10/29/2021 7:45:00 AM 12.5 54.5 0.137 7.41 15.46 10.63
10/29/2021 8:00:00 AM 12.49 54.482 0.137 7.4 15.28 10.61
10/29/2021 8:15:00 AM 12.48 54.464 0.137 7.4 14.99 10.64
10/29/2021 8:30:00 AM 12.48 54.464 0.137 7.4 14.48 10.64
10/29/2021 8:45:00 AM 12.48 54.464 0.137 7.4 14.72 10.62
10/29/2021 9:00:00 AM 12.47 54.446 0.136 7.4 14.54 10.64
10/29/2021 9:15:00 AM 12.47 54.446 0.136 7.4 15.87 10.65
10/29/2021 9:30:00 AM 12.47 54.446 0.135 7.4 15.04 10.67
10/29/2021 9:45:00 AM 12.46 54.428 0.135 7.41 14.43 10.66
10/29/2021 10:00:00 AM 12.46 54.428 0.135 7.4 14.82 10.68
10/29/2021 10:15:00 AM 12.46 54.428 0.134 7.4 14.85 10.7
10/29/2021 10:30:00 AM 12.46 54.428 0.134 7.41 15.08 10.71
10/29/2021 10:45:00 AM 12.45 54.41 0.134 7.41 14.58 10.73
10/29/2021 11:00:00 AM 12.45 54.41 0.133 7.41 13.89 10.75
10/29/2021 11:15:00 AM 12.45 54.41 0.133 7.41 14.34 10.76
10/29/2021 11:30:00 AM 12.45 54.41 0.133 7.42 14.84 10.76
10/29/2021 11:45:00 AM 12.44 54.392 0.133 7.41 14.13 10.79
10/29/2021 12:00:00 PM 12.43 54.374 0.133 7.42 14.13 10.81
10/29/2021 12:15:00 PM 12.43 54.374 0.132 7.43 14.57 10.82
10/29/2021 12:30:00 PM 12.42 54.356 0.132 7.43 14.06 10.83
10/29/2021 12:45:00 PM 12.41 54.338 0.132 7.43 14.47 10.86
10/29/2021 1:00:00 PM 12.4 54.32 0.131 7.43 14.79 10.86
10/29/2021 1:15:00 PM 12.39 54.302 0.131 7.44 15.57 10.87
10/29/2021 1:30:00 PM 12.39 54.302 0.131 7.44 14.76 10.91
10/29/2021 1:45:00 PM 12.38 54.284 0.131 7.43 14.56 10.9
10/29/2021 2:00:00 PM 12.38 54.284 0.13 7.45 14.11 10.91
10/29/2021 2:15:00 PM 12.37 54.266 0.13 7.44 14.41 10.9
10/29/2021 2:30:00 PM 12.36 54.248 0.13 7.45 14.76 10.92
10/29/2021 2:45:00 PM 12.35 54.23 0.13 7.45 13.62 10.93
10/29/2021 3:00:00 PM 12.34 54.212 0.129 7.45 15.23 10.94
10/29/2021 3:15:00 PM 12.33 54.194 0.129 7.45 13.66 10.9
10/29/2021 3:30:00 PM 12.32 54.176 0.129 7.47 14.12 10.92
10/29/2021 3:45:00 PM 12.31 54.158 0.128 7.44 13.84 10.93
10/29/2021 4:00:00 PM 12.3 54.14 0.128 7.43 13.53 10.91
10/29/2021 4:15:00 PM 12.29 54.122 0.128 7.44 13.1 10.9
10/29/2021 4:30:00 PM 12.28 54.104 0.128 7.42 14.32 10.87
10/29/2021 4:45:00 PM 12.25 54.05 0.127 7.43 13.59 10.88
10/29/2021 5:00:00 PM 12.24 54.032 0.127 7.43 13.34 10.88
10/29/2021 5:15:00 PM 12.22 53.996 0.126 7.43 13.28 10.88
10/29/2021 5:30:00 PM 12.2 53.96 0.126 7.45 13.8 10.89
10/29/2021 5:45:00 PM 12.19 53.942 0.125 7.44 13.73 10.91
10/29/2021 6:00:00 PM 12.18 53.924 0.125 7.42 13.76 10.9
10/29/2021 6:15:00 PM 12.16 53.888 0.125 7.43 13.5 10.9
10/29/2021 6:30:00 PM 12.15 53.87 0.125 7.43 13.53 10.89
10/29/2021 6:45:00 PM 12.13 53.834 0.125 7.44 14.78 10.88
10/29/2021 7:00:00 PM 12.11 53.798 0.125 7.44 13.8 10.92
10/29/2021 7:15:00 PM 12.1 53.78 0.125 7.44 14.15 10.93
10/29/2021 7:30:00 PM 12.08 53.744 0.126 7.46 14.93 10.96
10/29/2021 7:45:00 PM 12.08 53.744 0.127 7.46 14.94 10.92
10/29/2021 8:00:00 PM 12.06 53.708 0.127 7.47 15.61 10.96
10/29/2021 8:15:00 PM 12.05 53.69 0.128 7.48 15.74 10.96
10/29/2021 8:30:00 PM 12.04 53.672 0.128 7.48 17.79 10.93
10/29/2021 8:45:00 PM 12.03 53.654 0.127 7.48 15.79 10.95
10/29/2021 9:00:00 PM 12.02 53.636 0.127 7.48 16.98 10.94
10/29/2021 9:15:00 PM 12.01 53.618 0.127 7.5 18.07 10.95
10/29/2021 9:30:00 PM 12.01 53.618 0.128 7.49 20.02 10.96
10/29/2021 9:45:00 PM 12 53.6 0.128 7.48 18.75 10.95
10/29/2021 10:00:00 PM 11.99 53.582 0.129 7.49 17.93 10.95
10/29/2021 10:15:00 PM 11.98 53.564 0.131 7.5 19.39 10.94
10/29/2021 10:30:00 PM 11.96 53.528 0.134 7.5 20.82 10.92
10/29/2021 10:45:00 PM 11.95 53.51 0.138 7.52 25.16 10.89
10/29/2021 11:00:00 PM 11.93 53.474 0.14 7.52 28.13 10.87
10/29/2021 11:15:00 PM 11.92 53.456 0.141 7.51 32.44 10.83
10/29/2021 11:30:00 PM 11.91 53.438 0.139 7.51 33.89 10.79
10/29/2021 11:45:00 PM 11.89 53.402 0.138 7.49 39.71 10.78
10/30/2021 12:00:00 AM 11.88 53.384 0.136 7.5 48.83 10.78
10/30/2021 12:15:00 AM 11.87 53.366 0.135 7.49 44.73 10.76
10/30/2021 12:30:00 AM 11.86 53.348 0.133 7.47 50.1 10.75
10/30/2021 12:45:00 AM 11.85 53.33 0.132 7.46 57.22 10.75
10/30/2021 1:00:00 AM 11.84 53.312 0.13 7.44 53.31 10.74
10/30/2021 1:15:00 AM 11.83 53.294 0.129 7.45 52.57 10.74
10/30/2021 1:30:00 AM 11.81 53.258 0.129 7.44 53.78 10.74
10/30/2021 1:45:00 AM 11.81 53.258 0.128 7.43 52.59 10.74
10/30/2021 2:00:00 AM 11.8 53.24 0.127 7.44 52.91 10.75
10/30/2021 2:15:00 AM 11.79 53.222 0.127 7.44 51.59 10.75
10/30/2021 2:30:00 AM 11.79 53.222 0.127 7.43 45.7 10.73
10/30/2021 2:45:00 AM 11.79 53.222 0.127 7.43 44.4 10.72
10/30/2021 3:00:00 AM 11.78 53.204 0.127 7.43 41.28 10.72
10/30/2021 3:15:00 AM 11.78 53.204 0.127 7.42 37.68 10.71
10/30/2021 3:30:00 AM 11.78 53.204 0.127 7.42 37.81 10.71
10/30/2021 3:45:00 AM 11.78 53.204 0.128 7.42 35.12 10.7
10/30/2021 4:00:00 AM 11.77 53.186 0.128 7.42 35.65 10.7
10/30/2021 4:15:00 AM 11.77 53.186 0.128 7.42 31.73 10.69
10/30/2021 4:30:00 AM 11.79 53.222 0.129 7.43 30.18 10.68
10/30/2021 4:45:00 AM 12.09 53.762 0.142 7.43 24.42 10.79
10/30/2021 5:00:00 AM 12 53.6 0.137 7.38 24.65 10.8
10/30/2021 5:15:00 AM 11.81 53.258 0.129 7.41 32.1 10.69
10/30/2021 5:30:00 AM 11.77 53.186 0.128 7.41 33.16 10.65
10/30/2021 5:45:00 AM 11.76 53.168 0.127 7.4 32.76 10.64
10/30/2021 6:00:00 AM 11.75 53.15 0.127 7.42 33.9 10.64
10/30/2021 6:15:00 AM 11.74 53.132 0.127 7.4 33.56 10.62
10/30/2021 6:30:00 AM 11.73 53.114 0.126 7.4 33.01 10.63
10/30/2021 6:45:00 AM 11.72 53.096 0.126 7.39 32.77 10.62
10/30/2021 7:00:00 AM 11.71 53.078 0.125 7.4 35.47 10.6
10/30/2021 7:15:00 AM 11.7 53.06 0.125 7.39 31.26 10.59
10/30/2021 7:30:00 AM 11.69 53.042 0.123 7.38 33.84 10.6
10/30/2021 7:45:00 AM 11.68 53.024 0.123 7.39 31.43 10.59
10/30/2021 8:00:00 AM 11.66 52.988 0.122 7.37 35.94 10.59
10/30/2021 8:15:00 AM 11.64 52.952 0.121 7.37 35.67 10.59
10/30/2021 8:30:00 AM 11.63 52.934 0.12 7.37 33.08 10.59
10/30/2021 8:45:00 AM 11.62 52.916 0.119 7.37 31.7 10.58
10/30/2021 9:00:00 AM 11.6 52.88 0.118 7.36 35.39 10.59
10/30/2021 9:15:00 AM 11.59 52.862 0.116 7.36 36.25 10.59
10/30/2021 9:30:00 AM 11.57 52.826 0.115 7.36 36.65 10.6
10/30/2021 9:45:00 AM 11.74 53.132 0.124 7.37 33.21 10.66
10/30/2021 10:00:00 AM 11.95 53.51 0.136 7.39 25.24 10.87
10/30/2021 10:15:00 AM 11.74 53.132 0.12 7.36 37.13 10.75
10/30/2021 10:30:00 AM 11.54 52.772 0.11 7.34 40.59 10.66
10/30/2021 10:45:00 AM 11.52 52.736 0.108 7.33 39.71 10.65
10/30/2021 11:00:00 AM 11.51 52.718 0.107 7.33 41.4 10.66
10/30/2021 11:15:00 AM 11.5 52.7 0.107 7.33 42.41 10.67
10/30/2021 11:30:00 AM 11.51 52.718 0.106 7.32 38.69 10.68
10/30/2021 11:45:00 AM 11.5 52.7 0.105 7.31 44.05 10.67
10/30/2021 12:00:00 PM 11.5 52.7 0.104 7.32 42.1 10.68
10/30/2021 12:15:00 PM 11.49 52.682 0.103 7.34 41.72 10.69
10/30/2021 12:30:00 PM 11.49 52.682 0.102 7.31 49.34 10.71
10/30/2021 12:45:00 PM 11.48 52.664 0.101 7.31 39.54 10.69
10/30/2021 1:00:00 PM 11.48 52.664 0.101 7.3 45.58 10.71
10/30/2021 1:15:00 PM 11.48 52.664 0.1 7.3 40.71 10.71
10/30/2021 1:30:00 PM 11.48 52.664 0.099 7.3 41.56 10.72
10/30/2021 1:45:00 PM 11.48 52.664 0.099 7.3 47.98 10.7
10/30/2021 2:00:00 PM 11.48 52.664 0.098 7.29 52.94 10.72
10/30/2021 2:15:00 PM 11.48 52.664 0.097 7.28 45.45 10.73
10/30/2021 2:30:00 PM 11.48 52.664 0.097 7.28 45.6 10.73
10/30/2021 2:45:00 PM 11.48 52.664 0.096 7.28 42.29 10.73
10/30/2021 3:00:00 PM 11.47 52.646 0.095 7.27 44.74 10.73
10/30/2021 3:15:00 PM 11.46 52.628 0.095 7.26 43.99 10.73
10/30/2021 3:30:00 PM 11.46 52.628 0.094 7.26 45.29 10.73
10/30/2021 3:45:00 PM 11.46 52.628 0.094 7.26 46.5 10.73
10/30/2021 4:00:00 PM 11.44 52.592 0.093 7.26 45.86 10.73
10/30/2021 4:15:00 PM 11.45 52.61 0.092 7.26 49.27 10.75
10/30/2021 4:30:00 PM 11.44 52.592 0.093 7.25 49.57 10.73
10/30/2021 4:45:00 PM 11.43 52.574 0.092 7.26 50.08 10.75
10/30/2021 5:00:00 PM 11.43 52.574 0.092 7.25 48.8 10.75
10/30/2021 5:15:00 PM 11.43 52.574 0.094 7.24 52.14 10.73
10/30/2021 5:30:00 PM 11.43 52.574 0.093 7.24 48.41 10.75
10/30/2021 5:45:00 PM 11.43 52.574 0.092 7.24 58.49 10.75
10/30/2021 6:00:00 PM 11.42 52.556 0.092 7.26 53.47 10.75
10/30/2021 6:15:00 PM 11.42 52.556 0.093 7.24 48.1 10.75
10/30/2021 6:30:00 PM 11.42 52.556 0.093 7.25 49.01 10.77
10/30/2021 6:45:00 PM 11.42 52.556 0.094 7.25 60.3 10.75
10/30/2021 7:00:00 PM 11.42 52.556 0.093 7.25 58.37 10.78
10/30/2021 7:15:00 PM 11.43 52.574 0.094 7.25 57.32 10.79
10/30/2021 7:30:00 PM 11.43 52.574 0.094 7.26 57.16 10.8
10/30/2021 7:45:00 PM 11.43 52.574 0.094 7.26 55.67 10.81
10/30/2021 8:00:00 PM 11.44 52.592 0.094 7.26 57.72 10.81
10/30/2021 8:15:00 PM 11.44 52.592 0.095 7.25 54.62 10.8
10/30/2021 8:30:00 PM 11.44 52.592 0.095 7.25 55.79 10.79
10/30/2021 8:45:00 PM 11.45 52.61 0.095 7.26 56.49 10.81
10/30/2021 9:00:00 PM 11.46 52.628 0.096 7.25 51.31 10.79
10/30/2021 9:15:00 PM 11.46 52.628 0.096 7.26 50.8 10.78
10/30/2021 9:30:00 PM 11.47 52.646 0.096 7.25 47.35 10.79
10/30/2021 9:45:00 PM 11.48 52.664 0.097 7.27 50.14 10.78
10/30/2021 10:00:00 PM 11.49 52.682 0.097 7.25 48.7 10.79
10/30/2021 10:15:00 PM 11.49 52.682 0.097 7.26 45.3 10.78
10/30/2021 10:30:00 PM 11.5 52.7 0.098 7.26 46.71 10.78
10/30/2021 10:45:00 PM 11.51 52.718 0.098 7.26 44.6 10.79
10/30/2021 11:00:00 PM 11.51 52.718 0.098 7.27 43.73 10.79
10/30/2021 11:15:00 PM 11.52 52.736 0.098 7.26 46.02 10.78
10/30/2021 11:30:00 PM 11.52 52.736 0.099 7.27 43.03 10.79
10/30/2021 11:45:00 PM 11.53 52.754 0.099 7.26 43.46 10.78
10/31/2021 12:00:00 AM 11.53 52.754 0.1 7.27 43.99 10.78
10/31/2021 12:15:00 AM 11.54 52.772 0.1 7.26 44.37 10.77
10/31/2021 12:30:00 AM 11.54 52.772 0.1 7.27 38.71 10.76
10/31/2021 12:45:00 AM 11.69 53.042 0.108 7.3 40.22 10.84
10/31/2021 1:00:00 AM 11.81 53.258 0.117 7.29 33.03 11
10/31/2021 1:15:00 AM 11.66 52.988 0.107 7.27 36.82 10.85
10/31/2021 1:30:00 AM 11.58 52.844 0.102 7.28 39.62 10.77
10/31/2021 1:45:00 AM 11.57 52.826 0.101 7.27 43.48 10.77
10/31/2021 2:00:00 AM 11.57 52.826 0.101 7.26 41.43 10.77
10/31/2021 2:15:00 AM 11.57 52.826 0.101 7.27 37.03 10.76
10/31/2021 2:30:00 AM 11.57 52.826 0.101 7.26 38.07 10.76
10/31/2021 2:45:00 AM 11.57 52.826 0.101 7.28 40.49 10.75
10/31/2021 3:00:00 AM 11.58 52.844 0.1 7.27 38.21 10.75
10/31/2021 3:15:00 AM 11.58 52.844 0.1 7.28 38.69 10.75
10/31/2021 3:30:00 AM 11.58 52.844 0.1 7.28 39.36 10.75
10/31/2021 3:45:00 AM 11.58 52.844 0.099 7.28 40.49 10.75
10/31/2021 4:00:00 AM 11.58 52.844 0.099 7.27 37.18 10.73
10/31/2021 4:15:00 AM 11.58 52.844 0.099 7.27 40.62 10.73
10/31/2021 4:30:00 AM 11.58 52.844 0.099 7.28 41.97 10.74
10/31/2021 4:45:00 AM 11.58 52.844 0.099 7.27 40.3 10.72
10/31/2021 5:00:00 AM 11.58 52.844 0.099 7.28 40.37 10.74
10/31/2021 5:15:00 AM 11.58 52.844 0.098 7.27 36.86 10.73
10/31/2021 5:30:00 AM 11.58 52.844 0.098 7.27 38.29 10.71
10/31/2021 5:45:00 AM 11.58 52.844 0.098 7.27 39.83 10.7
10/31/2021 6:00:00 AM 11.58 52.844 0.098 7.28 40.19 10.7
10/31/2021 6:15:00 AM 11.57 52.826 0.098 7.27 35.64 10.68
10/31/2021 6:30:00 AM 11.57 52.826 0.097 7.27 43.2 10.7
10/31/2021 6:45:00 AM 11.57 52.826 0.097 7.28 38.26 10.7
10/31/2021 7:00:00 AM 11.57 52.826 0.097 7.27 36.43 10.71
10/31/2021 7:15:00 AM 11.57 52.826 0.097 7.27 40.31 10.7
10/31/2021 7:30:00 AM 11.57 52.826 0.098 7.26 39.25 10.69
10/31/2021 7:45:00 AM 11.56 52.808 0.098 7.27 38.36 10.67
10/31/2021 8:00:00 AM 11.56 52.808 0.098 7.26 39.38 10.7
10/31/2021 8:15:00 AM 11.56 52.808 0.097 7.26 41.93 10.7
10/31/2021 8:30:00 AM 11.56 52.808 0.098 7.26 41.92 10.69
10/31/2021 8:45:00 AM 11.56 52.808 0.098 7.27 39.26 10.71
10/31/2021 9:00:00 AM 11.56 52.808 0.098 7.26 40.41 10.71
10/31/2021 9:15:00 AM 11.57 52.826 0.098 7.25 43.89 10.69
10/31/2021 9:30:00 AM 11.57 52.826 0.098 7.26 38.9 10.7
10/31/2021 9:45:00 AM 11.58 52.844 0.098 7.25 39.38 10.7
10/31/2021 10:00:00 AM 11.58 52.844 0.098 7.26 39.3 10.69
10/31/2021 10:15:00 AM 11.59 52.862 0.098 7.26 40.45 10.7
10/31/2021 10:30:00 AM 11.6 52.88 0.099 7.25 40.55 10.69
10/31/2021 10:45:00 AM 11.62 52.916 0.099 7.27 37.39 10.68
10/31/2021 11:00:00 AM 11.63 52.934 0.099 7.27 39.73 10.68
10/31/2021 11:15:00 AM 11.65 52.97 0.099 7.27 37.73 10.69
10/31/2021 11:30:00 AM 11.66 52.988 0.099 7.27 42.45 10.7
10/31/2021 11:45:00 AM 11.66 52.988 0.099 7.26 39.49 10.7
10/31/2021 12:00:00 PM 11.67 53.006 0.099 7.27 36.55 10.69
10/31/2021 12:15:00 PM 11.68 53.024 0.099 7.27 41.85 10.72
10/31/2021 12:30:00 PM 11.69 53.042 0.099 7.26 37.99 10.71
10/31/2021 12:45:00 PM 11.71 53.078 0.099 7.26 39.14 10.72
10/31/2021 1:00:00 PM 11.72 53.096 0.1 7.27 37.54 10.71
10/31/2021 1:15:00 PM 11.73 53.114 0.099 7.27 39.36 10.73
10/31/2021 1:30:00 PM 11.76 53.168 0.099 7.26 42.06 10.71
10/31/2021 1:45:00 PM 11.78 53.204 0.1 7.26 40.23 10.72
10/31/2021 2:00:00 PM 11.78 53.204 0.1 7.27 38.43 10.72
10/31/2021 2:15:00 PM 11.78 53.204 0.1 7.26 39.6 10.72
10/31/2021 2:30:00 PM 11.79 53.222 0.1 7.26 39.85 10.72
10/31/2021 2:45:00 PM 11.79 53.222 0.1 7.27 38.67 10.74
10/31/2021 3:00:00 PM 11.8 53.24 0.1 7.26 38.25 10.73
10/31/2021 3:15:00 PM 11.81 53.258 0.1 7.26 37.4 10.72
10/31/2021 3:30:00 PM 11.81 53.258 0.1 7.27 37.24 10.73
10/31/2021 3:45:00 PM 11.83 53.294 0.101 7.26 37.6 10.72
10/31/2021 4:00:00 PM 11.83 53.294 0.101 7.26 38.95 10.73
10/31/2021 4:15:00 PM 11.82 53.276 0.101 7.27 35.95 10.73
10/31/2021 4:30:00 PM 11.81 53.258 0.101 7.26 39.57 10.74
10/31/2021 4:45:00 PM 11.81 53.258 0.101 7.27 38.3 10.71
10/31/2021 5:00:00 PM 11.83 53.294 0.101 7.27 37.21 10.73
10/31/2021 5:15:00 PM 11.84 53.312 0.101 7.26 37.51 10.73
10/31/2021 5:30:00 PM 11.84 53.312 0.102 7.26 38.16 10.71
10/31/2021 5:45:00 PM 11.85 53.33 0.102 7.26 35.71 10.72
10/31/2021 6:00:00 PM 11.86 53.348 0.101 7.26 36.75 10.72
10/31/2021 6:15:00 PM 11.85 53.33 0.102 7.26 36.44 10.73
10/31/2021 6:30:00 PM 11.84 53.312 0.102 7.25 37.62 10.72
10/31/2021 6:45:00 PM 11.83 53.294 0.102 7.26 36.04 10.73
10/31/2021 7:00:00 PM 11.82 53.276 0.102 7.26 36.83 10.73
10/31/2021 7:15:00 PM 11.82 53.276 0.102 7.27 37.24 10.74
10/31/2021 7:30:00 PM 11.82 53.276 0.103 7.26 35.55 10.72
10/31/2021 7:45:00 PM 11.81 53.258 0.103 7.26 34.71 10.73
10/31/2021 8:00:00 PM 11.81 53.258 0.103 7.27 37.07 10.74
10/31/2021 8:15:00 PM 11.8 53.24 0.103 7.27 38.28 10.73
10/31/2021 8:30:00 PM 11.8 53.24 0.103 7.26 37.01 10.72
10/31/2021 8:45:00 PM 11.81 53.258 0.103 7.27 35.66 10.72
10/31/2021 9:00:00 PM 11.81 53.258 0.103 7.27 34.66 10.7
10/31/2021 9:15:00 PM 11.81 53.258 0.103 7.27 37.34 10.71
10/31/2021 9:30:00 PM 11.81 53.258 0.104 7.27 35.34 10.73
10/31/2021 9:45:00 PM 11.81 53.258 0.103 7.27 36.28 10.73
10/31/2021 10:00:00 PM 11.81 53.258 0.103 7.28 36.05 10.72
10/31/2021 10:15:00 PM 11.81 53.258 0.103 7.26 35.2 10.71
10/31/2021 10:30:00 PM 11.81 53.258 0.104 7.28 35.36 10.72
10/31/2021 10:45:00 PM 11.81 53.258 0.104 7.27 34.55 10.73
10/31/2021 11:00:00 PM 11.81 53.258 0.104 7.28 35.84 10.73
10/31/2021 11:15:00 PM 11.8 53.24 0.104 7.28 36.09 10.73
10/31/2021 11:30:00 PM 11.8 53.24 0.104 7.26 32.86 10.71
10/31/2021 11:45:00 PM 11.79 53.222 0.103 7.28 38.53 10.75
11/1/2021 12:00:00 AM 11.79 53.222 0.104 7.28 36.16 10.72
11/1/2021 12:15:00 AM 11.78 53.204 0.104 7.28 34.95 10.71
11/1/2021 12:30:00 AM 11.77 53.186 0.104 7.28 35.85 10.75
11/1/2021 12:45:00 AM 11.75 53.15 0.104 7.28 38.01 10.76
11/1/2021 1:00:00 AM 11.74 53.132 0.103 7.28 36.72 10.75
11/1/2021 1:15:00 AM 11.73 53.114 0.103 7.28 36.8 10.76
11/1/2021 1:30:00 AM 11.73 53.114 0.103 7.27 36.2 10.75
11/1/2021 1:45:00 AM 11.72 53.096 0.103 7.29 38.88 10.76
11/1/2021 2:00:00 AM 11.71 53.078 0.103 7.28 34.68 10.76
11/1/2021 2:15:00 AM 11.71 53.078 0.103 7.29 35.9 10.74
11/1/2021 2:30:00 AM 11.7 53.06 0.103 7.29 36.36 10.74
11/1/2021 2:45:00 AM 11.7 53.06 0.104 7.28 36.27 10.74
11/1/2021 3:00:00 AM 11.69 53.042 0.103 7.28 34.53 10.74
11/1/2021 3:15:00 AM 11.87 53.366 0.116 7.32 34.21 10.93
11/1/2021 3:30:00 AM 11.93 53.474 0.119 7.26 30.99 11.17
11/1/2021 3:45:00 AM 11.76 53.168 0.108 7.25 36.48 10.89
11/1/2021 4:00:00 AM 11.69 53.042 0.104 7.27 36.91 10.78
11/1/2021 4:15:00 AM 11.67 53.006 0.103 7.27 35.86 10.76
11/1/2021 4:30:00 AM 11.66 52.988 0.103 7.28 38.19 10.76
11/1/2021 4:45:00 AM 11.65 52.97 0.103 7.27 37.18 10.75
11/1/2021 5:00:00 AM 11.65 52.97 0.103 7.27 36.3 10.77
11/1/2021 5:15:00 AM 11.64 52.952 0.103 7.27 38.13 10.76
11/1/2021 5:30:00 AM 11.63 52.934 0.103 7.27 38.52 10.77
11/1/2021 5:45:00 AM 11.62 52.916 0.103 7.28 35.57 10.77
11/1/2021 6:00:00 AM 11.6 52.88 0.103 7.28 36.76 10.77
11/1/2021 6:15:00 AM 11.59 52.862 0.103 7.27 37.11 10.77
11/1/2021 6:30:00 AM 11.58 52.844 0.103 7.26 36.81 10.77
11/1/2021 6:45:00 AM 11.56 52.808 0.103 7.27 37.61 10.77
11/1/2021 7:00:00 AM 11.55 52.79 0.103 7.27 39.88 10.78
11/1/2021 7:15:00 AM 11.53 52.754 0.103 7.28 37.27 10.78
11/1/2021 7:30:00 AM 11.52 52.736 0.103 7.27 36.17 10.78
11/1/2021 7:45:00 AM 11.51 52.718 0.103 7.27 38.86 10.78
11/1/2021 8:00:00 AM 11.5 52.7 0.103 7.27 36.45 10.8
11/1/2021 8:15:00 AM 11.5 52.7 0.106 7.26 34.06 10.77
11/1/2021 8:30:00 AM 11.5 52.7 0.103 7.26 39.47 10.79
11/1/2021 8:45:00 AM 11.49 52.682 0.103 7.27 36.71 10.79
11/1/2021 9:00:00 AM 11.49 52.682 0.104 7.26 37.74 10.79
11/1/2021 9:15:00 AM 11.49 52.682 0.104 7.26 37.48 10.8
11/1/2021 9:30:00 AM 11.73 53.114 0.116 7.33 33.69 11.07
11/1/2021 9:45:00 AM 11.68 53.024 0.112 7.26 33.27 11.06
11/1/2021 10:00:00 AM 11.56 52.808 0.105 7.26 36.79 10.88
11/1/2021 10:15:00 AM 11.54 52.772 0.104 7.29 36.19 10.82
11/1/2021 10:30:00 AM 11.55 52.79 0.104 7.27 34.8 10.82
11/1/2021 10:45:00 AM 11.57 52.826 0.104 7.27 35.84 10.82
11/1/2021 11:00:00 AM 11.59 52.862 0.104 7.27 38.42 10.83
11/1/2021 11:15:00 AM 11.6 52.88 0.104 7.26 39.01 10.82
11/1/2021 11:30:00 AM 11.62 52.916 0.104 7.27 37.53 10.84
11/1/2021 11:45:00 AM 11.63 52.934 0.104 7.27 36.22 10.84
11/1/2021 12:00:00 PM 11.65 52.97 0.104 7.27 36.82 10.83
11/1/2021 12:15:00 PM 11.67 53.006 0.104 7.27 37.12 10.87
11/1/2021 12:30:00 PM 11.68 53.024 0.104 7.28 35.85 10.87
11/1/2021 12:45:00 PM 11.69 53.042 0.105 7.27 35.62 10.87
11/1/2021 1:00:00 PM 11.72 53.096 0.105 7.28 35.91 10.87
11/1/2021 1:15:00 PM 11.74 53.132 0.105 7.28 35.19 10.88
11/1/2021 1:30:00 PM 11.75 53.15 0.105 7.28 34.41 10.88
11/1/2021 1:45:00 PM 11.76 53.168 0.105 7.29 34.44 10.89
11/1/2021 2:00:00 PM 11.78 53.204 0.105 7.29 35.72 10.9
11/1/2021 2:15:00 PM 11.79 53.222 0.105 7.29 38.67 10.91
11/1/2021 2:30:00 PM 11.79 53.222 0.105 7.29 35.04 10.9
11/1/2021 2:45:00 PM 11.78 53.204 0.105 7.29 35.03 10.9
11/1/2021 3:00:00 PM 11.78 53.204 0.105 7.28 35.03 10.9
11/1/2021 3:15:00 PM 11.8 53.24 0.105 7.29 34.65 10.91
11/1/2021 3:30:00 PM 11.81 53.258 0.106 7.3 34.07 10.92
11/1/2021 3:45:00 PM 11.82 53.276 0.106 7.28 34.24 10.92
11/1/2021 4:00:00 PM 11.82 53.276 0.106 7.29 32.45 10.92
11/1/2021 4:15:00 PM 11.81 53.258 0.106 7.29 33.84 10.93
11/1/2021 4:30:00 PM 11.8 53.24 0.106 7.28 34 10.93
11/1/2021 4:45:00 PM 11.79 53.222 0.106 7.3 33.46 10.91
11/1/2021 5:00:00 PM 11.79 53.222 0.106 7.29 33.51 10.94
11/1/2021 5:15:00 PM 11.78 53.204 0.106 7.27 33.66 10.94
11/1/2021 5:30:00 PM 11.78 53.204 0.106 7.31 34.2 10.95
11/1/2021 5:45:00 PM 11.78 53.204 0.106 7.29 34.08 10.96
11/1/2021 6:00:00 PM 11.78 53.204 0.106 7.3 35.16 10.96
11/1/2021 6:15:00 PM 11.77 53.186 0.106 7.3 32.68 10.97
11/1/2021 6:30:00 PM 11.76 53.168 0.107 7.29 34.68 10.96
11/1/2021 6:45:00 PM 11.76 53.168 0.107 7.31 34.73 10.97
11/1/2021 7:00:00 PM 11.76 53.168 0.107 7.3 35.38 10.98
11/1/2021 7:15:00 PM 11.76 53.168 0.107 7.3 35.09 10.97
11/1/2021 7:30:00 PM 11.76 53.168 0.108 7.31 35.74 10.97
11/1/2021 7:45:00 PM 11.75 53.15 0.108 7.31 35.49 10.97
11/1/2021 8:00:00 PM 11.75 53.15 0.108 7.32 36.32 10.96
11/1/2021 8:15:00 PM 11.74 53.132 0.108 7.35 36.32 10.98
11/1/2021 8:30:00 PM 11.74 53.132 0.108 7.32 35.2 10.98
11/1/2021 8:45:00 PM 11.73 53.114 0.108 7.32 36.74 10.97
11/1/2021 9:00:00 PM 11.72 53.096 0.109 7.32 35.61 10.97
11/1/2021 9:15:00 PM 11.71 53.078 0.109 7.32 33.98 10.98
11/1/2021 9:30:00 PM 11.71 53.078 0.109 7.33 34.56 10.99
11/1/2021 9:45:00 PM 11.7 53.06 0.109 7.34 33.64 10.98
11/1/2021 10:00:00 PM 11.69 53.042 0.109 7.32 34.7 10.98
11/1/2021 10:15:00 PM 11.68 53.024 0.109 7.31 32.09 10.97
11/1/2021 10:30:00 PM 11.67 53.006 0.109 7.3 33.07 10.96
11/1/2021 10:45:00 PM 11.66 52.988 0.109 7.32 34.24 10.97
11/1/2021 11:00:00 PM 11.64 52.952 0.109 7.33 33.78 10.97
11/1/2021 11:15:00 PM 11.63 52.934 0.109 7.32 33.84 10.96
11/1/2021 11:30:00 PM 11.62 52.916 0.111 7.31 33.35 10.83
11/1/2021 11:45:00 PM 11.6 52.88 0.11 7.32 32.9 10.96
11/2/2021 12:00:00 AM 11.58 52.844 0.11 7.32 32.69 10.98
11/2/2021 12:15:00 AM 11.56 52.808 0.11 7.33 32.91 10.99
11/2/2021 12:30:00 AM 11.55 52.79 0.11 7.32 33.05 10.98
11/2/2021 12:45:00 AM 11.54 52.772 0.11 7.33 34.33 10.98
11/2/2021 1:00:00 AM 11.53 52.754 0.11 7.32 33.76 10.99
11/2/2021 1:15:00 AM 11.51 52.718 0.11 7.32 34.01 10.98
11/2/2021 1:30:00 AM 11.5 52.7 0.11 7.32 32.29 10.99
11/2/2021 1:45:00 AM 11.48 52.664 0.11 7.32 34.7 11
11/2/2021 2:00:00 AM 11.46 52.628 0.11 7.33 34.6 11
11/2/2021 2:15:00 AM 11.45 52.61 0.111 7.33 34.26 10.98
11/2/2021 2:30:00 AM 11.43 52.574 0.11 7.33 38.59 10.98
11/2/2021 2:45:00 AM 11.4 52.52 0.111 7.34 43.97 11.02
11/2/2021 3:00:00 AM 11.39 52.502 0.111 7.32 37.23 11.02
11/2/2021 3:15:00 AM 11.37 52.466 0.111 7.33 38.58 11.03
11/2/2021 3:30:00 AM 11.36 52.448 0.111 7.33 38.73 11.02
11/2/2021 3:45:00 AM 11.34 52.412 0.111 7.33 39.96 11.03
11/2/2021 4:00:00 AM 11.33 52.394 0.111 7.33 37.76 11.04
11/2/2021 4:15:00 AM 11.32 52.376 0.111 7.33 34.99 11.03
11/2/2021 4:30:00 AM 11.31 52.358 0.111 7.33 34.71 11.02
11/2/2021 4:45:00 AM 11.43 52.574 0.116 7.35 36.2 11.1
11/2/2021 5:00:00 AM 11.59 52.862 0.12 7.32 31.63 11.24
11/2/2021 5:15:00 AM 11.35 52.43 0.113 7.31 32.91 11.1
11/2/2021 5:30:00 AM 11.25 52.25 0.111 7.32 34.17 11.04
11/2/2021 5:45:00 AM 11.23 52.214 0.112 7.33 35.85 11.06
11/2/2021 6:00:00 AM 11.21 52.178 0.111 7.35 34.84 11.05
11/2/2021 6:15:00 AM 11.19 52.142 0.112 7.32 34.3 11.05
11/2/2021 6:30:00 AM 11.18 52.124 0.112 7.32 33.92 11.06
11/2/2021 6:45:00 AM 11.16 52.088 0.112 7.32 33.61 11.06
11/2/2021 7:00:00 AM 11.14 52.052 0.112 7.32 32.51 11.05
11/2/2021 7:15:00 AM 11.13 52.034 0.112 7.32 33.09 11.05
11/2/2021 7:30:00 AM 11.12 52.016 0.112 7.31 32.31 11.06
11/2/2021 7:45:00 AM 11.11 51.998 0.112 7.32 32.38 11.07
11/2/2021 8:00:00 AM 11.11 51.998 0.112 7.32 32.78 11.05
11/2/2021 8:15:00 AM 11.09 51.962 0.112 7.32 34.59 11.06
11/2/2021 8:30:00 AM 11.08 51.944 0.112 7.32 32.78 11.07
11/2/2021 8:45:00 AM 11.07 51.926 0.112 7.33 32.63 11.06
11/2/2021 9:00:00 AM 11.07 51.926 0.112 7.31 34.18 11.08
11/2/2021 9:15:00 AM 11.07 51.926 0.112 7.31 31.18 11.08
11/2/2021 9:30:00 AM 11.06 51.908 0.113 7.33 32.45 11.07
11/2/2021 9:45:00 AM 11.06 51.908 0.113 7.32 33.68 11.08
11/2/2021 10:00:00 AM 11.06 51.908 0.113 7.32 32.15 11.09
11/2/2021 10:15:00 AM 11.05 51.89 0.113 7.32 32.48 11.1
11/2/2021 10:30:00 AM 11.06 51.908 0.113 7.32 32.48 11.11
11/2/2021 10:45:00 AM 11.07 51.926 0.113 7.32 32.07 11.1
11/2/2021 11:00:00 AM 11.08 51.944 0.113 7.32 31.32 11.12
11/2/2021 11:15:00 AM 11.09 51.962 0.113 7.32 30.42 11.13
11/2/2021 11:30:00 AM 11.09 51.962 0.113 7.33 32 11.14
11/2/2021 11:45:00 AM 11.1 51.98 0.113 7.32 31.89 11.15
11/2/2021 12:00:00 PM 11.1 51.98 0.113 7.33 30.9 11.15
11/2/2021 12:15:00 PM 11.11 51.998 0.113 7.34 31.87 11.17
11/2/2021 12:30:00 PM 11.12 52.016 0.113 7.33 31.22 11.17
11/2/2021 12:45:00 PM 11.12 52.016 0.114 7.34 30.2 11.18
11/2/2021 1:00:00 PM 11.12 52.016 0.114 7.34 31.26 11.18
11/2/2021 1:15:00 PM 11.11 51.998 0.114 7.33 30.5 11.18
11/2/2021 1:30:00 PM 11.11 51.998 0.114 7.33 30.47 11.2
11/2/2021 1:45:00 PM 11.1 51.98 0.114 7.35 30.55 11.21
11/2/2021 2:00:00 PM 11.11 51.998 0.114 7.34 30.21 11.22
11/2/2021 2:15:00 PM 11.11 51.998 0.114 7.34 29.56 11.22
11/2/2021 2:30:00 PM 11.11 51.998 0.114 7.33 29.67 11.15
11/2/2021 2:45:00 PM 11.12 52.016 0.114 7.35 30.16 11.24
11/2/2021 3:00:00 PM 11.12 52.016 0.114 7.35 29.33 11.26
11/2/2021 3:15:00 PM 11.13 52.034 0.114 7.35 30.71 11.25
11/2/2021 3:30:00 PM 11.13 52.034 0.113 7.35 30.24 11.27
11/2/2021 3:45:00 PM 11.12 52.016 0.114 7.35 29.42 11.27
11/2/2021 4:00:00 PM 11.12 52.016 0.114 7.35 30.59 11.26
11/2/2021 4:15:00 PM 11.11 51.998 0.113 7.36 35.47 11.27
11/2/2021 4:30:00 PM 11.11 51.998 0.114 7.36 29.85 11.3
11/2/2021 4:45:00 PM 11.1 51.98 0.114 7.37 30.04 11.3
11/2/2021 5:00:00 PM 11.08 51.944 0.114 7.36 29.43 11.3
11/2/2021 5:15:00 PM 11.07 51.926 0.114 7.37 31.35 11.3
11/2/2021 5:30:00 PM 11.06 51.908 0.114 7.36 29.88 11.3
11/2/2021 5:45:00 PM 11.04 51.872 0.114 7.36 29.43 11.3
11/2/2021 6:00:00 PM 11.02 51.836 0.114 7.36 29.8 11.3
11/2/2021 6:15:00 PM 11.01 51.818 0.114 7.35 29.68 11.3
11/2/2021 6:30:00 PM 11 51.8 0.113 7.36 29.91 11.31
11/2/2021 6:45:00 PM 10.98 51.764 0.113 7.36 30.13 11.3
11/2/2021 7:00:00 PM 10.96 51.728 0.113 7.36 29.18 11.31
11/2/2021 7:15:00 PM 10.94 51.692 0.113 7.35 30.59 11.32
11/2/2021 7:30:00 PM 10.92 51.656 0.113 7.37 29.35 11.3
11/2/2021 7:45:00 PM 10.9 51.62 0.113 7.36 30.28 11.31
11/2/2021 8:00:00 PM 10.88 51.584 0.113 7.37 29.81 11.32
11/2/2021 8:15:00 PM 10.87 51.566 0.113 7.36 29.96 11.32
11/2/2021 8:30:00 PM 10.99 51.782 0.117 7.38 29.66 11.35
11/2/2021 8:45:00 PM 11.18 52.124 0.122 7.33 27.98 11.44
11/2/2021 9:00:00 PM 10.95 51.71 0.116 7.33 29.33 11.38
11/2/2021 9:15:00 PM 10.84 51.512 0.114 7.35 30.06 11.35
11/2/2021 9:30:00 PM 10.83 51.494 0.113 7.35 28.86 11.29
11/2/2021 9:45:00 PM 10.8 51.44 0.113 7.35 30.93 11.33
11/2/2021 10:00:00 PM 10.79 51.422 0.113 7.36 29.78 11.33
11/2/2021 10:15:00 PM 10.78 51.404 0.113 7.37 30.06 11.33
11/2/2021 10:30:00 PM 10.77 51.386 0.113 7.37 30.88 11.34
11/2/2021 10:45:00 PM 10.76 51.368 0.113 7.36 30.13 11.32
11/2/2021 11:00:00 PM 10.74 51.332 0.113 7.38 30.92 11.34
11/2/2021 11:15:00 PM 10.72 51.296 0.114 7.38 32.09 11.36
11/2/2021 11:30:00 PM 10.7 51.26 0.114 7.39 30.83 11.37
11/2/2021 11:45:00 PM 10.68 51.224 0.113 7.37 30.5 11.37
11/3/2021 12:00:00 AM 10.66 51.188 0.113 7.39 30.84 11.36
11/3/2021 12:15:00 AM 10.63 51.134 0.113 7.37 30.2 11.36
11/3/2021 12:30:00 AM 10.61 51.098 0.113 7.37 31.83 11.36
11/3/2021 12:45:00 AM 10.58 51.044 0.113 7.38 30.96 11.36
11/3/2021 1:00:00 AM 10.56 51.008 0.113 7.38 32.48 11.36
11/3/2021 1:15:00 AM 10.54 50.972 0.113 7.38 31.75 11.36
11/3/2021 1:30:00 AM 10.51 50.918 0.113 7.37 31.39 11.36
11/3/2021 1:45:00 AM 10.49 50.882 0.114 7.38 30.72 11.35
11/3/2021 2:00:00 AM 10.47 50.846 0.113 7.37 31.44 11.34
11/3/2021 2:15:00 AM 10.44 50.792 0.113 7.37 31.7 11.35
11/3/2021 2:30:00 AM 10.42 50.756 0.113 7.37 30.92 11.36
11/3/2021 2:45:00 AM 10.39 50.702 0.113 7.37 32.22 11.36
11/3/2021 3:00:00 AM 10.37 50.666 0.114 7.37 31.54 11.35
11/3/2021 3:15:00 AM 10.34 50.612 0.113 7.37 31.35 11.36
11/3/2021 3:30:00 AM 10.31 50.558 0.114 7.37 30.97 11.36
11/3/2021 3:45:00 AM 10.29 50.522 0.114 7.37 31.96 11.36
11/3/2021 4:00:00 AM 10.27 50.486 0.114 7.37 30.65 11.36
11/3/2021 4:15:00 AM 10.25 50.45 0.114 7.37 30.3 11.36
11/3/2021 4:30:00 AM 10.23 50.414 0.114 7.35 30.5 11.35
11/3/2021 4:45:00 AM 10.21 50.378 0.114 7.37 29.89 11.34
11/3/2021 5:00:00 AM 10.19 50.342 0.114 7.36 30.36 11.34
11/3/2021 5:15:00 AM 10.16 50.288 0.114 7.36 30.35 11.34
11/3/2021 5:30:00 AM 10.14 50.252 0.114 7.37 30.5 11.33
11/3/2021 5:45:00 AM 10.11 50.198 0.114 7.36 29.19 11.35
11/3/2021 6:00:00 AM 10.09 50.162 0.114 7.35 29.22 11.34
11/3/2021 6:15:00 AM 10.06 50.108 0.114 7.36 29.59 11.36
11/3/2021 6:30:00 AM 10.04 50.072 0.114 7.36 30.72 11.37
11/3/2021 6:45:00 AM 10.01 50.018 0.114 7.35 29.23 11.36
11/3/2021 7:00:00 AM 9.99 49.982 0.114 7.35 30.46 11.35
11/3/2021 7:15:00 AM 9.96 49.928 0.114 7.36 29.68 11.39
11/3/2021 7:30:00 AM 9.95 49.91 0.114 7.36 29.52 11.36
11/3/2021 7:45:00 AM 9.92 49.856 0.114 7.36 29.55 11.36
11/3/2021 8:00:00 AM 9.89 49.802 0.114 7.35 30.23 11.37
11/3/2021 8:15:00 AM 9.87 49.766 0.114 7.36 29.67 11.41
11/3/2021 8:30:00 AM 9.84 49.712 0.114 7.36 30.11 11.41
11/3/2021 8:45:00 AM 9.83 49.694 0.114 7.36 29.81 11.43
11/3/2021 9:00:00 AM 9.82 49.676 0.114 7.36 29.59 11.44
11/3/2021 9:15:00 AM 9.8 49.64 0.114 7.36 29.63 11.45
11/3/2021 9:30:00 AM 9.8 49.64 0.114 7.36 30.48 11.44
11/3/2021 9:45:00 AM 9.8 49.64 0.114 7.36 28.86 11.46
11/3/2021 10:00:00 AM 9.8 49.64 0.114 7.36 28.56 11.46
11/3/2021 10:15:00 AM 9.8 49.64 0.114 7.36 29.33 11.49
11/3/2021 10:30:00 AM 9.79 49.622 0.114 7.37 29.38 11.51
11/3/2021 10:45:00 AM 9.79 49.622 0.114 7.36 29.58 11.5
11/3/2021 11:00:00 AM 10.11 50.198 0.122 7.4 27.86 11.34
11/3/2021 11:15:00 AM 10.26 50.468 0.123 7.36 27.3 11.41
11/3/2021 11:30:00 AM 9.93 49.874 0.116 7.38 28.63 11.58
11/3/2021 11:45:00 AM 9.8 49.64 0.115 7.38 29.98 11.58
11/3/2021 12:00:00 PM 9.8 49.64 0.114 7.37 28.22 11.6
11/3/2021 12:15:00 PM 9.82 49.676 0.114 7.39 28.69 11.61
11/3/2021 12:30:00 PM 9.84 49.712 0.114 7.39 28.03 11.63
11/3/2021 12:45:00 PM 9.85 49.73 0.114 7.4 28.53 11.65
11/3/2021 1:00:00 PM 9.86 49.748 0.114 7.41 29.13 11.67
11/3/2021 1:15:00 PM 9.88 49.784 0.114 7.4 28.71 11.69
11/3/2021 1:30:00 PM 9.89 49.802 0.114 7.41 28.37 11.71
11/3/2021 1:45:00 PM 9.9 49.82 0.114 7.4 28.3 11.71
11/3/2021 2:00:00 PM 9.92 49.856 0.114 7.4 28.41 11.74
11/3/2021 2:15:00 PM 9.94 49.892 0.115 7.42 28.43 11.76
11/3/2021 2:30:00 PM 9.91 49.838 0.114 7.42 29.33 11.79
11/3/2021 2:45:00 PM 9.88 49.784 0.114 7.42 28.59 11.81
11/3/2021 3:00:00 PM 9.86 49.748 0.114 7.43 28.67 11.81
11/3/2021 3:15:00 PM 9.85 49.73 0.114 7.43 28.92 11.82
11/3/2021 3:30:00 PM 9.85 49.73 0.114 7.43 28.61 11.83
11/3/2021 3:45:00 PM 9.86 49.748 0.114 7.43 28.71 11.84
11/3/2021 4:00:00 PM 9.88 49.784 0.115 7.43 29.22 11.85
11/3/2021 4:15:00 PM 9.87 49.766 0.115 7.44 28.97 11.85
11/3/2021 4:30:00 PM 9.87 49.766 0.115 7.45 28.66 11.85
11/3/2021 4:45:00 PM 9.88 49.784 0.115 7.44 28.39 11.86
11/3/2021 5:00:00 PM 9.89 49.802 0.115 7.43 28.02 11.86
11/3/2021 5:15:00 PM 9.89 49.802 0.115 7.44 28.47 11.88
11/3/2021 5:30:00 PM 9.88 49.784 0.115 7.44 28.2 11.87
11/3/2021 5:45:00 PM 9.86 49.748 0.115 7.45 28.36 11.9
11/3/2021 6:00:00 PM 9.85 49.73 0.115 7.44 27.36 11.89
11/3/2021 6:15:00 PM 9.83 49.694 0.115 7.45 28.42 11.9
11/3/2021 6:30:00 PM 9.81 49.658 0.115 7.46 27.53 11.91
11/3/2021 6:45:00 PM 9.79 49.622 0.115 7.46 28.04 11.91
11/3/2021 7:00:00 PM 9.78 49.604 0.115 7.45 27.82 11.9
11/3/2021 7:15:00 PM 9.77 49.586 0.115 7.45 28.84 11.9
11/3/2021 7:30:00 PM 9.76 49.568 0.115 7.44 28.69 11.89
11/3/2021 7:45:00 PM 9.75 49.55 0.115 7.45 28.8 11.9
11/3/2021 8:00:00 PM 9.74 49.532 0.115 7.44 28.2 11.89
11/3/2021 8:15:00 PM 9.73 49.514 0.115 7.44 28.38 11.88
11/3/2021 8:30:00 PM 9.73 49.514 0.115 7.45 29.12 11.88
11/3/2021 8:45:00 PM 9.72 49.496 0.115 7.44 28.21 11.87
11/3/2021 9:00:00 PM 9.72 49.496 0.115 7.43 28.12 11.88
11/3/2021 9:15:00 PM 9.72 49.496 0.116 7.44 28.52 11.89
11/3/2021 9:30:00 PM 9.71 49.478 0.115 7.44 28.31 11.87
11/3/2021 9:45:00 PM 9.71 49.478 0.115 7.44 28 11.87
11/3/2021 10:00:00 PM 9.7 49.46 0.116 7.44 28.16 11.87
11/3/2021 10:15:00 PM 9.7 49.46 0.116 7.43 28.16 11.88
11/3/2021 10:30:00 PM 9.7 49.46 0.116 7.43 27.89 11.87
11/3/2021 10:45:00 PM 9.69 49.442 0.116 7.43 28.43 11.87
11/3/2021 11:00:00 PM 9.68 49.424 0.116 7.44 27.5 11.85
11/3/2021 11:15:00 PM 9.67 49.406 0.116 7.43 27.97 11.85
11/3/2021 11:30:00 PM 9.67 49.406 0.116 7.44 28.09 11.84
11/3/2021 11:45:00 PM 9.65 49.37 0.116 7.44 28.03 11.85
11/4/2021 12:00:00 AM 9.64 49.352 0.116 7.43 27.74 11.85
11/4/2021 12:15:00 AM 9.63 49.334 0.116 7.44 28.01 11.84
11/4/2021 12:30:00 AM 9.6 49.28 0.116 7.44 27.82 11.85
11/4/2021 12:45:00 AM 9.57 49.226 0.116 7.43 28.64 11.78
11/4/2021 1:00:00 AM 9.54 49.172 0.116 7.44 28.38 11.85
11/4/2021 1:15:00 AM 9.5 49.1 0.116 7.44 28.6 11.84
11/4/2021 1:30:00 AM 9.47 49.046 0.116 7.42 28.5 11.84
11/4/2021 1:45:00 AM 9.43 48.974 0.116 7.44 29.04 11.83
11/4/2021 2:00:00 AM 9.4 48.92 0.116 7.42 29.48 11.83
11/4/2021 2:15:00 AM 9.38 48.884 0.116 7.42 28.41 11.82
11/4/2021 2:30:00 AM 9.35 48.83 0.116 7.41 28.56 11.81
11/4/2021 2:45:00 AM 9.33 48.794 0.116 7.42 28.08 11.82
11/4/2021 3:00:00 AM 9.3 48.74 0.116 7.41 28.26 11.81
11/4/2021 3:15:00 AM 9.28 48.704 0.116 7.41 28.35 11.81
11/4/2021 3:30:00 AM 9.26 48.668 0.116 7.41 28.62 11.8
11/4/2021 3:45:00 AM 9.23 48.614 0.116 7.41 28.38 11.8
11/4/2021 4:00:00 AM 9.21 48.578 0.116 7.41 28.16 11.79
11/4/2021 4:15:00 AM 9.18 48.524 0.116 7.41 27.94 11.79
11/4/2021 4:30:00 AM 9.46 49.028 0.122 7.43 28.65 11.84
11/4/2021 4:45:00 AM 9.59 49.262 0.123 7.38 26.77 11.82
11/4/2021 5:00:00 AM 9.31 48.758 0.118 7.37 27.78 11.76
11/4/2021 5:15:00 AM 9.11 48.398 0.116 7.39 28.14 11.77
11/4/2021 5:30:00 AM 9.06 48.308 0.116 7.39 28.4 11.79
11/4/2021 5:45:00 AM 9.02 48.236 0.116 7.38 28.71 11.8
11/4/2021 6:00:00 AM 8.99 48.182 0.116 7.4 29.05 11.81
11/4/2021 6:15:00 AM 8.96 48.128 0.116 7.39 28.2 11.81
11/4/2021 6:30:00 AM 8.93 48.074 0.116 7.39 28.38 11.8
11/4/2021 6:45:00 AM 8.9 48.02 0.116 7.38 28.6 11.81
11/4/2021 7:00:00 AM 8.88 47.984 0.116 7.38 27.98 11.81
11/4/2021 7:15:00 AM 8.85 47.93 0.116 7.37 28.64 11.82
11/4/2021 7:30:00 AM 8.83 47.894 0.116 7.38 28.43 11.82
11/4/2021 7:45:00 AM 8.8 47.84 0.116 7.37 28.35 11.84
11/4/2021 8:00:00 AM 8.78 47.804 0.116 7.38 28.17 11.82
11/4/2021 8:15:00 AM 8.76 47.768 0.116 7.37 28.84 11.84
11/4/2021 8:30:00 AM 8.74 47.732 0.116 7.36 28.85 11.85
11/4/2021 8:45:00 AM 8.73 47.714 0.116 7.37 28.47 11.85
11/4/2021 9:00:00 AM 8.73 47.714 0.116 7.37 28.5 11.88
11/4/2021 9:15:00 AM 8.73 47.714 0.116 7.37 28.52 11.88
11/4/2021 9:30:00 AM 8.73 47.714 0.116 7.37 29 11.91
11/4/2021 9:45:00 AM 9.28 48.704 0.126 7.39 26.82 11.87
11/4/2021 10:00:00 AM 9.05 48.29 0.121 7.36 27.41 11.87
11/4/2021 10:15:00 AM 8.76 47.768 0.116 7.38 28.41 11.92
11/4/2021 10:30:00 AM 8.74 47.732 0.115 7.38 28 11.96
11/4/2021 10:45:00 AM 8.75 47.75 0.115 7.39 28.62 11.98
11/4/2021 11:00:00 AM 8.77 47.786 0.115 7.37 29.42 11.99
11/4/2021 11:15:00 AM 8.78 47.804 0.115 7.4 28.04 12.05
11/4/2021 11:30:00 AM 8.81 47.858 0.115 7.4 27.96 12.07
11/4/2021 11:45:00 AM 8.83 47.894 0.115 7.41 28.56 12.1
11/4/2021 12:00:00 PM 8.86 47.948 0.115 7.42 27.82 12.13
11/4/2021 12:15:00 PM 8.9 48.02 0.115 7.42 27.89 12.15
11/4/2021 12:30:00 PM 8.92 48.056 0.115 7.41 27.71 12.16
11/4/2021 12:45:00 PM 8.95 48.11 0.115 7.43 27.99 12.2
11/4/2021 1:00:00 PM 8.97 48.146 0.115 7.44 28.02 12.23
11/4/2021 1:15:00 PM 8.98 48.164 0.115 7.44 27.89 12.23
11/4/2021 1:30:00 PM 8.99 48.182 0.115 7.44 27.8 12.26
11/4/2021 1:45:00 PM 9 48.2 0.115 7.44 28.27 12.28
11/4/2021 2:00:00 PM 9.01 48.218 0.115 7.44 28 12.28
11/4/2021 2:15:00 PM 9.02 48.236 0.115 7.44 28.06 12.31
11/4/2021 2:30:00 PM 9.03 48.254 0.115 7.44 27.82 12.31
11/4/2021 2:45:00 PM 9.04 48.272 0.115 7.46 28.23 12.35
11/4/2021 3:00:00 PM 9.05 48.29 0.115 7.47 27.8 12.35
11/4/2021 3:15:00 PM 9.05 48.29 0.115 7.47 28.83 12.34
11/4/2021 3:30:00 PM 9.05 48.29 0.115 7.47 27.74 12.35
11/4/2021 3:45:00 PM 9.04 48.272 0.115 7.47 27.93 12.37
11/4/2021 4:00:00 PM 9.02 48.236 0.115 7.47 28.42 12.38
11/4/2021 4:15:00 PM 9.01 48.218 0.115 7.46 27.72 12.39
11/4/2021 4:30:00 PM 8.99 48.182 0.115 7.47 27.87 12.4
11/4/2021 4:45:00 PM 8.96 48.128 0.115 7.47 27.71 12.41
11/4/2021 5:00:00 PM 8.95 48.11 0.115 7.47 27.62 12.39
11/4/2021 5:15:00 PM 8.93 48.074 0.115 7.48 27.7 12.42
11/4/2021 5:30:00 PM 8.91 48.038 0.115 7.48 27.68 12.4
11/4/2021 5:45:00 PM 8.89 48.002 0.115 7.48 27.96 12.41
11/4/2021 6:00:00 PM 8.88 47.984 0.115 7.48 27.85 12.43
11/4/2021 6:15:00 PM 8.86 47.948 0.115 7.47 27.59 12.42
11/4/2021 6:30:00 PM 8.85 47.93 0.115 7.48 27.93 12.43
11/4/2021 6:45:00 PM 8.83 47.894 0.115 7.48 27.8 12.41
11/4/2021 7:00:00 PM 8.82 47.876 0.115 7.48 27.59 12.42
11/4/2021 7:15:00 PM 8.81 47.858 0.115 7.48 27.46 12.41
11/4/2021 7:30:00 PM 8.79 47.822 0.115 7.47 27.46 12.41
11/4/2021 7:45:00 PM 8.78 47.804 0.116 7.47 27.43 12.41
11/4/2021 8:00:00 PM 8.77 47.786 0.116 7.46 27.78 12.4
11/4/2021 8:15:00 PM 8.76 47.768 0.116 7.46 27.62 12.41
11/4/2021 8:30:00 PM 8.76 47.768 0.116 7.45 27.59 12.38
11/4/2021 8:45:00 PM 8.74 47.732 0.116 7.45 27.69 12.39
11/4/2021 9:00:00 PM 8.73 47.714 0.116 7.46 28.04 12.35
11/4/2021 9:15:00 PM 8.72 47.696 0.116 7.46 27.84 12.36
11/4/2021 9:30:00 PM 8.71 47.678 0.116 7.45 27.9 12.35
11/4/2021 9:45:00 PM 8.7 47.66 0.116 7.45 28.12 12.37
11/4/2021 10:00:00 PM 8.69 47.642 0.116 7.46 27.99 12.36
11/4/2021 10:15:00 PM 8.68 47.624 0.116 7.45 27.93 12.36
11/4/2021 10:30:00 PM 8.66 47.588 0.116 7.45 27.75 12.32
11/4/2021 10:45:00 PM 8.63 47.534 0.117 7.44 27.7 12.33
11/4/2021 11:00:00 PM 8.61 47.498 0.116 7.45 27.88 12.33
11/4/2021 11:15:00 PM 8.59 47.462 0.117 7.43 27.68 12.31
11/4/2021 11:30:00 PM 8.57 47.426 0.117 7.44 28.15 12.31
11/4/2021 11:45:00 PM 8.55 47.39 0.117 7.44 27.61 12.29
11/5/2021 12:00:00 AM 8.54 47.372 0.117 7.44 27.54 12.29
11/5/2021 12:15:00 AM 8.53 47.354 0.117 7.43 27.82 12.28
11/5/2021 12:30:00 AM 8.51 47.318 0.117 7.44 27.96 12.28
11/5/2021 12:45:00 AM 8.5 47.3 0.117 7.42 27.77 12.26
11/5/2021 1:00:00 AM 8.49 47.282 0.117 7.42 27.86 12.26
11/5/2021 1:15:00 AM 8.48 47.264 0.117 7.43 27.77 12.25
11/5/2021 1:30:00 AM 8.46 47.228 0.117 7.42 27.81 12.24
11/5/2021 1:45:00 AM 8.45 47.21 0.117 7.42 28.23 12.22
11/5/2021 2:00:00 AM 8.43 47.174 0.117 7.42 28.61 12.21
11/5/2021 2:15:00 AM 8.42 47.156 0.117 7.41 28.42 12.19
11/5/2021 2:30:00 AM 8.4 47.12 0.117 7.41 28.35 12.19
11/5/2021 2:45:00 AM 8.38 47.084 0.117 7.4 28.28 12.17
11/5/2021 3:00:00 AM 8.36 47.048 0.117 7.4 28.4 12.15
11/5/2021 3:15:00 AM 8.35 47.03 0.117 7.39 28.34 12.13
11/5/2021 3:30:00 AM 8.33 46.994 0.117 7.39 28.19 12.13
11/5/2021 3:45:00 AM 8.31 46.958 0.117 7.39 28.24 12.13
11/5/2021 4:00:00 AM 8.3 46.94 0.118 7.39 28.04 12.13
11/5/2021 4:15:00 AM 8.27 46.886 0.118 7.39 28.66 12.1
11/5/2021 4:30:00 AM 8.25 46.85 0.118 7.39 28.28 12.09
11/5/2021 4:45:00 AM 8.22 46.796 0.118 7.38 28.12 12.08
11/5/2021 5:00:00 AM 8.2 46.76 0.118 7.38 28.29 12.07
11/5/2021 5:15:00 AM 8.17 46.706 0.118 7.38 28.18 12.08
11/5/2021 5:30:00 AM 8.14 46.652 0.118 7.38 28.14 12.07
11/5/2021 5:45:00 AM 8.12 46.616 0.118 7.37 28.69 12.06
11/5/2021 6:00:00 AM 8.07 46.526 0.118 7.38 28.1 12.09
11/5/2021 6:15:00 AM 8.07 46.526 0.118 7.37 28.54 12.08
11/5/2021 6:30:00 AM 8.03 46.454 0.118 7.37 28.22 12.09
11/5/2021 6:45:00 AM 8.01 46.418 0.118 7.37 28.05 12.1
11/5/2021 7:00:00 AM 7.99 46.382 0.118 7.36 28.67 12.08
11/5/2021 7:15:00 AM 7.96 46.328 0.118 7.37 27.99 12.08
11/5/2021 7:30:00 AM 7.94 46.292 0.118 7.35 28.27 12.09
11/5/2021 7:45:00 AM 7.92 46.256 0.118 7.36 28.21 12.08
11/5/2021 8:00:00 AM 7.9 46.22 0.118 7.37 28.37 12.11
11/5/2021 8:15:00 AM 7.88 46.184 0.118 7.37 28.12 12.11
11/5/2021 8:30:00 AM 7.87 46.166 0.118 7.36 28.12 12.11
11/5/2021 8:45:00 AM 7.86 46.148 0.118 7.36 28.06 12.12
11/5/2021 9:00:00 AM 7.85 46.13 0.118 7.36 28.05 12.14
11/5/2021 9:15:00 AM 8.17 46.706 0.124 7.39 27.6 12.03
11/5/2021 9:30:00 AM 8.24 46.832 0.122 7.37 27.27 12.11
11/5/2021 9:45:00 AM 7.93 46.274 0.119 7.37 28 12.21
11/5/2021 10:00:00 AM 7.88 46.184 0.119 7.37 28.01 12.22
11/5/2021 10:15:00 AM 7.88 46.184 0.118 7.38 28.27 12.24
11/5/2021 10:30:00 AM 7.89 46.202 0.119 7.38 27.84 12.24
11/5/2021 10:45:00 AM 7.92 46.256 0.119 7.38 28.05 12.28
11/5/2021 11:00:00 AM 7.95 46.31 0.119 7.39 28.1 12.3
11/5/2021 11:15:00 AM 7.98 46.364 0.119 7.39 27.85 12.32
11/5/2021 11:30:00 AM 8.01 46.418 0.119 7.39 28.18 12.34
11/5/2021 11:45:00 AM 8.04 46.472 0.119 7.4 27.98 12.29
11/5/2021 12:00:00 PM 8.08 46.544 0.119 7.39 27.78 12.32
11/5/2021 12:15:00 PM 8.12 46.616 0.119 7.4 27.96 12.36
11/5/2021 12:30:00 PM 8.15 46.67 0.119 7.41 28.07 12.37
11/5/2021 12:45:00 PM 8.19 46.742 0.119 7.41 28.01 12.42
11/5/2021 1:00:00 PM 8.23 46.814 0.119 7.42 28.05 12.48
11/5/2021 1:15:00 PM 8.27 46.886 0.119 7.43 27.76 12.46
11/5/2021 1:30:00 PM 8.31 46.958 0.119 7.43 27.73 12.47
11/5/2021 1:45:00 PM 8.35 47.03 0.119 7.45 28.27 12.55
11/5/2021 2:00:00 PM 8.38 47.084 0.119 7.46 28.28 12.59
11/5/2021 2:15:00 PM 8.41 47.138 0.119 7.46 28.06 12.6
11/5/2021 2:30:00 PM 8.44 47.192 0.119 7.46 28.42 12.63
11/5/2021 2:45:00 PM 8.46 47.228 0.119 7.47 27.95 12.65
11/5/2021 3:00:00 PM 8.47 47.246 0.119 7.47 27.95 12.63
11/5/2021 3:15:00 PM 8.48 47.264 0.119 7.48 27.97 12.66
11/5/2021 3:30:00 PM 8.49 47.282 0.119 7.48 28.69 12.68
11/5/2021 3:45:00 PM 8.49 47.282 0.119 7.49 28.08 12.69
11/5/2021 4:00:00 PM 8.48 47.264 0.119 7.49 28.21 12.7
11/5/2021 4:15:00 PM 8.47 47.246 0.119 7.49 28.5 12.7
11/5/2021 4:30:00 PM 8.46 47.228 0.119 7.49 28.16 12.7
11/5/2021 4:45:00 PM 8.45 47.21 0.119 7.49 27.93 12.72
11/5/2021 5:00:00 PM 8.43 47.174 0.119 7.48 27.73 12.72
11/5/2021 5:15:00 PM 8.41 47.138 0.119 7.49 27.85 12.72
11/5/2021 5:30:00 PM 8.39 47.102 0.119 7.5 27.9 12.72
11/5/2021 5:45:00 PM 8.37 47.066 0.119 7.49 27.86 12.72
11/5/2021 6:00:00 PM 8.34 47.012 0.119 7.5 28.02 12.72
11/5/2021 6:15:00 PM 8.32 46.976 0.119 7.49 27.85 12.72
11/5/2021 6:30:00 PM 8.29 46.922 0.119 7.49 27.65 12.72
11/5/2021 6:45:00 PM 8.27 46.886 0.119 7.48 28.1 12.72
11/5/2021 7:00:00 PM 8.23 46.814 0.119 7.48 28.24 12.68
11/5/2021 7:15:00 PM 8.23 46.814 0.119 7.48 28.03 12.71
11/5/2021 7:30:00 PM 8.19 46.742 0.119 7.49 27.75 12.7
11/5/2021 7:45:00 PM 8.16 46.688 0.119 7.47 27.6 12.71
11/5/2021 8:00:00 PM 8.14 46.652 0.119 7.47 27.88 12.7
11/5/2021 8:15:00 PM 8.12 46.616 0.119 7.47 27.77 12.7
11/5/2021 8:30:00 PM 8.11 46.598 0.119 7.47 28.15 12.7
11/5/2021 8:45:00 PM 8.09 46.562 0.119 7.46 28.34 12.67
11/5/2021 9:00:00 PM 8.07 46.526 0.119 7.47 28.04 12.69
11/5/2021 9:15:00 PM 8.06 46.508 0.119 7.46 28.14 12.68
11/5/2021 9:30:00 PM 8.05 46.49 0.119 7.46 28.31 12.68
11/5/2021 9:45:00 PM 8.04 46.472 0.119 7.46 28.16 12.68
11/5/2021 10:00:00 PM 8.04 46.472 0.119 7.46 27.97 12.66
11/5/2021 10:15:00 PM 8.03 46.454 0.119 7.47 28.02 12.67
11/5/2021 10:30:00 PM 8.02 46.436 0.119 7.46 28 12.66
11/5/2021 10:45:00 PM 8.02 46.436 0.12 7.46 28.08 12.65
11/5/2021 11:00:00 PM 8 46.4 0.12 7.45 28.56 12.64
11/5/2021 11:15:00 PM 8 46.4 0.12 7.45 27.93 12.62
11/5/2021 11:30:00 PM 8 46.4 0.12 7.45 28.35 12.61
11/5/2021 11:45:00 PM 7.99 46.382 0.12 7.44 27.7 12.61
11/6/2021 12:00:00 AM 7.98 46.364 0.12 7.44 28.15 12.59
11/6/2021 12:15:00 AM 7.97 46.346 0.12 7.45 27.69 12.58
11/6/2021 12:30:00 AM 7.96 46.328 0.12 7.44 28.04 12.56
11/6/2021 12:45:00 AM 7.94 46.292 0.12 7.44 28.12 12.55
11/6/2021 1:00:00 AM 8.35 47.03 0.128 7.42 27.38 12.52
11/6/2021 1:15:00 AM 8.18 46.724 0.125 7.37 27.05 12.46
11/6/2021 1:30:00 AM 7.94 46.292 0.121 7.42 27.88 12.55
11/6/2021 1:45:00 AM 7.88 46.184 0.121 7.42 27.65 12.53
11/6/2021 2:00:00 AM 7.85 46.13 0.121 7.42 28 12.53
11/6/2021 2:15:00 AM 7.83 46.094 0.121 7.42 27.76 12.52
11/6/2021 2:30:00 AM 7.81 46.058 0.121 7.42 27.54 12.51
11/6/2021 2:45:00 AM 7.79 46.022 0.121 7.42 27.61 12.5
11/6/2021 3:00:00 AM 7.76 45.968 0.121 7.41 27.54 12.49
11/6/2021 3:15:00 AM 7.74 45.932 0.121 7.4 27.79 12.48
11/6/2021 3:30:00 AM 7.72 45.896 0.121 7.4 27.67 12.47
11/6/2021 3:45:00 AM 7.69 45.842 0.121 7.41 27.93 12.44
11/6/2021 4:00:00 AM 7.67 45.806 0.121 7.41 27.54 12.44
11/6/2021 4:15:00 AM 7.65 45.77 0.121 7.4 27.59 12.43
11/6/2021 4:30:00 AM 7.63 45.734 0.121 7.4 27.88 12.43
11/6/2021 4:45:00 AM 7.59 45.662 0.122 7.41 28.19 12.42
11/6/2021 5:00:00 AM 7.56 45.608 0.122 7.39 27.93 12.41
11/6/2021 5:15:00 AM 7.53 45.554 0.122 7.4 27.92 12.41
11/6/2021 5:30:00 AM 7.51 45.518 0.122 7.4 27.96 12.4
11/6/2021 5:45:00 AM 7.49 45.482 0.122 7.39 27.66 12.39
11/6/2021 6:00:00 AM 7.46 45.428 0.122 7.39 27.68 12.4
11/6/2021 6:15:00 AM 7.43 45.374 0.122 7.38 27.58 12.39
11/6/2021 6:30:00 AM 7.41 45.338 0.122 7.39 27.74 12.38
11/6/2021 6:45:00 AM 7.38 45.284 0.122 7.38 27.92 12.38
11/6/2021 7:00:00 AM 7.36 45.248 0.122 7.39 27.9 12.37
11/6/2021 7:15:00 AM 7.33 45.194 0.122 7.39 27.97 12.38
11/6/2021 7:30:00 AM 7.31 45.158 0.122 7.39 28 12.37
11/6/2021 7:45:00 AM 7.29 45.122 0.122 7.38 27.95 12.38
11/6/2021 8:00:00 AM 7.27 45.086 0.122 7.37 27.84 12.38
11/6/2021 8:15:00 AM 7.25 45.05 0.122 7.38 27.75 12.39
11/6/2021 8:30:00 AM 7.23 45.014 0.122 7.37 28 12.39
11/6/2021 8:45:00 AM 7.22 44.996 0.122 7.38 27.92 12.4
11/6/2021 9:00:00 AM 7.21 44.978 0.122 7.38 27.8 12.43
11/6/2021 9:15:00 AM 7.21 44.978 0.122 7.38 27.78 12.43
11/6/2021 9:30:00 AM 7.21 44.978 0.123 7.39 27.69 12.46
11/6/2021 9:45:00 AM 7.21 44.978 0.123 7.37 27.46 12.46
11/6/2021 10:00:00 AM 7.22 44.996 0.123 7.39 27.49 12.48
11/6/2021 10:15:00 AM 7.24 45.032 0.123 7.39 27.47 12.49
11/6/2021 10:30:00 AM 7.25 45.05 0.123 7.39 27.89 12.53
11/6/2021 10:45:00 AM 7.28 45.104 0.123 7.39 27.52 12.53
11/6/2021 11:00:00 AM 7.31 45.158 0.123 7.41 27.36 12.56
11/6/2021 11:15:00 AM 7.34 45.212 0.123 7.4 27.57 12.58
11/6/2021 11:30:00 AM 7.38 45.284 0.123 7.42 28.25 12.6
11/6/2021 11:45:00 AM 7.42 45.356 0.123 7.41 27.41 12.6
11/6/2021 12:00:00 PM 7.46 45.428 0.123 7.42 27.5 12.63
11/6/2021 12:15:00 PM 7.51 45.518 0.123 7.43 27.28 12.67
11/6/2021 12:30:00 PM 7.55 45.59 0.123 7.43 27.39 12.7
11/6/2021 12:45:00 PM 7.6 45.68 0.123 7.44 27.65 12.72
11/6/2021 1:00:00 PM 7.64 45.752 0.123 7.45 27.49 12.75
11/6/2021 1:15:00 PM 7.68 45.824 0.123 7.46 27.46 12.79
11/6/2021 1:30:00 PM 7.72 45.896 0.123 7.44 27.63 12.77
11/6/2021 1:45:00 PM 7.76 45.968 0.123 7.46 27.45 12.81
11/6/2021 2:00:00 PM 7.8 46.04 0.123 7.47 27.27 12.83
11/6/2021 2:15:00 PM 7.83 46.094 0.123 7.47 27.68 12.86
11/6/2021 2:30:00 PM 7.86 46.148 0.123 7.47 27.26 12.86
11/6/2021 2:45:00 PM 7.88 46.184 0.123 7.47 27.34 12.88
11/6/2021 3:00:00 PM 7.9 46.22 0.123 7.46 27.11 12.89
11/6/2021 3:15:00 PM 7.92 46.256 0.123 7.49 27.18 12.92
11/6/2021 3:30:00 PM 7.92 46.256 0.123 7.48 27.06 12.91
11/6/2021 3:45:00 PM 7.93 46.274 0.123 7.49 27.26 12.94
11/6/2021 4:00:00 PM 7.93 46.274 0.123 7.49 27.26 12.94
11/6/2021 4:15:00 PM 7.92 46.256 0.123 7.49 27.12 12.91
11/6/2021 4:30:00 PM 7.91 46.238 0.123 7.49 27.14 12.95
11/6/2021 4:45:00 PM 8.1 46.58 0.127 7.5 26.6 12.77
11/6/2021 5:00:00 PM 8.08 46.544 0.128 7.43 26.41 12.64
11/6/2021 5:15:00 PM 7.93 46.274 0.124 7.47 26.91 12.89
11/6/2021 5:30:00 PM 7.87 46.166 0.124 7.5 27.32 12.93
11/6/2021 5:45:00 PM 7.85 46.13 0.124 7.51 26.79 12.95
11/6/2021 6:00:00 PM 7.83 46.094 0.124 7.5 27.08 12.94
11/6/2021 6:15:00 PM 7.81 46.058 0.124 7.5 27.22 12.92
11/6/2021 6:30:00 PM 7.78 46.004 0.124 7.5 26.95 12.92
11/6/2021 6:45:00 PM 7.76 45.968 0.124 7.51 27.23 12.92
11/6/2021 7:00:00 PM 7.73 45.914 0.124 7.5 27.44 12.91
11/6/2021 7:15:00 PM 7.71 45.878 0.124 7.5 27.14 12.9
11/6/2021 7:30:00 PM 7.68 45.824 0.124 7.5 26.98 12.9
11/6/2021 7:45:00 PM 7.66 45.788 0.124 7.49 27.21 12.9
11/6/2021 8:00:00 PM 7.63 45.734 0.124 7.49 27.34 12.89
11/6/2021 8:15:00 PM 7.61 45.698 0.124 7.49 27.16 12.9
11/6/2021 8:30:00 PM 7.59 45.662 0.124 7.49 27.18 12.89
11/6/2021 8:45:00 PM 7.57 45.626 0.124 7.48 27.48 12.89
11/6/2021 9:00:00 PM 7.55 45.59 0.124 7.48 26.99 12.88
11/6/2021 9:15:00 PM 7.54 45.572 0.124 7.48 27.41 12.87
11/6/2021 9:30:00 PM 7.52 45.536 0.124 7.48 26.93 12.86
11/6/2021 9:45:00 PM 7.51 45.518 0.124 7.49 27.08 12.84
11/6/2021 10:00:00 PM 7.5 45.5 0.124 7.49 27.24 12.85
11/6/2021 10:15:00 PM 7.49 45.482 0.124 7.48 27.1 12.83
11/6/2021 10:30:00 PM 7.48 45.464 0.124 7.48 27.03 12.84
11/6/2021 10:45:00 PM 7.47 45.446 0.125 7.48 27.05 12.84
11/6/2021 11:00:00 PM 7.47 45.446 0.125 7.47 26.82 12.83
11/6/2021 11:15:00 PM 7.47 45.446 0.125 7.47 27.07 12.81
11/6/2021 11:30:00 PM 7.46 45.428 0.125 7.47 26.95 12.81
11/6/2021 11:45:00 PM 7.46 45.428 0.125 7.47 27.14 12.8
11/7/2021 12:00:00 AM 7.46 45.428 0.125 7.47 27.23 12.79
11/7/2021 12:15:00 AM 7.45 45.41 0.125 7.47 27.06 12.8
11/7/2021 12:30:00 AM 7.45 45.41 0.125 7.47 27.27 12.78
11/7/2021 12:45:00 AM 7.44 45.392 0.125 7.46 26.79 12.77
11/7/2021 1:00:00 AM 7.43 45.374 0.125 7.47 27.04 12.77
11/7/2021 1:15:00 AM 7.42 45.356 0.126 7.46 27.21 12.76
11/7/2021 1:30:00 AM 7.41 45.338 0.126 7.47 26.96 12.74
11/7/2021 1:45:00 AM 7.39 45.302 0.126 7.47 26.92 12.74
11/7/2021 2:00:00 AM 7.38 45.284 0.126 7.46 27.07 12.73
11/7/2021 2:15:00 AM 7.37 45.266 0.126 7.46 27.19 12.73
11/7/2021 2:30:00 AM 7.35 45.23 0.126 7.45 27.06 12.71
11/7/2021 2:45:00 AM 7.33 45.194 0.126 7.44 27.13 12.69
11/7/2021 3:00:00 AM 7.31 45.158 0.126 7.44 27.19 12.68
11/7/2021 3:15:00 AM 7.29 45.122 0.126 7.44 27.11 12.67
11/7/2021 3:30:00 AM 7.27 45.086 0.126 7.45 27.07 12.65
11/7/2021 3:45:00 AM 7.24 45.032 0.126 7.43 27.13 12.65
11/7/2021 4:00:00 AM 7.22 44.996 0.126 7.43 26.88 12.63
11/7/2021 4:15:00 AM 7.2 44.96 0.127 7.44 26.95 12.63
11/7/2021 4:30:00 AM 7.17 44.906 0.127 7.43 27.65 12.62
11/7/2021 4:45:00 AM 7.15 44.87 0.127 7.43 27.01 12.61
11/7/2021 5:00:00 AM 7.13 44.834 0.127 7.42 26.97 12.6
11/7/2021 5:15:00 AM 7.1 44.78 0.127 7.42 27.22 12.59
11/7/2021 5:30:00 AM 7.08 44.744 0.127 7.4 27.19 12.57
11/7/2021 5:45:00 AM 7.05 44.69 0.127 7.41 27.31 12.58
11/7/2021 6:00:00 AM 7.02 44.636 0.127 7.41 27.31 12.56
11/7/2021 6:15:00 AM 7 44.6 0.127 7.42 27.36 12.57
11/7/2021 6:30:00 AM 6.97 44.546 0.127 7.42 26.98 12.55
11/7/2021 6:45:00 AM 6.94 44.492 0.127 7.4 27.37 12.54
11/7/2021 7:00:00 AM 6.92 44.456 0.127 7.4 27.29 12.53
11/7/2021 7:15:00 AM 6.89 44.402 0.128 7.42 27.21 12.54
11/7/2021 7:30:00 AM 6.86 44.348 0.128 7.4 27.14 12.54
11/7/2021 7:45:00 AM 6.84 44.312 0.128 7.41 27 12.54
11/7/2021 8:00:00 AM 6.81 44.258 0.128 7.4 27.12 12.54
11/7/2021 8:15:00 AM 6.79 44.222 0.128 7.41 26.95 12.54
11/7/2021 8:30:00 AM 6.77 44.186 0.128 7.4 26.93 12.56
11/7/2021 8:45:00 AM 6.76 44.168 0.128 7.4 27.55 12.57
11/7/2021 9:00:00 AM 6.75 44.15 0.128 7.4 26.82 12.59
11/7/2021 9:15:00 AM 6.74 44.132 0.128 7.41 27.11 12.6
11/7/2021 9:30:00 AM 6.74 44.132 0.128 7.4 27.04 12.62
11/7/2021 9:45:00 AM 6.74 44.132 0.128 7.41 26.92 12.64
11/7/2021 10:00:00 AM 7.14 44.852 0.133 7.45 26.52 12.58
11/7/2021 10:15:00 AM 7.19 44.942 0.132 7.41 26.3 12.59
11/7/2021 10:30:00 AM 6.93 44.474 0.129 7.41 26.67 12.67
11/7/2021 10:45:00 AM 6.83 44.294 0.128 7.42 26.74 12.72
11/7/2021 11:00:00 AM 6.84 44.312 0.128 7.42 26.67 12.73
11/7/2021 11:15:00 AM 6.87 44.366 0.128 7.43 26.77 12.76
11/7/2021 11:30:00 AM 6.9 44.42 0.128 7.43 26.58 12.8
11/7/2021 11:45:00 AM 6.94 44.492 0.128 7.44 26.73 12.82
11/7/2021 12:00:00 PM 6.99 44.582 0.128 7.46 26.63 12.83
11/7/2021 12:15:00 PM 7.03 44.654 0.128 7.44 27.07 12.86
11/7/2021 12:30:00 PM 7.08 44.744 0.128 7.46 26.7 12.89
11/7/2021 12:45:00 PM 7.13 44.834 0.128 7.47 27 12.91
11/7/2021 1:00:00 PM 7.18 44.924 0.128 7.47 26.89 12.92
11/7/2021 1:15:00 PM 7.22 44.996 0.128 7.48 27.14 12.96
11/7/2021 1:30:00 PM 7.28 45.104 0.128 7.49 26.71 12.98
11/7/2021 1:45:00 PM 7.33 45.194 0.128 7.48 27.07 12.98
11/7/2021 2:00:00 PM 7.37 45.266 0.128 7.49 26.84 13.01
11/7/2021 2:15:00 PM 7.41 45.338 0.128 7.5 26.86 13.02
11/7/2021 2:30:00 PM 7.45 45.41 0.128 7.5 26.82 13.04
11/7/2021 2:45:00 PM 7.48 45.464 0.128 7.51 26.66 13.06
11/7/2021 3:00:00 PM 7.51 45.518 0.128 7.52 26.56 13.07
11/7/2021 3:15:00 PM 7.54 45.572 0.128 7.52 26.49 13.09
11/7/2021 3:30:00 PM 7.56 45.608 0.128 7.53 26.6 13.09
11/7/2021 3:45:00 PM 7.58 45.644 0.128 7.52 26.62 13.1
11/7/2021 4:00:00 PM 7.58 45.644 0.128 7.52 26.69 13.11
11/7/2021 4:15:00 PM 7.59 45.662 0.128 7.52 26.88 13.09
11/7/2021 4:30:00 PM 7.59 45.662 0.128 7.53 26.66 13.11
11/7/2021 4:45:00 PM 7.58 45.644 0.128 7.53 26.7 13.11
11/7/2021 5:00:00 PM 7.57 45.626 0.128 7.54 26.9 13.1
11/7/2021 5:15:00 PM 7.55 45.59 0.128 7.53 26.77 13.11
11/7/2021 5:30:00 PM 7.53 45.554 0.128 7.53 27.03 13.11
11/7/2021 5:45:00 PM 7.51 45.518 0.128 7.54 26.94 13.09
11/7/2021 6:00:00 PM 7.48 45.464 0.128 7.53 26.95 13.08
11/7/2021 6:15:00 PM 7.46 45.428 0.128 7.52 26.96 13.08
11/7/2021 6:30:00 PM 7.44 45.392 0.128 7.53 26.91 13.07
11/7/2021 6:45:00 PM 7.81 46.058 0.135 7.5 26.75 12.88
11/7/2021 7:00:00 PM 7.59 45.662 0.132 7.44 26.5 12.83
11/7/2021 7:15:00 PM 7.4 45.32 0.129 7.49 26.72 13.01
11/7/2021 7:30:00 PM 7.34 45.212 0.128 7.5 26.72 13.05
11/7/2021 7:45:00 PM 7.31 45.158 0.128 7.5 26.76 13.03
11/7/2021 8:00:00 PM 7.28 45.104 0.128 7.49 26.96 13.04
11/7/2021 8:15:00 PM 7.26 45.068 0.128 7.5 26.91 13.04
11/7/2021 8:30:00 PM 7.23 45.014 0.128 7.5 26.97 13.03
11/7/2021 8:45:00 PM 7.21 44.978 0.128 7.49 26.93 13.03
11/7/2021 9:00:00 PM 7.19 44.942 0.128 7.49 26.89 13.02
11/7/2021 9:15:00 PM 7.18 44.924 0.128 7.49 26.85 13.01
11/7/2021 9:30:00 PM 7.17 44.906 0.128 7.48 26.81 12.99
11/7/2021 9:45:00 PM 7.16 44.888 0.128 7.49 26.78 12.99
11/7/2021 10:00:00 PM 7.15 44.87 0.128 7.47 26.87 12.98
11/7/2021 10:15:00 PM 7.14 44.852 0.129 7.48 27.33 12.98
11/7/2021 10:30:00 PM 7.13 44.834 0.129 7.47 26.73 12.97
11/7/2021 10:45:00 PM 7.13 44.834 0.128 7.47 26.78 12.96
11/7/2021 11:00:00 PM 7.13 44.834 0.128 7.48 26.67 12.95
11/7/2021 11:15:00 PM 7.13 44.834 0.128 7.48 26.98 12.95
11/7/2021 11:30:00 PM 7.12 44.816 0.128 7.46 26.76 12.94
11/7/2021 11:45:00 PM 7.12 44.816 0.129 7.48 26.87 12.93
11/8/2021 12:00:00 AM 7.12 44.816 0.128 7.47 26.76 12.94
11/8/2021 12:15:00 AM 7.11 44.798 0.129 7.48 26.77 12.93
11/8/2021 12:30:00 AM 7.11 44.798 0.129 7.48 26.92 12.93
11/8/2021 12:45:00 AM 7.11 44.798 0.129 7.48 26.68 12.92
11/8/2021 1:00:00 AM 7.11 44.798 0.129 7.46 26.79 12.91
11/8/2021 1:15:00 AM 7.11 44.798 0.129 7.45 26.81 12.91
11/8/2021 1:30:00 AM 7.1 44.78 0.129 7.47 26.88 12.9
11/8/2021 1:45:00 AM 7.09 44.762 0.129 7.47 26.75 12.89
11/8/2021 2:00:00 AM 7.09 44.762 0.129 7.46 26.76 12.88
11/8/2021 2:15:00 AM 7.09 44.762 0.129 7.47 26.95 12.86
11/8/2021 2:30:00 AM 7.08 44.744 0.129 7.47 26.72 12.85
11/8/2021 2:45:00 AM 7.08 44.744 0.129 7.46 26.88 12.84
11/8/2021 3:00:00 AM 7.06 44.708 0.13 7.46 26.77 12.82
11/8/2021 3:15:00 AM 7.05 44.69 0.13 7.45 26.83 12.81
11/8/2021 3:30:00 AM 7.03 44.654 0.13 7.44 26.79 12.79
11/8/2021 3:45:00 AM 7.01 44.618 0.13 7.45 26.81 12.79
11/8/2021 4:00:00 AM 7 44.6 0.131 7.45 26.81 12.78
11/8/2021 4:15:00 AM 6.98 44.564 0.131 7.44 26.73 12.76
11/8/2021 4:30:00 AM 6.95 44.51 0.131 7.43 26.92 12.75
11/8/2021 4:45:00 AM 6.92 44.456 0.13 7.43 26.88 12.74
11/8/2021 5:00:00 AM 6.9 44.42 0.13 7.43 26.78 12.73
11/8/2021 5:15:00 AM 6.88 44.384 0.13 7.42 26.85 12.73
11/8/2021 5:30:00 AM 6.86 44.348 0.13 7.43 27.32 12.73
11/8/2021 5:45:00 AM 6.84 44.312 0.13 7.42 27.01 12.7
11/8/2021 6:00:00 AM 6.82 44.276 0.13 7.42 26.76 12.7
11/8/2021 6:15:00 AM 6.8 44.24 0.13 7.42 27.01 12.69
11/8/2021 6:30:00 AM 6.77 44.186 0.13 7.41 27.22 12.68
11/8/2021 6:45:00 AM 6.75 44.15 0.13 7.4 27.08 12.66
11/8/2021 7:00:00 AM 6.74 44.132 0.13 7.4 26.88 12.66
11/8/2021 7:15:00 AM 6.71 44.078 0.13 7.4 26.88 12.65
11/8/2021 7:30:00 AM 6.69 44.042 0.13 7.42 27 12.65
11/8/2021 7:45:00 AM 6.67 44.006 0.13 7.4 26.78 12.65
11/8/2021 8:00:00 AM 6.66 43.988 0.13 7.4 26.97 12.66
11/8/2021 8:15:00 AM 6.64 43.952 0.13 7.4 26.96 12.66
11/8/2021 8:30:00 AM 6.62 43.916 0.13 7.41 27.29 12.67
11/8/2021 8:45:00 AM 6.62 43.916 0.13 7.41 26.93 12.69
11/8/2021 9:00:00 AM 6.61 43.898 0.13 7.41 26.84 12.69
11/8/2021 9:15:00 AM 6.61 43.898 0.13 7.41 27.09 12.72
11/8/2021 9:30:00 AM 6.62 43.916 0.131 7.41 27.32 12.72
11/8/2021 9:45:00 AM 6.64 43.952 0.131 7.41 27.04 12.73
11/8/2021 10:00:00 AM 6.64 43.952 0.131 7.41 27.31 12.76
11/8/2021 10:15:00 AM 6.65 43.97 0.131 7.41 26.86 12.79
11/8/2021 10:30:00 AM 6.67 44.006 0.131 7.41 27 12.81
11/8/2021 10:45:00 AM 6.7 44.06 0.131 7.43 27.05 12.85
11/8/2021 11:00:00 AM 6.74 44.132 0.131 7.43 27.29 12.86
11/8/2021 11:15:00 AM 6.78 44.204 0.131 7.43 27.02 12.88
11/8/2021 11:30:00 AM 6.83 44.294 0.131 7.44 26.79 12.91
11/8/2021 11:45:00 AM 6.87 44.366 0.131 7.44 26.69 12.93
11/8/2021 12:00:00 PM 6.92 44.456 0.131 7.45 26.74 12.96
11/8/2021 12:15:00 PM 6.98 44.564 0.131 7.46 26.83 13
11/8/2021 12:30:00 PM 7.03 44.654 0.131 7.46 26.72 13.01
11/8/2021 12:45:00 PM 7.08 44.744 0.131 7.47 26.76 13.03
11/8/2021 1:00:00 PM 7.14 44.852 0.131 7.48 26.97 13.07
11/8/2021 1:15:00 PM 7.2 44.96 0.131 7.48 27.01 13.09
11/8/2021 1:30:00 PM 7.25 45.05 0.131 7.47 27.03 13.09
11/8/2021 1:45:00 PM 7.3 45.14 0.131 7.48 26.72 13.13
11/8/2021 2:00:00 PM 7.35 45.23 0.131 7.5 26.71 13.15
11/8/2021 2:15:00 PM 7.4 45.32 0.131 7.5 26.74 13.16
11/8/2021 2:30:00 PM 7.44 45.392 0.131 7.51 26.73 13.18
11/8/2021 2:45:00 PM 7.48 45.464 0.131 7.52 26.69 13.2
11/8/2021 3:00:00 PM 7.51 45.518 0.132 7.52 26.83 13.2
11/8/2021 3:15:00 PM 7.54 45.572 0.132 7.53 26.83 13.21
11/8/2021 3:30:00 PM 7.57 45.626 0.132 7.52 26.96 13.21
11/8/2021 3:45:00 PM 7.59 45.662 0.132 7.54 26.88 13.23
11/8/2021 4:00:00 PM 7.61 45.698 0.132 7.54 26.82 13.23
11/8/2021 4:15:00 PM 7.61 45.698 0.132 7.54 27.08 13.21
11/8/2021 4:30:00 PM 7.62 45.716 0.132 7.53 26.74 13.22
11/8/2021 4:45:00 PM 7.61 45.698 0.132 7.53 26.99 13.22
11/8/2021 5:00:00 PM 7.61 45.698 0.132 7.54 27.14 13.22
11/8/2021 5:15:00 PM 7.6 45.68 0.132 7.54 26.55 13.2
11/8/2021 5:30:00 PM 7.59 45.662 0.132 7.53 26.92 13.2
11/8/2021 5:45:00 PM 7.58 45.644 0.132 7.54 26.59 13.18
11/8/2021 6:00:00 PM 7.56 45.608 0.132 7.53 26.66 13.17
11/8/2021 6:15:00 PM 7.53 45.554 0.132 7.52 26.71 13.16
11/8/2021 6:30:00 PM 7.51 45.518 0.132 7.53 26.66 13.14
11/8/2021 6:45:00 PM 7.49 45.482 0.132 7.53 26.74 13.13
11/8/2021 7:00:00 PM 7.47 45.446 0.132 7.52 26.92 13.11
11/8/2021 7:15:00 PM 7.44 45.392 0.133 7.53 26.94 13.1
11/8/2021 7:30:00 PM 7.72 45.896 0.137 7.5 26.32 12.87
11/8/2021 7:45:00 PM 7.54 45.572 0.135 7.46 26.3 12.87
11/8/2021 8:00:00 PM 7.38 45.284 0.133 7.5 26.79 13.06
11/8/2021 8:15:00 PM 7.35 45.23 0.133 7.49 26.9 13.05
11/8/2021 8:30:00 PM 7.32 45.176 0.133 7.49 26.79 13.07
11/8/2021 8:45:00 PM 7.3 45.14 0.133 7.49 26.66 13.06
11/8/2021 9:00:00 PM 7.28 45.104 0.133 7.49 26.8 13.04
11/8/2021 9:15:00 PM 7.26 45.068 0.133 7.5 26.69 13.03
11/8/2021 9:30:00 PM 7.24 45.032 0.133 7.49 26.84 13.03
11/8/2021 9:45:00 PM 7.23 45.014 0.133 7.48 26.67 13.02
11/8/2021 10:00:00 PM 7.22 44.996 0.133 7.47 27.05 13
11/8/2021 10:15:00 PM 7.21 44.978 0.133 7.47 26.64 13.01
11/8/2021 10:30:00 PM 7.2 44.96 0.133 7.46 26.86 12.99
11/8/2021 10:45:00 PM 7.2 44.96 0.133 7.48 26.63 12.99
11/8/2021 11:00:00 PM 7.2 44.96 0.133 7.46 26.9 12.99
11/8/2021 11:15:00 PM 7.21 44.978 0.133 7.46 26.84 12.98
11/8/2021 11:30:00 PM 7.21 44.978 0.133 7.47 26.55 12.97
11/8/2021 11:45:00 PM 7.22 44.996 0.133 7.47 26.52 12.96
11/9/2021 12:00:00 AM 7.22 44.996 0.133 7.47 26.75 12.96
11/9/2021 12:15:00 AM 7.23 45.014 0.133 7.47 27.27 12.95
11/9/2021 12:30:00 AM 7.23 45.014 0.133 7.47 27.08 12.95
11/9/2021 12:45:00 AM 7.24 45.032 0.133 7.48 27.08 12.94
11/9/2021 1:00:00 AM 7.25 45.05 0.134 7.47 27.04 12.93
11/9/2021 1:15:00 AM 7.25 45.05 0.134 7.47 27 12.93
11/9/2021 1:30:00 AM 7.26 45.068 0.134 7.47 27.05 12.92
11/9/2021 1:45:00 AM 7.26 45.068 0.134 7.46 26.73 12.92
11/9/2021 2:00:00 AM 7.26 45.068 0.134 7.46 27.09 12.9
11/9/2021 2:15:00 AM 7.25 45.05 0.134 7.45 27.32 12.9
11/9/2021 2:30:00 AM 7.25 45.05 0.134 7.46 27.32 12.88
11/9/2021 2:45:00 AM 7.25 45.05 0.134 7.46 27.34 12.87
11/9/2021 3:00:00 AM 7.24 45.032 0.134 7.45 27.48 12.86
11/9/2021 3:15:00 AM 7.23 45.014 0.134 7.45 27.5 12.84
11/9/2021 3:30:00 AM 7.22 44.996 0.134 7.45 27.51 12.83
11/9/2021 3:45:00 AM 7.21 44.978 0.134 7.45 27.4 12.82
11/9/2021 4:00:00 AM 7.2 44.96 0.134 7.45 27.47 12.8
11/9/2021 4:15:00 AM 7.18 44.924 0.135 7.45 27.89 12.79
11/9/2021 4:30:00 AM 7.17 44.906 0.134 7.44 27.65 12.77
11/9/2021 4:45:00 AM 7.15 44.87 0.135 7.44 27.55 12.76
11/9/2021 5:00:00 AM 7.14 44.852 0.135 7.44 27.76 12.75
11/9/2021 5:15:00 AM 7.12 44.816 0.135 7.43 28.34 12.75
11/9/2021 5:30:00 AM 7.1 44.78 0.135 7.43 27.75 12.73
11/9/2021 5:45:00 AM 7.09 44.762 0.135 7.42 27.76 12.72
11/9/2021 6:00:00 AM 7.07 44.726 0.135 7.42 27.67 12.7
11/9/2021 6:15:00 AM 7.05 44.69 0.135 7.42 27.75 12.68
11/9/2021 6:30:00 AM 7.03 44.654 0.135 7.42 27.7 12.68
11/9/2021 6:45:00 AM 7.01 44.618 0.135 7.42 27.66 12.66
11/9/2021 7:00:00 AM 6.99 44.582 0.135 7.41 27.83 12.64
11/9/2021 7:15:00 AM 7 44.6 0.135 7.41 27.33 12.65
11/9/2021 7:30:00 AM 6.97 44.546 0.136 7.39 27.2 12.64
11/9/2021 7:45:00 AM 6.96 44.528 0.136 7.41 27.11 12.64
11/9/2021 8:00:00 AM 6.95 44.51 0.136 7.4 26.96 12.64
11/9/2021 8:15:00 AM 6.94 44.492 0.136 7.41 27.12 12.65
11/9/2021 8:30:00 AM 6.93 44.474 0.136 7.4 27.1 12.66
11/9/2021 8:45:00 AM 6.92 44.456 0.136 7.4 27.25 12.68
11/9/2021 9:00:00 AM 6.92 44.456 0.136 7.4 27.05 12.69
11/9/2021 9:15:00 AM 6.92 44.456 0.136 7.4 27.13 12.7
11/9/2021 9:30:00 AM 6.92 44.456 0.136 7.41 27.42 12.72
11/9/2021 9:45:00 AM 7.21 44.978 0.141 7.45 28.17 12.79
11/9/2021 10:00:00 AM 7.16 44.888 0.139 7.41 28.47 12.78
11/9/2021 10:15:00 AM 7.03 44.654 0.137 7.41 28.14 12.75
11/9/2021 10:30:00 AM 7.01 44.618 0.136 7.43 28.25 12.8
11/9/2021 10:45:00 AM 7.03 44.654 0.137 7.42 27.94 12.81
11/9/2021 11:00:00 AM 7.07 44.726 0.137 7.44 27.98 12.83
11/9/2021 11:15:00 AM 7.11 44.798 0.137 7.43 27.64 12.86
11/9/2021 11:30:00 AM 7.16 44.888 0.138 7.44 27.94 12.89
11/9/2021 11:45:00 AM 7.21 44.978 0.138 7.44 27.73 12.91
11/9/2021 12:00:00 PM 7.27 45.086 0.138 7.46 27.82 12.95
11/9/2021 12:15:00 PM 7.32 45.176 0.138 7.46 27.82 12.98
11/9/2021 12:30:00 PM 7.37 45.266 0.138 7.46 27.88 13
11/9/2021 12:45:00 PM 7.43 45.374 0.138 7.47 27.8 13.02
11/9/2021 1:00:00 PM 7.48 45.464 0.138 7.47 27.72 13.01
11/9/2021 1:15:00 PM 7.54 45.572 0.138 7.48 27.82 13.06
11/9/2021 1:30:00 PM 7.6 45.68 0.138 7.5 27.81 13.07
11/9/2021 1:45:00 PM 7.65 45.77 0.138 7.51 27.86 13.12
11/9/2021 2:00:00 PM 7.7 45.86 0.138 7.51 27.86 13.11
11/9/2021 2:15:00 PM 7.74 45.932 0.139 7.51 27.65 13.11
11/9/2021 2:30:00 PM 7.79 46.022 0.139 7.52 27.63 13.16
11/9/2021 2:45:00 PM 7.83 46.094 0.139 7.52 27.86 13.17
11/9/2021 3:00:00 PM 7.87 46.166 0.139 7.53 27.75 13.19
11/9/2021 3:15:00 PM 7.9 46.22 0.139 7.53 27.65 13.2
11/9/2021 3:30:00 PM 7.93 46.274 0.139 7.54 27.61 13.22
11/9/2021 3:45:00 PM 7.95 46.31 0.139 7.54 27.84 13.22
11/9/2021 4:00:00 PM 7.96 46.328 0.139 7.55 27.69 13.23
11/9/2021 4:15:00 PM 7.97 46.346 0.139 7.55 27.51 13.23
11/9/2021 4:30:00 PM 7.98 46.364 0.139 7.55 27.71 13.22
11/9/2021 4:45:00 PM 7.98 46.364 0.139 7.56 27.65 13.21
11/9/2021 5:00:00 PM 7.97 46.346 0.139 7.55 27.81 13.21
11/9/2021 5:15:00 PM 7.96 46.328 0.14 7.55 27.6 13.19
11/9/2021 5:30:00 PM 7.95 46.31 0.14 7.55 27.64 13.17
11/9/2021 5:45:00 PM 7.93 46.274 0.14 7.53 27.69 13.16
11/9/2021 6:00:00 PM 8.02 46.436 0.143 7.52 27.43 12.91
11/9/2021 6:15:00 PM 7.92 46.256 0.141 7.47 27.62 12.79
11/9/2021 6:30:00 PM 7.89 46.202 0.14 7.52 27.5 13.04
11/9/2021 6:45:00 PM 7.87 46.166 0.14 7.53 27.57 13.07
11/9/2021 7:00:00 PM 7.85 46.13 0.14 7.53 27.63 13.06
11/9/2021 7:15:00 PM 7.83 46.094 0.14 7.52 27.56 13.04
11/9/2021 7:30:00 PM 7.82 46.076 0.14 7.52 27.59 13.03
11/9/2021 7:45:00 PM 7.8 46.04 0.14 7.52 27.55 13.02
11/9/2021 8:00:00 PM 7.78 46.004 0.14 7.51 27.6 13
11/9/2021 8:15:00 PM 7.77 45.986 0.14 7.51 27.79 12.99
11/9/2021 8:30:00 PM 7.75 45.95 0.14 7.5 27.7 12.99
11/9/2021 8:45:00 PM 7.73 45.914 0.14 7.51 27.69 12.96
11/9/2021 9:00:00 PM 7.72 45.896 0.14 7.5 27.55 12.96
11/9/2021 9:15:00 PM 7.7 45.86 0.14 7.5 27.82 12.94
11/9/2021 9:30:00 PM 7.69 45.842 0.14 7.49 27.44 12.93
11/9/2021 9:45:00 PM 7.69 45.842 0.14 7.48 27.47 12.9
11/9/2021 10:00:00 PM 7.68 45.824 0.14 7.49 27.52 12.9
11/9/2021 10:15:00 PM 7.68 45.824 0.14 7.48 27.36 12.88
11/9/2021 10:30:00 PM 7.68 45.824 0.14 7.47 27.48 12.87
11/9/2021 10:45:00 PM 7.68 45.824 0.139 7.47 27.43 12.86
11/9/2021 11:00:00 PM 7.69 45.842 0.14 7.48 27.4 12.86
11/9/2021 11:15:00 PM 7.7 45.86 0.14 7.47 27.46 12.84
11/9/2021 11:30:00 PM 7.7 45.86 0.14 7.46 27.55 12.83
11/9/2021 11:45:00 PM 7.72 45.896 0.14 7.46 27.42 12.81
11/10/2021 12:00:00 AM 7.74 45.932 0.14 7.45 27.53 12.8
11/10/2021 12:15:00 AM 7.76 45.968 0.14 7.46 27.47 12.8
11/10/2021 12:30:00 AM 7.78 46.004 0.14 7.46 27.43 12.79
11/10/2021 12:45:00 AM 7.81 46.058 0.14 7.47 27.61 12.77
11/10/2021 1:00:00 AM 7.83 46.094 0.14 7.46 27.65 12.74
11/10/2021 1:15:00 AM 7.85 46.13 0.14 7.45 27.56 12.72
11/10/2021 1:30:00 AM 7.86 46.148 0.14 7.46 27.59 12.72
11/10/2021 1:45:00 AM 7.88 46.184 0.14 7.46 27.58 12.72
11/10/2021 2:00:00 AM 7.9 46.22 0.14 7.46 27.36 12.71
11/10/2021 2:15:00 AM 7.91 46.238 0.14 7.46 27.4 12.7
11/10/2021 2:30:00 AM 7.93 46.274 0.14 7.45 27.73 12.68
11/10/2021 2:45:00 AM 7.94 46.292 0.14 7.45 27.43 12.7
11/10/2021 3:00:00 AM 7.95 46.31 0.14 7.45 27.72 12.68
11/10/2021 3:15:00 AM 7.96 46.328 0.14 7.45 27.93 12.66
11/10/2021 3:30:00 AM 7.96 46.328 0.14 7.44 27.46 12.64
11/10/2021 3:45:00 AM 7.97 46.346 0.14 7.45 27.49 12.63
11/10/2021 4:00:00 AM 7.97 46.346 0.14 7.44 27.5 12.62
11/10/2021 4:15:00 AM 7.97 46.346 0.14 7.44 27.55 12.6
11/10/2021 4:30:00 AM 7.97 46.346 0.14 7.44 27.67 12.59
11/10/2021 4:45:00 AM 7.98 46.364 0.14 7.44 27.6 12.57
11/10/2021 5:00:00 AM 7.98 46.364 0.141 7.44 27.63 12.56
11/10/2021 5:15:00 AM 7.98 46.364 0.141 7.42 27.49 12.53
11/10/2021 5:30:00 AM 7.98 46.364 0.141 7.43 27.74 12.52
11/10/2021 5:45:00 AM 7.97 46.346 0.141 7.43 27.54 12.5
11/10/2021 6:00:00 AM 7.97 46.346 0.141 7.43 27.5 12.48
11/10/2021 6:15:00 AM 7.96 46.328 0.141 7.41 27.6 12.46
11/10/2021 6:30:00 AM 7.96 46.328 0.141 7.41 27.72 12.44
11/10/2021 6:45:00 AM 7.95 46.31 0.141 7.4 27.54 12.43
11/10/2021 7:00:00 AM 7.94 46.292 0.141 7.42 27.6 12.41
11/10/2021 7:15:00 AM 7.93 46.274 0.141 7.41 27.49 12.4
11/10/2021 7:30:00 AM 7.92 46.256 0.141 7.4 27.51 12.38
11/10/2021 7:45:00 AM 7.92 46.256 0.141 7.4 27.49 12.37
11/10/2021 8:00:00 AM 7.91 46.238 0.141 7.41 27.43 12.36
11/10/2021 8:15:00 AM 7.91 46.238 0.141 7.4 27.46 12.37
11/10/2021 8:30:00 AM 7.91 46.238 0.141 7.4 27.43 12.38
11/10/2021 8:45:00 AM 7.91 46.238 0.141 7.39 27.41 12.38
11/10/2021 9:00:00 AM 7.91 46.238 0.141 7.4 27.55 12.38
11/10/2021 9:15:00 AM 7.91 46.238 0.141 7.4 27.55 12.41
11/10/2021 9:30:00 AM 7.91 46.238 0.142 7.39 27.33 12.42
11/10/2021 9:45:00 AM 7.93 46.274 0.142 7.41 27.34 12.44
11/10/2021 10:00:00 AM 7.97 46.346 0.142 7.4 27.36 12.45
11/10/2021 10:15:00 AM 8 46.4 0.142 7.41 27.41 12.48
11/10/2021 10:30:00 AM 8.03 46.454 0.142 7.42 27.28 12.49
11/10/2021 10:45:00 AM 8.06 46.508 0.142 7.42 27.24 12.48
11/10/2021 11:00:00 AM 8.08 46.544 0.142 7.43 27.58 12.55
11/10/2021 11:15:00 AM 8.11 46.598 0.142 7.44 27.25 12.54
11/10/2021 11:30:00 AM 8.17 46.706 0.142 7.44 27.25 12.55
11/10/2021 11:45:00 AM 8.21 46.778 0.142 7.45 27.29 12.54
11/10/2021 12:00:00 PM 8.26 46.868 0.142 7.45 27.32 12.58
11/10/2021 12:15:00 PM 8.32 46.976 0.142 7.45 27.5 12.64
11/10/2021 12:30:00 PM 8.37 47.066 0.142 7.46 27.23 12.67
11/10/2021 12:45:00 PM 8.43 47.174 0.142 7.48 27.08 12.7
11/10/2021 1:00:00 PM 8.52 47.336 0.142 7.49 27.29 12.77
11/10/2021 1:15:00 PM 8.57 47.426 0.142 7.47 27.08 12.77
11/10/2021 1:30:00 PM 8.65 47.57 0.142 7.5 27.3 12.83
11/10/2021 1:45:00 PM 8.71 47.678 0.142 7.5 27.23 12.85
11/10/2021 2:00:00 PM 8.75 47.75 0.142 7.49 27.11 12.85
11/10/2021 2:15:00 PM 8.8 47.84 0.142 7.52 27.19 12.91
11/10/2021 2:30:00 PM 8.83 47.894 0.142 7.53 27.27 12.92
11/10/2021 2:45:00 PM 8.88 47.984 0.142 7.57 27.34 12.93
11/10/2021 3:00:00 PM 8.91 48.038 0.142 7.55 27.26 12.96
11/10/2021 3:15:00 PM 8.95 48.11 0.142 7.55 27.2 12.99
11/10/2021 3:30:00 PM 8.98 48.164 0.142 7.56 27.11 12.99
11/10/2021 3:45:00 PM 9.01 48.218 0.143 7.57 27.47 13
11/10/2021 4:00:00 PM 9.02 48.236 0.142 7.56 27.7 13
11/10/2021 4:15:00 PM 9.04 48.272 0.143 7.57 27.33 13.05
11/10/2021 4:30:00 PM 9.04 48.272 0.143 7.57 27.08 13.04
11/10/2021 4:45:00 PM 9.04 48.272 0.143 7.58 27.28 13.02
11/10/2021 5:00:00 PM 9.03 48.254 0.143 7.58 27.34 13.03
11/10/2021 5:15:00 PM 9.02 48.236 0.143 7.58 27.87 13.02
11/10/2021 5:30:00 PM 9.08 48.344 0.145 7.61 27.78 12.93
11/10/2021 5:45:00 PM 8.88 47.984 0.148 7.51 27.25 12.74
11/10/2021 6:00:00 PM 8.88 47.984 0.145 7.48 26.7 12.66
11/10/2021 6:15:00 PM 8.92 48.056 0.144 7.53 27.31 12.85
11/10/2021 6:30:00 PM 8.9 48.02 0.144 7.56 26.98 12.88
11/10/2021 6:45:00 PM 8.89 48.002 0.144 7.55 27.27 12.83
11/10/2021 7:00:00 PM 8.84 47.912 0.143 7.55 26.95 12.86
11/10/2021 7:15:00 PM 8.81 47.858 0.144 7.55 26.89 12.83
11/10/2021 7:30:00 PM 8.77 47.786 0.144 7.55 27.09 12.82
11/10/2021 7:45:00 PM 8.73 47.714 0.144 7.55 27.11 12.81
11/10/2021 8:00:00 PM 8.7 47.66 0.144 7.54 26.99 12.79
11/10/2021 8:15:00 PM 8.67 47.606 0.144 7.54 27.32 12.77
11/10/2021 8:30:00 PM 8.63 47.534 0.144 7.53 27.1 12.76
11/10/2021 8:45:00 PM 8.6 47.48 0.145 7.53 27.04 12.74
11/10/2021 9:00:00 PM 8.57 47.426 0.145 7.53 27.06 12.72
11/10/2021 9:15:00 PM 8.54 47.372 0.145 7.51 27.1 12.72
11/10/2021 9:30:00 PM 8.51 47.318 0.145 7.51 27.08 12.7
11/10/2021 9:45:00 PM 8.48 47.264 0.145 7.5 26.88 12.68
11/10/2021 10:00:00 PM 8.46 47.228 0.145 7.5 26.9 12.66
11/10/2021 10:15:00 PM 8.44 47.192 0.145 7.5 26.98 12.64
11/10/2021 10:30:00 PM 8.42 47.156 0.145 7.5 27.03 12.64
11/10/2021 10:45:00 PM 8.4 47.12 0.145 7.49 26.96 12.63
11/10/2021 11:00:00 PM 8.38 47.084 0.145 7.5 27.02 12.62
11/10/2021 11:15:00 PM 8.37 47.066 0.145 7.48 27.04 12.61
11/10/2021 11:30:00 PM 8.36 47.048 0.145 7.48 27.34 12.62
11/10/2021 11:45:00 PM 8.35 47.03 0.145 7.49 27.11 12.61
11/11/2021 12:00:00 AM 8.34 47.012 0.145 7.49 27.18 12.61
11/11/2021 12:15:00 AM 8.34 47.012 0.145 7.48 27.08 12.59
11/11/2021 12:30:00 AM 8.34 47.012 0.145 7.48 27.2 12.57
11/11/2021 12:45:00 AM 8.34 47.012 0.145 7.48 27.24 12.58
11/11/2021 1:00:00 AM 8.34 47.012 0.145 7.47 27.12 12.57
11/11/2021 1:15:00 AM 8.35 47.03 0.145 7.47 27.86 12.56
11/11/2021 1:30:00 AM 8.35 47.03 0.145 7.48 27.41 12.54
11/11/2021 1:45:00 AM 8.36 47.048 0.145 7.47 27.1 12.53
11/11/2021 2:00:00 AM 8.37 47.066 0.145 7.47 27.25 12.53
11/11/2021 2:15:00 AM 8.38 47.084 0.145 7.49 27.44 12.53
11/11/2021 2:30:00 AM 8.38 47.084 0.145 7.48 27.13 12.52
11/11/2021 2:45:00 AM 8.38 47.084 0.145 7.48 27.29 12.51
11/11/2021 3:00:00 AM 8.39 47.102 0.145 7.48 27.63 12.5
11/11/2021 3:15:00 AM 8.39 47.102 0.145 7.47 27.77 12.48
11/11/2021 3:30:00 AM 8.39 47.102 0.145 7.47 27.56 12.48
11/11/2021 3:45:00 AM 8.4 47.12 0.145 7.46 27.47 12.45
11/11/2021 4:00:00 AM 8.5 47.3 0.149 7.48 27.19 12.42
11/11/2021 4:15:00 AM 8.46 47.228 0.149 7.43 26.87 12.28
11/11/2021 4:30:00 AM 8.39 47.102 0.146 7.45 27.24 12.37
11/11/2021 4:45:00 AM 8.38 47.084 0.146 7.45 27.73 12.38
11/11/2021 5:00:00 AM 8.38 47.084 0.146 7.46 27.85 12.36
11/11/2021 5:15:00 AM 8.36 47.048 0.146 7.45 27.68 12.37
11/11/2021 5:30:00 AM 8.34 47.012 0.146 7.46 27.89 12.35
11/11/2021 5:45:00 AM 8.33 46.994 0.145 7.45 27.47 12.33
11/11/2021 6:00:00 AM 8.31 46.958 0.146 7.44 27.85 12.31
11/11/2021 6:15:00 AM 8.3 46.94 0.146 7.44 27.25 12.3
11/11/2021 6:30:00 AM 8.28 46.904 0.146 7.44 27.44 12.28
11/11/2021 6:45:00 AM 8.26 46.868 0.146 7.43 27.43 12.27
11/11/2021 7:00:00 AM 8.24 46.832 0.145 7.43 27.33 12.27
11/11/2021 7:15:00 AM 8.23 46.814 0.145 7.43 27.34 12.25
11/11/2021 7:30:00 AM 8.21 46.778 0.145 7.43 27.51 12.24
11/11/2021 7:45:00 AM 8.2 46.76 0.145 7.43 27.34 12.24
11/11/2021 8:00:00 AM 8.18 46.724 0.145 7.43 27.56 12.25
11/11/2021 8:15:00 AM 8.18 46.724 0.145 7.42 27.48 12.26
11/11/2021 8:30:00 AM 8.18 46.724 0.145 7.43 27.28 12.27
11/11/2021 8:45:00 AM 8.17 46.706 0.145 7.43 27.26 12.28
11/11/2021 9:00:00 AM 8.16 46.688 0.146 7.43 27.33 12.28
11/11/2021 9:15:00 AM 8.16 46.688 0.145 7.44 27.48 12.31
11/11/2021 9:30:00 AM 8.17 46.706 0.145 7.44 27.44 12.33
11/11/2021 9:45:00 AM 8.18 46.724 0.146 7.43 27.37 12.35
11/11/2021 10:00:00 AM 8.19 46.742 0.146 7.44 27.47 12.37
11/11/2021 10:15:00 AM 8.21 46.778 0.146 7.44 27.13 12.41
11/11/2021 10:30:00 AM 8.23 46.814 0.146 7.46 27.35 12.45
11/11/2021 10:45:00 AM 8.24 46.832 0.146 7.46 27.22 12.46
11/11/2021 11:00:00 AM 8.26 46.868 0.146 7.46 27.27 12.47
11/11/2021 11:15:00 AM 8.27 46.886 0.146 7.46 27.29 12.49
11/11/2021 11:30:00 AM 8.29 46.922 0.146 7.48 27.15 12.54
11/11/2021 11:45:00 AM 8.3 46.94 0.146 7.49 27.17 12.57
11/11/2021 12:00:00 PM 8.33 46.994 0.146 7.49 27.3 12.62
11/11/2021 12:15:00 PM 8.36 47.048 0.146 7.49 27.29 12.6
11/11/2021 12:30:00 PM 8.39 47.102 0.146 7.5 27.14 12.65
11/11/2021 12:45:00 PM 8.42 47.156 0.146 7.5 27.08 12.71
11/11/2021 1:00:00 PM 8.45 47.21 0.146 7.51 27.02 12.71
11/11/2021 1:15:00 PM 8.5 47.3 0.146 7.54 27.18 12.79
11/11/2021 1:30:00 PM 8.54 47.372 0.146 7.55 27.17 12.85
11/11/2021 1:45:00 PM 8.58 47.444 0.146 7.54 27.24 12.86
11/11/2021 2:00:00 PM 8.62 47.516 0.146 7.56 27.12 12.9
11/11/2021 2:15:00 PM 8.64 47.552 0.146 7.58 27.05 12.93
11/11/2021 2:30:00 PM 8.67 47.606 0.146 7.59 27.24 12.99
11/11/2021 2:45:00 PM 8.69 47.642 0.146 7.59 27.01 12.99
11/11/2021 3:00:00 PM 8.71 47.678 0.146 7.6 27.1 13
11/11/2021 3:15:00 PM 8.73 47.714 0.146 7.6 27.12 13.02
11/11/2021 3:30:00 PM 8.75 47.75 0.146 7.62 27 13.05
11/11/2021 3:45:00 PM 8.77 47.786 0.146 7.61 26.97 13.06
11/11/2021 4:00:00 PM 8.79 47.822 0.147 7.63 27.01 13.09
11/11/2021 4:15:00 PM 8.81 47.858 0.147 7.64 27.03 13.11
11/11/2021 4:30:00 PM 8.81 47.858 0.147 7.64 26.86 13.09
11/11/2021 4:45:00 PM 8.82 47.876 0.147 7.65 26.98 13.06
11/11/2021 5:00:00 PM 8.84 47.912 0.147 7.65 27.19 13.07
11/11/2021 5:15:00 PM 8.84 47.912 0.147 7.64 26.82 13.04
11/11/2021 5:30:00 PM 8.84 47.912 0.147 7.64 26.82 13.03
11/11/2021 5:45:00 PM 8.84 47.912 0.147 7.64 26.96 13
11/11/2021 6:00:00 PM 8.83 47.894 0.147 7.63 26.85 12.98
11/11/2021 6:15:00 PM 8.83 47.894 0.147 7.63 26.91 12.96
11/11/2021 6:30:00 PM 8.93 48.074 0.154 7.57 27.16 12.59
11/11/2021 6:45:00 PM 8.84 47.912 0.152 7.51 26.97 12.51
11/11/2021 7:00:00 PM 8.81 47.858 0.149 7.58 27.44 12.8
11/11/2021 7:15:00 PM 8.8 47.84 0.148 7.58 27.53 12.83
11/11/2021 7:30:00 PM 8.79 47.822 0.148 7.57 27.31 12.81
11/11/2021 7:45:00 PM 8.79 47.822 0.148 7.58 27.33 12.79
11/11/2021 8:00:00 PM 8.78 47.804 0.148 7.58 27.45 12.8
11/11/2021 8:15:00 PM 8.77 47.786 0.148 7.57 28.11 12.77
11/11/2021 8:30:00 PM 8.77 47.786 0.148 7.58 27.6 12.76
11/11/2021 8:45:00 PM 8.77 47.786 0.148 7.56 27.63 12.73
11/11/2021 9:00:00 PM 8.77 47.786 0.149 7.57 27.8 12.71
11/11/2021 9:15:00 PM 8.77 47.786 0.148 7.56 27.67 12.69
11/11/2021 9:30:00 PM 8.76 47.768 0.149 7.55 27.59 12.64
11/11/2021 9:45:00 PM 8.75 47.75 0.148 7.56 27.61 12.65
11/11/2021 10:00:00 PM 8.75 47.75 0.148 7.55 27.5 12.65
11/11/2021 10:15:00 PM 8.75 47.75 0.148 7.54 27.67 12.61
11/11/2021 10:30:00 PM 8.75 47.75 0.148 7.53 27.69 12.58
11/11/2021 10:45:00 PM 8.76 47.768 0.148 7.53 27.56 12.58
11/11/2021 11:00:00 PM 8.77 47.786 0.148 7.53 27.75 12.55
11/11/2021 11:15:00 PM 8.78 47.804 0.148 7.54 27.66 12.55
11/11/2021 11:30:00 PM 8.79 47.822 0.148 7.52 27.94 12.53
11/11/2021 11:45:00 PM 8.8 47.84 0.148 7.52 27.71 12.53
11/12/2021 12:00:00 AM 8.82 47.876 0.148 7.51 28.32 12.51
11/12/2021 12:15:00 AM 8.84 47.912 0.148 7.51 27.79 12.5
11/12/2021 12:30:00 AM 8.86 47.948 0.149 7.51 27.92 12.48
11/12/2021 12:45:00 AM 8.87 47.966 0.149 7.5 27.77 12.47
11/12/2021 1:00:00 AM 8.9 48.02 0.149 7.51 27.74 12.44
11/12/2021 1:15:00 AM 8.92 48.056 0.149 7.51 27.43 12.44
11/12/2021 1:30:00 AM 8.94 48.092 0.149 7.51 27.51 12.44
11/12/2021 1:45:00 AM 8.98 48.164 0.149 7.5 28.36 12.41
11/12/2021 2:00:00 AM 9 48.2 0.149 7.51 27.87 12.42
11/12/2021 2:15:00 AM 9.02 48.236 0.149 7.51 27.62 12.41
11/12/2021 2:30:00 AM 9.05 48.29 0.149 7.51 27.43 12.38
11/12/2021 2:45:00 AM 9.14 48.452 0.151 7.51 28.48 12.37
11/12/2021 3:00:00 AM 9.16 48.488 0.155 7.48 28.04 12.34
11/12/2021 3:15:00 AM 9.13 48.434 0.15 7.46 27.89 12.3
11/12/2021 3:30:00 AM 9.16 48.488 0.149 7.49 27.76 12.32
11/12/2021 3:45:00 AM 9.2 48.56 0.149 7.49 28.31 12.29
11/12/2021 4:00:00 AM 9.24 48.632 0.149 7.49 28.11 12.27
11/12/2021 4:15:00 AM 9.28 48.704 0.149 7.5 28.24 12.24
11/12/2021 4:30:00 AM 9.3 48.74 0.148 7.49 27.55 12.21
11/12/2021 4:45:00 AM 9.33 48.794 0.148 7.5 27.72 12.17
11/12/2021 5:00:00 AM 9.35 48.83 0.148 7.5 27.59 12.15
11/12/2021 5:15:00 AM 9.38 48.884 0.147 7.48 27.76 12.12
11/12/2021 5:30:00 AM 9.44 48.992 0.147 7.49 27.88 12.07
11/12/2021 5:45:00 AM 9.46 49.028 0.147 7.49 28.01 12.04
11/12/2021 6:00:00 AM 9.49 49.082 0.147 7.5 29.41 12.02
11/12/2021 6:15:00 AM 9.5 49.1 0.147 7.51 29.97 11.99
11/12/2021 6:30:00 AM 9.49 49.082 0.147 7.48 28.55 11.97
11/12/2021 6:45:00 AM 9.48 49.064 0.148 7.49 28.29 11.96
11/12/2021 7:00:00 AM 9.48 49.064 0.148 7.48 29.89 11.93
11/12/2021 7:15:00 AM 9.49 49.082 0.149 7.48 29.59 11.91
11/12/2021 7:30:00 AM 9.5 49.1 0.149 7.47 29.71 11.87
11/12/2021 7:45:00 AM 9.52 49.136 0.15 7.47 29.68 11.86
11/12/2021 8:00:00 AM 9.54 49.172 0.152 7.47 29.64 11.82
11/12/2021 8:15:00 AM 9.57 49.226 0.155 7.49 31.41 11.78
11/12/2021 8:30:00 AM 9.62 49.316 0.157 7.5 35.04 11.73
11/12/2021 8:45:00 AM 9.66 49.388 0.156 7.5 35.44 11.69
11/12/2021 9:00:00 AM 9.7 49.46 0.156 7.49 38 11.64
11/12/2021 9:15:00 AM 9.72 49.496 0.155 7.49 43.69 11.62
11/12/2021 9:30:00 AM 9.73 49.514 0.154 7.49 46.01 11.59
11/12/2021 9:45:00 AM 9.74 49.532 0.155 7.49 44.66 11.58
11/12/2021 10:00:00 AM 9.76 49.568 0.155 7.49 43.76 11.55
11/12/2021 10:15:00 AM 9.78 49.604 0.156 7.49 46.14 11.52
11/12/2021 10:30:00 AM 9.84 49.712 0.161 7.5 48.98 11.45
11/12/2021 10:45:00 AM 9.93 49.874 0.169 7.52 61.84 11.37
11/12/2021 11:00:00 AM 10 50 0.174 7.52 70.03 11.28
11/12/2021 11:15:00 AM 10.07 50.126 0.171 7.5 87.62 11.2
11/12/2021 11:30:00 AM 10.15 50.27 0.168 7.49 107.11 11.11
11/12/2021 11:45:00 AM 10.21 50.378 0.165 7.47 111.08 11.04
11/12/2021 12:00:00 PM 10.28 50.504 0.162 7.46 126.94 10.98
11/12/2021 12:15:00 PM 10.35 50.63 0.158 7.44 144.24 10.93
11/12/2021 12:30:00 PM 10.4 50.72 0.154 7.43 145.25 10.93
11/12/2021 12:45:00 PM 10.44 50.792 0.152 7.41 150.15 10.94
11/12/2021 1:00:00 PM 10.47 50.846 0.151 7.41 141.01 10.96
11/12/2021 1:15:00 PM 10.49 50.882 0.149 7.41 137.23 11
11/12/2021 1:30:00 PM 10.49 50.882 0.148 7.4 129.92 11.06
11/12/2021 1:45:00 PM 10.49 50.882 0.151 7.39 119.78 11.03
11/12/2021 2:00:00 PM 10.5 50.9 0.147 7.41 125.31 11.19
11/12/2021 2:15:00 PM 10.51 50.918 0.147 7.42 110.37 11.23
11/12/2021 2:30:00 PM 10.52 50.936 0.147 7.42 105.38 11.27
11/12/2021 2:45:00 PM 10.52 50.936 0.147 7.42 99.71 11.31
11/12/2021 3:00:00 PM 10.51 50.918 0.147 7.43 92.16 11.36
11/12/2021 3:15:00 PM 10.49 50.882 0.146 7.43 89.81 11.4
11/12/2021 3:30:00 PM 10.48 50.864 0.146 7.43 82.54 11.44
11/12/2021 3:45:00 PM 10.47 50.846 0.146 7.44 78.54 11.44
11/12/2021 4:00:00 PM 10.47 50.846 0.146 7.45 79.5 11.47
11/12/2021 4:15:00 PM 10.46 50.828 0.146 7.45 75.94 11.46
11/12/2021 4:30:00 PM 10.47 50.846 0.146 7.44 73.74 11.37
11/12/2021 4:45:00 PM 10.49 50.882 0.146 7.43 74.22 11.27
11/12/2021 5:00:00 PM 10.51 50.918 0.145 7.42 76.31 11.18
11/12/2021 5:15:00 PM 10.53 50.954 0.144 7.41 82.47 11.11
11/12/2021 5:30:00 PM 10.54 50.972 0.143 7.39 82.22 11.05
11/12/2021 5:45:00 PM 10.54 50.972 0.143 7.39 81.25 11.01
11/12/2021 6:00:00 PM 10.54 50.972 0.142 7.37 84.39 10.98
11/12/2021 6:15:00 PM 10.53 50.954 0.141 7.37 86.73 10.95
11/12/2021 6:30:00 PM 10.52 50.936 0.14 7.34 83.35 10.95
11/12/2021 6:45:00 PM 10.51 50.918 0.139 7.35 81.98 10.93
11/12/2021 7:00:00 PM 10.5 50.9 0.138 7.35 87.4 10.9
11/12/2021 7:15:00 PM 10.48 50.864 0.137 7.34 84.86 10.89
11/12/2021 7:30:00 PM 10.47 50.846 0.135 7.34 86.26 10.87
11/12/2021 7:45:00 PM 10.46 50.828 0.134 7.33 86.89 10.86
11/12/2021 8:00:00 PM 10.46 50.828 0.132 7.33 84.48 10.86
11/12/2021 8:15:00 PM 10.51 50.918 0.134 7.33 77.39 10.9
11/12/2021 8:30:00 PM 10.3 50.54 0.147 7.39 61.9 11.29
11/12/2021 8:45:00 PM 10.37 50.666 0.137 7.35 66.44 11.04
11/12/2021 9:00:00 PM 10.43 50.774 0.126 7.33 75.35 10.87
11/12/2021 9:15:00 PM 10.44 50.792 0.124 7.32 71.81 10.86
11/12/2021 9:30:00 PM 10.44 50.792 0.122 7.32 76.14 10.88
11/12/2021 9:45:00 PM 10.44 50.792 0.125 7.32 80.91 10.89
11/12/2021 10:00:00 PM 10.45 50.81 0.12 7.32 80.41 10.88
11/12/2021 10:15:00 PM 10.46 50.828 0.118 7.32 80.57 10.89
11/12/2021 10:30:00 PM 10.45 50.81 0.118 7.31 72.96 10.9
11/12/2021 10:45:00 PM 10.44 50.792 0.117 7.32 72.78 10.92
11/12/2021 11:00:00 PM 10.43 50.774 0.115 7.31 77.22 10.95
11/12/2021 11:15:00 PM 10.43 50.774 0.115 7.3 73.53 10.95
11/12/2021 11:30:00 PM 10.41 50.738 0.114 7.31 70.4 10.98
11/12/2021 11:45:00 PM 10.38 50.684 0.113 7.32 72.81 11.02
11/13/2021 12:00:00 AM 10.37 50.666 0.113 7.31 69.68 11.03
11/13/2021 12:15:00 AM 10.35 50.63 0.113 7.31 68.23 11.04
11/13/2021 12:30:00 AM 10.32 50.576 0.113 7.3 70.62 11.05
11/13/2021 12:45:00 AM 10.29 50.522 0.111 7.32 70.66 11.09
11/13/2021 1:00:00 AM 10.26 50.468 0.11 7.31 69.73 11.12
11/13/2021 1:15:00 AM 10.24 50.432 0.11 7.31 63.52 11.12
11/13/2021 1:30:00 AM 10.22 50.396 0.11 7.31 63.6 11.13
11/13/2021 1:45:00 AM 10.19 50.342 0.109 7.31 67.95 11.16
11/13/2021 2:00:00 AM 10.16 50.288 0.109 7.31 62.09 11.17
11/13/2021 2:15:00 AM 10.13 50.234 0.108 7.31 60.79 11.16
11/13/2021 2:30:00 AM 10.1 50.18 0.109 7.31 61.23 11.17
11/13/2021 2:45:00 AM 10.08 50.144 0.11 7.3 58.79 11.17
11/13/2021 3:00:00 AM 10.05 50.09 0.107 7.31 58.2 11.21
11/13/2021 3:15:00 AM 10.03 50.054 0.108 7.3 59.23 11.19
11/13/2021 3:30:00 AM 9.99 49.982 0.107 7.31 60.36 11.2
11/13/2021 3:45:00 AM 9.96 49.928 0.107 7.3 60.8 11.2
11/13/2021 4:00:00 AM 9.94 49.892 0.107 7.3 59.62 11.22
11/13/2021 4:15:00 AM 9.91 49.838 0.106 7.3 57.48 11.22
11/13/2021 4:30:00 AM 9.89 49.802 0.105 7.3 58.42 11.22
11/13/2021 4:45:00 AM 9.88 49.784 0.105 7.29 58.26 11.22
11/13/2021 5:00:00 AM 9.86 49.748 0.104 7.29 59.04 11.2
11/13/2021 5:15:00 AM 9.86 49.748 0.102 7.28 58.41 11.19
11/13/2021 5:30:00 AM 9.85 49.73 0.102 7.27 59.99 11.17
11/13/2021 5:45:00 AM 9.84 49.712 0.1 7.27 57.48 11.19
11/13/2021 6:00:00 AM 9.83 49.694 0.099 7.27 58.95 11.19
11/13/2021 6:15:00 AM 9.82 49.676 0.099 7.27 60.1 11.19
11/13/2021 6:30:00 AM 9.81 49.658 0.099 7.26 59.3 11.17
11/13/2021 6:45:00 AM 9.79 49.622 0.099 7.25 55.46 11.19
11/13/2021 7:00:00 AM 9.79 49.622 0.107 7.24 53.85 11.16
11/13/2021 7:15:00 AM 9.76 49.568 0.098 7.26 56.42 11.19
11/13/2021 7:30:00 AM 9.74 49.532 0.099 7.25 60.34 11.2
11/13/2021 7:45:00 AM 9.72 49.496 0.097 7.25 57.03 11.21
11/13/2021 8:00:00 AM 9.71 49.478 0.098 7.25 56.92 11.21
11/13/2021 8:15:00 AM 9.69 49.442 0.099 7.25 57.95 11.22
11/13/2021 8:30:00 AM 9.68 49.424 0.099 7.25 55.09 11.23
11/13/2021 8:45:00 AM 9.66 49.388 0.1 7.25 59.39 11.24
11/13/2021 9:00:00 AM 9.64 49.352 0.099 7.26 58.71 11.24
11/13/2021 9:15:00 AM 9.63 49.334 0.1 7.25 55.78 11.26
11/13/2021 9:30:00 AM 9.63 49.334 0.105 7.25 54.01 11.22
11/13/2021 9:45:00 AM 9.61 49.298 0.101 7.25 56.12 11.29
11/13/2021 10:00:00 AM 9.6 49.28 0.103 7.26 56.38 11.29
11/13/2021 10:15:00 AM 9.58 49.244 0.102 7.25 52.81 11.29
11/13/2021 10:30:00 AM 9.58 49.244 0.104 7.26 56.14 11.3
11/13/2021 10:45:00 AM 9.56 49.208 0.103 7.26 56.55 11.31
11/13/2021 11:00:00 AM 9.55 49.19 0.105 7.26 56.11 11.32
11/13/2021 11:15:00 AM 9.54 49.172 0.106 7.25 52.23 11.31
11/13/2021 11:30:00 AM 9.52 49.136 0.106 7.26 55.41 11.32
11/13/2021 11:45:00 AM 9.5 49.1 0.106 7.27 50.4 11.33
11/13/2021 12:00:00 PM 9.48 49.064 0.106 7.27 49.83 11.32
11/13/2021 12:15:00 PM 9.47 49.046 0.107 7.26 50.15 11.31
11/13/2021 12:30:00 PM 9.45 49.01 0.108 7.26 50.69 11.32
11/13/2021 12:45:00 PM 9.43 48.974 0.107 7.26 49.86 11.33
11/13/2021 1:00:00 PM 9.42 48.956 0.108 7.27 50.18 11.37
11/13/2021 1:15:00 PM 9.4 48.92 0.109 7.26 50.03 11.39
11/13/2021 1:30:00 PM 9.38 48.884 0.109 7.27 48.95 11.4
11/13/2021 1:45:00 PM 9.37 48.866 0.11 7.27 50.76 11.38
11/13/2021 2:00:00 PM 9.37 48.866 0.111 7.27 48.36 11.38
11/13/2021 2:15:00 PM 9.47 49.046 0.12 7.31 48.01 11.5
11/13/2021 2:30:00 PM 9.54 49.172 0.125 7.28 40.87 11.6
11/13/2021 2:45:00 PM 9.41 48.938 0.115 7.28 43.99 11.43
11/13/2021 3:00:00 PM 9.34 48.812 0.112 7.29 43.97 11.42
11/13/2021 3:15:00 PM 9.32 48.776 0.113 7.28 43.55 11.41
11/13/2021 3:30:00 PM 9.31 48.758 0.113 7.28 44.5 11.42
11/13/2021 3:45:00 PM 9.3 48.74 0.112 7.29 44.37 11.42
11/13/2021 4:00:00 PM 9.29 48.722 0.113 7.29 42.68 11.43
11/13/2021 4:15:00 PM 9.29 48.722 0.113 7.29 43.7 11.41
11/13/2021 4:30:00 PM 9.28 48.704 0.114 7.3 42.9 11.43
11/13/2021 4:45:00 PM 9.27 48.686 0.114 7.3 42.52 11.46
11/13/2021 5:00:00 PM 9.25 48.65 0.113 7.3 43.3 11.47
11/13/2021 5:15:00 PM 9.22 48.596 0.113 7.3 42.5 11.48
11/13/2021 5:30:00 PM 9.21 48.578 0.114 7.3 41.63 11.47
11/13/2021 5:45:00 PM 9.19 48.542 0.114 7.3 43.49 11.47
11/13/2021 6:00:00 PM 9.18 48.524 0.115 7.31 41.36 11.5
11/13/2021 6:15:00 PM 9.16 48.488 0.115 7.3 42.26 11.49
11/13/2021 6:30:00 PM 9.15 48.47 0.116 7.31 42.24 11.49
11/13/2021 6:45:00 PM 9.13 48.434 0.115 7.3 41.87 11.5
11/13/2021 7:00:00 PM 9.12 48.416 0.115 7.31 41.3 11.52
11/13/2021 7:15:00 PM 9.1 48.38 0.116 7.31 42 11.51
11/13/2021 7:30:00 PM 9.09 48.362 0.117 7.31 41.56 11.51
11/13/2021 7:45:00 PM 9.07 48.326 0.117 7.31 41.1 11.5
11/13/2021 8:00:00 PM 9.07 48.326 0.117 7.31 41.21 11.51
11/13/2021 8:15:00 PM 9.06 48.308 0.117 7.32 42.34 11.5
11/13/2021 8:30:00 PM 9.04 48.272 0.117 7.32 41.99 11.52
11/13/2021 8:45:00 PM 9.03 48.254 0.118 7.33 41.26 11.54
11/13/2021 9:00:00 PM 9.01 48.218 0.118 7.33 40.99 11.53
11/13/2021 9:15:00 PM 8.99 48.182 0.118 7.32 41.64 11.54
11/13/2021 9:30:00 PM 8.99 48.182 0.118 7.33 40.84 11.53
11/13/2021 9:45:00 PM 8.97 48.146 0.118 7.33 41.28 11.53
11/13/2021 10:00:00 PM 8.96 48.128 0.118 7.33 40.74 11.54
11/13/2021 10:15:00 PM 8.96 48.128 0.118 7.33 42.38 11.56
11/13/2021 10:30:00 PM 8.94 48.092 0.118 7.34 41.1 11.57
11/13/2021 10:45:00 PM 8.93 48.074 0.119 7.33 41 11.56
11/13/2021 11:00:00 PM 8.92 48.056 0.119 7.33 41.32 11.54
11/13/2021 11:15:00 PM 8.91 48.038 0.119 7.33 40.03 11.54
11/13/2021 11:30:00 PM 8.9 48.02 0.119 7.34 40.45 11.57
11/13/2021 11:45:00 PM 8.88 47.984 0.119 7.34 40.44 11.56
11/14/2021 12:00:00 AM 8.87 47.966 0.119 7.34 39.59 11.57
11/14/2021 12:15:00 AM 8.85 47.93 0.119 7.34 40.35 11.58
11/14/2021 12:30:00 AM 8.82 47.876 0.119 7.35 40.08 11.61
11/14/2021 12:45:00 AM 8.8 47.84 0.119 7.35 39.9 11.61
11/14/2021 1:00:00 AM 8.79 47.822 0.119 7.36 40.93 11.63
11/14/2021 1:15:00 AM 8.77 47.786 0.119 7.36 40.6 11.61
11/14/2021 1:30:00 AM 8.76 47.768 0.119 7.36 40.05 11.6
11/14/2021 1:45:00 AM 8.75 47.75 0.119 7.36 39.77 11.6
11/14/2021 2:00:00 AM 8.73 47.714 0.119 7.36 39.63 11.61
11/14/2021 2:15:00 AM 8.72 47.696 0.119 7.36 40.39 11.61
11/14/2021 2:30:00 AM 8.7 47.66 0.119 7.36 39.66 11.6
11/14/2021 2:45:00 AM 8.69 47.642 0.119 7.36 40.43 11.61
11/14/2021 3:00:00 AM 8.66 47.588 0.118 7.36 40.59 11.61
11/14/2021 3:15:00 AM 8.64 47.552 0.119 7.36 39.73 11.61
11/14/2021 3:30:00 AM 8.62 47.516 0.118 7.36 41.11 11.63
11/14/2021 3:45:00 AM 8.6 47.48 0.118 7.36 40.6 11.61
11/14/2021 4:00:00 AM 8.57 47.426 0.118 7.36 39.99 11.61
11/14/2021 4:15:00 AM 8.62 47.516 0.12 7.37 40.25 11.67
11/14/2021 4:30:00 AM 8.83 47.894 0.131 7.33 38.24 11.6
11/14/2021 4:45:00 AM 8.66 47.588 0.122 7.33 39.85 11.68
11/14/2021 5:00:00 AM 8.52 47.336 0.118 7.35 40.65 11.62
11/14/2021 5:15:00 AM 8.48 47.264 0.118 7.35 41.45 11.6
11/14/2021 5:30:00 AM 8.45 47.21 0.118 7.35 40.52 11.59
11/14/2021 5:45:00 AM 8.43 47.174 0.118 7.36 39.99 11.6
11/14/2021 6:00:00 AM 8.41 47.138 0.118 7.35 40.76 11.59
11/14/2021 6:15:00 AM 8.39 47.102 0.118 7.36 40.58 11.6
11/14/2021 6:30:00 AM 8.37 47.066 0.117 7.37 40.36 11.6
11/14/2021 6:45:00 AM 8.36 47.048 0.118 7.36 40.8 11.59
11/14/2021 7:00:00 AM 8.35 47.03 0.118 7.36 39.7 11.59
11/14/2021 7:15:00 AM 8.33 46.994 0.119 7.35 40.6 11.57
11/14/2021 7:30:00 AM 8.32 46.976 0.119 7.35 40.25 11.59
11/14/2021 7:45:00 AM 8.31 46.958 0.118 7.36 39.81 11.59
11/14/2021 8:00:00 AM 8.31 46.958 0.119 7.37 40.83 11.59
11/14/2021 8:15:00 AM 8.3 46.94 0.119 7.37 39.76 11.59
11/14/2021 8:30:00 AM 8.29 46.922 0.119 7.36 39.81 11.6
11/14/2021 8:45:00 AM 8.29 46.922 0.119 7.36 40.03 11.62
11/14/2021 9:00:00 AM 8.29 46.922 0.119 7.38 40 11.64
11/14/2021 9:15:00 AM 8.29 46.922 0.119 7.37 38.94 11.64
11/14/2021 9:30:00 AM 8.29 46.922 0.12 7.37 40.53 11.65
11/14/2021 9:45:00 AM 8.3 46.94 0.12 7.38 40.74 11.67
11/14/2021 10:00:00 AM 8.31 46.958 0.12 7.37 39.41 11.68
11/14/2021 10:15:00 AM 8.31 46.958 0.12 7.36 39.28 11.69
11/14/2021 10:30:00 AM 8.32 46.976 0.12 7.38 39.05 11.68
11/14/2021 10:45:00 AM 8.33 46.994 0.12 7.38 39.43 11.7
11/14/2021 11:00:00 AM 8.34 47.012 0.121 7.39 39.24 11.71
11/14/2021 11:15:00 AM 8.36 47.048 0.121 7.39 38.86 11.73
11/14/2021 11:30:00 AM 8.38 47.084 0.121 7.4 38.65 11.74
11/14/2021 11:45:00 AM 8.4 47.12 0.121 7.39 38.92 11.77
11/14/2021 12:00:00 PM 8.43 47.174 0.122 7.4 40.15 11.78
11/14/2021 12:15:00 PM 8.45 47.21 0.122 7.41 39.7 11.79
11/14/2021 12:30:00 PM 8.46 47.228 0.122 7.41 39.11 11.82
11/14/2021 12:45:00 PM 8.48 47.264 0.122 7.41 38.46 11.83
11/14/2021 1:00:00 PM 8.49 47.282 0.123 7.41 39.12 11.84
11/14/2021 1:15:00 PM 8.5 47.3 0.123 7.41 39.16 11.84
11/14/2021 1:30:00 PM 8.51 47.318 0.123 7.42 38.45 11.84
11/14/2021 1:45:00 PM 8.67 47.606 0.132 7.41 38.43 11.82
11/14/2021 2:00:00 PM 8.75 47.75 0.133 7.36 36.97 11.9
11/14/2021 2:15:00 PM 8.58 47.444 0.125 7.39 38.81 11.88
11/14/2021 2:30:00 PM 8.53 47.354 0.124 7.43 38.37 11.91
11/14/2021 2:45:00 PM 8.52 47.336 0.124 7.43 39.43 11.91
11/14/2021 3:00:00 PM 8.51 47.318 0.124 7.43 39 11.91
11/14/2021 3:15:00 PM 8.5 47.3 0.124 7.42 38.49 11.93
11/14/2021 3:30:00 PM 8.48 47.264 0.124 7.44 38.57 11.94
11/14/2021 3:45:00 PM 8.47 47.246 0.124 7.44 39.07 11.94
11/14/2021 4:00:00 PM 8.44 47.192 0.124 7.44 38.31 11.95
11/14/2021 4:15:00 PM 8.42 47.156 0.124 7.44 38.87 11.95
11/14/2021 4:30:00 PM 8.4 47.12 0.124 7.44 38.19 11.95
11/14/2021 4:45:00 PM 8.39 47.102 0.125 7.45 38.61 11.95
11/14/2021 5:00:00 PM 8.38 47.084 0.125 7.44 39.32 11.94
11/14/2021 5:15:00 PM 8.37 47.066 0.125 7.44 38.65 11.94
11/14/2021 5:30:00 PM 8.35 47.03 0.125 7.45 38.34 11.93
11/14/2021 5:45:00 PM 8.35 47.03 0.125 7.44 37.92 11.94
11/14/2021 6:00:00 PM 8.34 47.012 0.125 7.44 39 11.93
11/14/2021 6:15:00 PM 8.33 46.994 0.125 7.44 38.38 11.93
11/14/2021 6:30:00 PM 8.33 46.994 0.126 7.44 38.59 11.93
11/14/2021 6:45:00 PM 8.32 46.976 0.126 7.44 38.01 11.94
11/14/2021 7:00:00 PM 8.32 46.976 0.126 7.44 38.44 11.94
11/14/2021 7:15:00 PM 8.31 46.958 0.126 7.45 38.42 11.95
11/14/2021 7:30:00 PM 8.31 46.958 0.126 7.44 37.85 11.94
11/14/2021 7:45:00 PM 8.31 46.958 0.126 7.44 37.88 11.95
11/14/2021 8:00:00 PM 8.3 46.94 0.126 7.44 37.97 11.94
11/14/2021 8:15:00 PM 8.3 46.94 0.126 7.43 38.35 11.96
11/14/2021 8:30:00 PM 8.29 46.922 0.126 7.45 38.29 11.96
11/14/2021 8:45:00 PM 8.28 46.904 0.126 7.44 38.11 11.97
11/14/2021 9:00:00 PM 8.27 46.886 0.126 7.45 37.87 11.96
11/14/2021 9:15:00 PM 8.26 46.868 0.126 7.46 38.86 11.97
11/14/2021 9:30:00 PM 8.25 46.85 0.126 7.46 38.27 11.98
11/14/2021 9:45:00 PM 8.25 46.85 0.126 7.45 37.9 11.97
11/14/2021 10:00:00 PM 8.23 46.814 0.126 7.46 38.87 11.97
11/14/2021 10:15:00 PM 8.22 46.796 0.126 7.45 37.99 12.02
11/14/2021 10:30:00 PM 8.21 46.778 0.126 7.45 38.17 12.02
11/14/2021 10:45:00 PM 8.2 46.76 0.127 7.46 37.73 12.02
11/14/2021 11:00:00 PM 8.19 46.742 0.127 7.45 37.61 12.02
11/14/2021 11:15:00 PM 8.18 46.724 0.127 7.46 37.09 12.02
11/14/2021 11:30:00 PM 8.17 46.706 0.127 7.46 37.9 12.01
11/14/2021 11:45:00 PM 8.15 46.67 0.127 7.46 37.35 12
11/15/2021 12:00:00 AM 8.15 46.67 0.127 7.45 37.3 12
11/15/2021 12:15:00 AM 8.14 46.652 0.127 7.45 37.46 11.99
11/15/2021 12:30:00 AM 8.13 46.634 0.127 7.45 37.1 11.98
11/15/2021 12:45:00 AM 8.12 46.616 0.127 7.45 37.1 11.98
11/15/2021 1:00:00 AM 8.11 46.598 0.127 7.45 36.92 11.97
11/15/2021 1:15:00 AM 8.11 46.598 0.127 7.45 36.92 11.96
11/15/2021 1:30:00 AM 8.1 46.58 0.127 7.44 36.93 11.97
11/15/2021 1:45:00 AM 8.09 46.562 0.127 7.44 37.08 11.95
11/15/2021 2:00:00 AM 8.09 46.562 0.128 7.45 36.76 11.95
11/15/2021 2:15:00 AM 8.08 46.544 0.127 7.44 36.81 11.94
11/15/2021 2:30:00 AM 8.07 46.526 0.128 7.45 36.59 11.94
11/15/2021 2:45:00 AM 8.06 46.508 0.128 7.43 36.98 11.93
11/15/2021 3:00:00 AM 8.05 46.49 0.128 7.44 36.57 11.93
11/15/2021 3:15:00 AM 8.04 46.472 0.127 7.44 37.32 11.93
11/15/2021 3:30:00 AM 8.03 46.454 0.127 7.44 36.68 11.91
11/15/2021 3:45:00 AM 8.01 46.418 0.128 7.43 36.91 11.9
11/15/2021 4:00:00 AM 8 46.4 0.128 7.43 36.51 11.88
11/15/2021 4:15:00 AM 7.98 46.364 0.127 7.44 36.74 11.89
11/15/2021 4:30:00 AM 7.97 46.346 0.127 7.44 37.13 11.89
11/15/2021 4:45:00 AM 7.95 46.31 0.128 7.44 36.56 11.87
11/15/2021 5:00:00 AM 7.93 46.274 0.128 7.43 37 11.87
11/15/2021 5:15:00 AM 7.91 46.238 0.128 7.43 36.38 11.87
11/15/2021 5:30:00 AM 7.9 46.22 0.128 7.42 36.27 11.86
11/15/2021 5:45:00 AM 7.88 46.184 0.128 7.42 36.46 11.85
11/15/2021 6:00:00 AM 7.86 46.148 0.128 7.43 36.39 11.86
11/15/2021 6:15:00 AM 7.85 46.13 0.128 7.42 36.43 11.84
11/15/2021 6:30:00 AM 7.83 46.094 0.128 7.43 36.79 11.85
11/15/2021 6:45:00 AM 7.81 46.058 0.128 7.44 36.89 11.87
11/15/2021 7:00:00 AM 7.8 46.04 0.128 7.43 36.63 11.86
11/15/2021 7:15:00 AM 7.79 46.022 0.128 7.42 37.16 11.87
11/15/2021 7:30:00 AM 7.77 45.986 0.128 7.42 36.68 11.85
11/15/2021 7:45:00 AM 7.75 45.95